Provisional Data: Chiques Creek near Route 283


Please select a monitoring station.
Please select start date.
Please select start date.

Toggle Unit: C/F Toggle Unit: C/F
Sample Time Temperature (C) Temperature (F) Specific Conductivity (mS/cm) pH   Turbidity (NTU+) DO (mg/L)
8/9/2021 12:00:00 AM 22.1 71.78 0.625 8.19 2.82 8.31
8/9/2021 12:15:00 AM 22.06 71.708 0.318 8.19 2.38 8.3
8/9/2021 12:30:00 AM 22.02 71.636 0.275 8.18 2.67 8.31
8/9/2021 12:45:00 AM 21.97 71.546 0.264 8.19 4.23 8.31
8/9/2021 1:00:00 AM 21.94 71.492 0.283 8.18 3.1 8.3
8/9/2021 1:15:00 AM 21.9 71.42 0.316 8.17 4.05 8.3
8/9/2021 1:30:00 AM 21.87 71.366 0.294 8.17 4.28 8.29
8/9/2021 1:45:00 AM 21.83 71.294 0.296 8.17 8.84 8.28
8/9/2021 2:00:00 AM 21.8 71.24 0.63 8.16 4.06 8.29
8/9/2021 2:15:00 AM 21.78 71.204 0.283 8.17 3.91 8.29
8/9/2021 2:30:00 AM 21.75 71.15 0.294 8.18 3.67 8.28
8/9/2021 2:45:00 AM 21.72 71.096 0.264 8.15 2.57 8.27
8/9/2021 3:00:00 AM 21.7 71.06 0.254 8.17 4.42 8.26
8/9/2021 3:15:00 AM 21.68 71.024 0.263 8.15 3.17 8.26
8/9/2021 3:30:00 AM 21.66 70.988 0.629 8.15 2.72 8.24
8/9/2021 3:45:00 AM 21.64 70.952 0.347 8.15 3.58 8.23
8/9/2021 4:00:00 AM 21.62 70.916 0.262 8.16 3.67 8.24
8/9/2021 4:15:00 AM 21.6 70.88 0.318 8.15 2.92 8.23
8/9/2021 4:30:00 AM 21.58 70.844 0.304 8.16 2.65 8.23
8/9/2021 4:45:00 AM 21.56 70.808 0.27 8.16 2.49 8.24
8/9/2021 5:00:00 AM 21.54 70.772 0.297 8.15 3 8.21
8/9/2021 5:15:00 AM 21.52 70.736 0.257 8.15 3.06 8.22
8/9/2021 5:30:00 AM 21.5 70.7 0.631 8.15 3.32 8.19
8/9/2021 5:45:00 AM 21.48 70.664 0.349 8.14 2.93 8.2
8/9/2021 6:00:00 AM 21.47 70.646 0.266 8.14 3.22 8.2
8/9/2021 6:15:00 AM 21.46 70.628 0.279 8.13 3.51 8.21
8/9/2021 6:30:00 AM 21.45 70.61 0.272 8.14 3 8.21
8/9/2021 6:45:00 AM 21.44 70.592 0.343 8.12 3.23 8.24
8/9/2021 7:00:00 AM 21.44 70.592 0.258 8.13 4.13 8.25
8/9/2021 7:15:00 AM 21.44 70.592 0.327 8.14 2.8 8.28
8/9/2021 7:30:00 AM 21.45 70.61 0.292 8.15 2.96 8.31
8/9/2021 7:45:00 AM 21.47 70.646 0.311 8.15 3.49 8.37
8/9/2021 8:00:00 AM 21.49 70.682 0.261 8.16 2.96 8.46
8/9/2021 8:15:00 AM 21.52 70.736 0.352 8.16 2.97 8.54
8/9/2021 8:30:00 AM 21.56 70.808 0.353 8.18 2.86 8.63
8/9/2021 8:45:00 AM 21.59 70.862 0.309 8.19 2.95 8.7
8/9/2021 9:00:00 AM 21.63 70.934 0.307 8.2 2.68 8.75
8/9/2021 9:15:00 AM 21.68 71.024 0.303 8.21 3.1 8.82
8/9/2021 9:30:00 AM 21.72 71.096 0.631 8.21 2.59 8.85
8/9/2021 9:45:00 AM 21.78 71.204 0.282 8.22 2.77 8.92
8/9/2021 10:00:00 AM 21.82 71.276 0.63 8.22 3.03 8.91
8/9/2021 10:15:00 AM 21.91 71.438 0.304 8.23 3.24 9.02
8/9/2021 10:30:00 AM 22.01 71.618 0.32 8.24 2.75 9.12
8/9/2021 10:45:00 AM 22.08 71.744 0.269 8.24 2.76 9.08
8/9/2021 11:00:00 AM 22.17 71.906 0.251 8.24 3.29 9.13
8/9/2021 11:15:00 AM 22.34 72.212 0.626 8.25 3.81 9.21
8/9/2021 11:30:00 AM 22.47 72.446 0.263 8.26 3.45 9.25
8/9/2021 11:45:00 AM 22.57 72.626 0.276 8.26 3.8 9.23
8/9/2021 12:00:00 PM 22.67 72.806 0.285 8.27 3.09 9.26
8/9/2021 12:15:00 PM 22.76 72.968 0.298 8.27 3.65 9.26
8/9/2021 12:30:00 PM 22.85 73.13 0.249 8.27 3.96 9.25
8/9/2021 12:45:00 PM 22.95 73.31 0.324 8.27 3.44 9.23
8/9/2021 1:00:00 PM 23.04 73.472 0.257 8.28 3.26 9.23
8/9/2021 1:15:00 PM 23.04 73.472 0.329 8.26 2.95 9.14
8/9/2021 1:30:00 PM 23.16 73.688 0.258 8.28 2.91 9.2
8/9/2021 1:45:00 PM 23.18 73.724 0.316 8.27 3.77 9.19
8/9/2021 2:00:00 PM 23.27 73.886 0.252 8.28 2.94 9.19
8/9/2021 2:15:00 PM 23.3 73.94 0.262 8.28 3.1 9.13
8/9/2021 2:30:00 PM 23.37 74.066 0.32 8.28 2.82 9.13
8/9/2021 2:45:00 PM 23.49 74.282 0.306 8.28 3.15 9.08
8/9/2021 3:00:00 PM 23.5 74.3 0.3 8.27 2.87 8.91
8/9/2021 3:15:00 PM 23.62 74.516 0.301 8.26 2.71 8.93
8/9/2021 3:30:00 PM 23.78 74.804 0.281 8.27 2.61 8.91
8/9/2021 3:45:00 PM 23.78 74.804 0.273 8.28 3.3 8.9
8/9/2021 4:00:00 PM 23.74 74.732 0.288 8.27 3.44 8.86
8/9/2021 4:15:00 PM 23.76 74.768 0.279 8.28 2.92 8.84
8/9/2021 4:30:00 PM 23.75 74.75 0.292 8.26 2.86 8.79
8/9/2021 4:45:00 PM 23.75 74.75 0.622 8.27 2.86 8.74
8/9/2021 5:00:00 PM 23.74 74.732 0.27 8.27 2.69 8.67
8/9/2021 5:15:00 PM 23.76 74.768 0.302 8.26 3.26 8.59
8/9/2021 5:30:00 PM 23.82 74.876 0.286 8.27 2.84 8.52
8/9/2021 5:45:00 PM 23.85 74.93 0.623 8.27 3 8.46
8/9/2021 6:00:00 PM 23.85 74.93 0.326 8.27 2.98 8.42
8/9/2021 6:15:00 PM 23.82 74.876 0.311 8.26 4.85 8.46
8/9/2021 6:30:00 PM 23.8 74.84 0.624 8.26 3.27 8.44
8/9/2021 6:45:00 PM 23.72 74.696 0.623 8.26 2.89 8.4
8/9/2021 7:00:00 PM 23.66 74.588 0.624 8.25 2.65 8.36
8/9/2021 7:15:00 PM 23.62 74.516 0.291 8.25 3.06 8.32
8/9/2021 7:30:00 PM 23.59 74.462 0.289 8.24 2.52 8.27
8/9/2021 7:45:00 PM 23.53 74.354 0.295 8.23 2.99 8.26
8/9/2021 8:00:00 PM 23.43 74.174 0.296 8.23 3.55 8.23
8/9/2021 8:15:00 PM 23.35 74.03 0.315 8.22 2.65 8.21
8/9/2021 8:30:00 PM 23.28 73.904 0.317 8.22 3.84 8.17
8/9/2021 8:45:00 PM 23.23 73.814 0.301 8.21 11.17 8.17
8/9/2021 9:00:00 PM 23.17 73.706 0.322 8.21 7.4 8.17
8/9/2021 9:15:00 PM 23.13 73.634 0.287 8.2 7.38 8.13
8/9/2021 9:30:00 PM 23.08 73.544 0.289 8.21 3.89 8.17
8/9/2021 9:45:00 PM 23.06 73.508 0.303 8.2 2.36 8.15
8/9/2021 10:00:00 PM 23.04 73.472 0.301 8.2 4.32 8.17
8/9/2021 10:15:00 PM 23.02 73.436 0.282 8.2 8.14 8.15
8/9/2021 10:30:00 PM 23.01 73.418 0.284 8.2 8.69 8.15
8/9/2021 10:45:00 PM 23 73.4 0.28 8.2 3.42 8.15
8/9/2021 11:00:00 PM 22.98 73.364 0.627 8.2 3.64 8.14
8/9/2021 11:15:00 PM 22.96 73.328 0.294 8.2 3.12 8.15
8/9/2021 11:30:00 PM 22.92 73.256 0.303 8.2 4.31 8.16
8/9/2021 11:45:00 PM 22.89 73.202 0.334 8.19 2.88 8.15
8/10/2021 12:00:00 AM 22.85 73.13 0.332 8.19 2.8 8.16
8/10/2021 12:15:00 AM 22.83 73.094 0.324 8.19 2.59 8.14
8/10/2021 12:30:00 AM 22.8 73.04 0.25 8.19 2.85 8.14
8/10/2021 12:45:00 AM 22.77 72.986 0.628 8.19 2.33 8.11
8/10/2021 1:00:00 AM 22.73 72.914 0.312 8.19 3.02 8.13
8/10/2021 1:15:00 AM 22.69 72.842 0.277 8.19 2.47 8.13
8/10/2021 1:30:00 AM 22.66 72.788 0.298 8.18 2.48 8.14
8/10/2021 1:45:00 AM 22.62 72.716 0.628 8.18 2.85 8.12
8/10/2021 2:00:00 AM 22.6 72.68 0.311 8.17 2.66 8.14
8/10/2021 2:15:00 AM 22.58 72.644 0.251 8.18 3.33 8.14
8/10/2021 2:30:00 AM 22.56 72.608 0.305 8.18 3.67 8.13
8/10/2021 2:45:00 AM 22.55 72.59 0.327 8.18 2.56 8.11
8/10/2021 3:00:00 AM 22.54 72.57201 0.629 8.17 4.17 8.1
8/10/2021 3:15:00 AM 22.53 72.554 0.258 8.18 3.58 8.13
8/10/2021 3:30:00 AM 22.53 72.554 0.256 8.18 3.4 8.12
8/10/2021 3:45:00 AM 22.52 72.536 0.337 8.18 4.52 8.14
8/10/2021 4:00:00 AM 22.5 72.5 0.301 8.18 2.95 8.14
8/10/2021 4:15:00 AM 22.49 72.482 0.265 8.18 3.48 8.14
8/10/2021 4:30:00 AM 22.47 72.446 0.252 8.17 3.28 8.15
8/10/2021 4:45:00 AM 22.46 72.42799 0.628 8.17 3.2 8.13
8/10/2021 5:00:00 AM 22.45 72.41 0.276 8.18 3.77 8.16
8/10/2021 5:15:00 AM 22.44 72.392 0.254 8.18 4.3 8.14
8/10/2021 5:30:00 AM 22.44 72.392 0.295 8.18 3.91 8.15
8/10/2021 5:45:00 AM 22.43 72.374 0.26 8.17 2.82 8.14
8/10/2021 6:00:00 AM 22.43 72.374 0.314 8.17 3.25 8.14
8/10/2021 6:15:00 AM 22.42 72.356 0.276 8.17 3.22 8.14
8/10/2021 6:30:00 AM 22.42 72.356 0.319 8.16 3 8.13
8/10/2021 6:45:00 AM 22.42 72.356 0.626 8.18 3.53 8.13
8/10/2021 7:00:00 AM 22.42 72.356 0.626 8.19 2.89 8.17
8/10/2021 7:15:00 AM 22.42 72.356 0.625 8.19 2.63 8.17
8/10/2021 7:30:00 AM 22.43 72.374 0.293 8.18 3.31 8.2
8/10/2021 7:45:00 AM 22.43 72.374 0.299 8.18 2.99 8.23
8/10/2021 8:00:00 AM 22.45 72.41 0.332 8.17 2.68 8.24
8/10/2021 8:15:00 AM 22.46 72.42799 0.282 8.19 3.04 8.26
8/10/2021 8:30:00 AM 22.48 72.464 0.292 8.19 2.87 8.27
8/10/2021 8:45:00 AM 22.51 72.518 0.293 8.2 2.59 8.35
8/10/2021 9:00:00 AM 22.53 72.554 0.3 8.2 3.11 8.39
8/10/2021 9:15:00 AM 22.59 72.662 0.256 8.21 3.5 8.58
8/10/2021 9:30:00 AM 22.63 72.734 0.331 8.22 2.52 8.61
8/10/2021 9:45:00 AM 22.68 72.824 0.257 8.23 2.6 8.66
8/10/2021 10:00:00 AM 22.74 72.932 0.309 8.23 3.18 8.72
8/10/2021 10:15:00 AM 22.82 73.076 0.296 8.24 3.11 8.78
8/10/2021 10:30:00 AM 22.94 73.292 0.266 8.25 2.86 8.91
8/10/2021 10:45:00 AM 23.11 73.598 0.276 8.27 2.6 9.06
8/10/2021 11:00:00 AM 23.23 73.814 0.247 8.26 3.68 9.07
8/10/2021 11:15:00 AM 23.35 74.03 0.258 8.28 3.34 9.11
8/10/2021 11:30:00 AM 23.52 74.336 0.618 8.29 3.46 9.12
8/10/2021 11:45:00 AM 23.5 74.3 0.249 8.28 5.52 9.08
8/10/2021 12:00:00 PM 23.55 74.39 0.27 8.29 3.46 9.06
8/10/2021 12:15:00 PM 23.61 74.498 0.3 8.28 3.15 9.1
8/10/2021 12:30:00 PM 23.69 74.642 0.248 8.28 2.46 9.09
8/10/2021 12:45:00 PM 23.75 74.75 0.27 8.28 3.3 9.02
8/10/2021 1:00:00 PM 23.87 74.966 0.3 8.27 2.52 9.07
8/10/2021 1:15:00 PM 23.93 75.074 0.245 8.28 3.06 9.04
8/10/2021 1:30:00 PM 23.94 75.092 0.265 8.27 2.45 8.92
8/10/2021 1:45:00 PM 23.96 75.128 0.257 8.26 2.44 8.8
8/10/2021 2:00:00 PM 24.06 75.308 0.302 8.26 4.04 8.86
8/10/2021 2:15:00 PM 24.09 75.362 0.319 8.26 2.62 8.86
8/10/2021 2:30:00 PM 24.14 75.452 0.275 8.26 3.37 8.84
8/10/2021 2:45:00 PM 24.18 75.524 0.318 8.25 2.79 8.82
8/10/2021 3:00:00 PM 24.17 75.506 0.265 8.26 3.09 8.74
8/10/2021 3:15:00 PM 24.17 75.506 0.618 8.24 3.1 8.61
8/10/2021 3:30:00 PM 24.28 75.704 0.294 8.25 2.42 8.71
8/10/2021 3:45:00 PM 24.33 75.794 0.259 8.25 2.57 8.67
8/10/2021 4:00:00 PM 24.37 75.866 0.272 8.25 2.69 8.62
8/10/2021 4:15:00 PM 24.44 75.992 0.271 8.26 2.88 8.69
8/10/2021 4:30:00 PM 24.41 75.938 0.25 8.25 2.59 8.54
8/10/2021 4:45:00 PM 24.31 75.758 0.618 8.23 2.65 8.34
8/10/2021 5:00:00 PM 24.26 75.668 0.618 8.24 2.32 8.42
8/10/2021 5:15:00 PM 24.17 75.506 0.27 8.23 2.81 8.35
8/10/2021 5:30:00 PM 24.17 75.506 0.619 8.23 2.94 8.36
8/10/2021 5:45:00 PM 24.25 75.65 0.313 8.22 2.39 8.32
8/10/2021 6:00:00 PM 24.37 75.866 0.302 8.23 3.34 8.29
8/10/2021 6:15:00 PM 24.42 75.956 0.311 8.22 4.72 8.09
8/10/2021 6:30:00 PM 24.28 75.704 0.261 8.21 2.72 7.95
8/10/2021 6:45:00 PM 23.86 74.948 0.245 8.23 4.97 8.07
8/10/2021 7:00:00 PM 23.52 74.336 0.298 8.21 15.55 8.2
8/10/2021 7:15:00 PM 23.54 74.372 0.298 8.19 9.52 8.28
8/10/2021 7:30:00 PM 23.46 74.228 0.286 8.17 7.93 8.3
8/10/2021 7:45:00 PM 23.39 74.102 0.302 8.18 7.09 8.38
8/10/2021 8:00:00 PM 23.29 73.922 0.287 8.17 8.64 8.42
8/10/2021 8:15:00 PM 23.32 73.976 0.254 8.17 7.23 8.46
8/10/2021 8:30:00 PM 23.25 73.85 0.336 8.17 7.41 8.46
8/10/2021 8:45:00 PM 23.12 73.616 0.264 8.15 10.82 8.41
8/10/2021 9:00:00 PM 22.98 73.364 0.314 8.13 6.79 8.37
8/10/2021 9:15:00 PM 22.88 73.184 0.322 8.14 7.22 8.36
8/10/2021 9:30:00 PM 22.79 73.022 0.598 8.13 6.33 8.37
8/10/2021 9:45:00 PM 22.69 72.842 0.337 8.13 11.94 8.37
8/10/2021 10:00:00 PM 22.6 72.68 0.309 8.11 5.17 8.37
8/10/2021 10:15:00 PM 22.51 72.518 0.25 8.11 5.97 8.39
8/10/2021 10:30:00 PM 22.44 72.392 0.252 8.12 5.77 8.38
8/10/2021 10:45:00 PM 22.4 72.32 0.289 8.12 6.91 8.41
8/10/2021 11:00:00 PM 22.4 72.32 0.302 8.12 6.03 8.41
8/10/2021 11:15:00 PM 22.45 72.41 0.319 8.13 7.65 8.39
8/10/2021 11:30:00 PM 22.55 72.59 0.297 8.14 6.91 8.39
8/10/2021 11:45:00 PM 22.69 72.842 0.317 8.14 11.51 8.39
8/11/2021 12:00:00 AM 22.85 73.13 0.27 8.14 10.72 8.36
8/11/2021 12:15:00 AM 22.98 73.364 0.289 8.13 15.42 8.27
8/11/2021 12:30:00 AM 23.05 73.49 0.283 8.1 24.27 8.15
8/11/2021 12:45:00 AM 23.03 73.454 0.288 8.05 32.4 8.05
8/11/2021 1:00:00 AM 22.95 73.31 0.252 7.99 35.36 7.98
8/11/2021 1:15:00 AM 22.84 73.112 0.253 7.95 32.68 7.94
8/11/2021 1:30:00 AM 22.76 72.968 0.256 7.94 33.4 7.89
8/11/2021 1:45:00 AM 22.7 72.86 0.243 7.93 31.7 7.87
8/11/2021 2:00:00 AM 22.65 72.77 0.241 7.93 27.29 7.83
8/11/2021 2:15:00 AM 22.62 72.716 0.422 7.94 25.08 7.81
8/11/2021 2:30:00 AM 22.61 72.698 0.269 7.95 22.19 7.8
8/11/2021 2:45:00 AM 22.62 72.716 0.29 7.95 19.54 7.81
8/11/2021 3:00:00 AM 22.65 72.77 0.288 7.98 17.4 7.78
8/11/2021 3:15:00 AM 22.69 72.842 0.32 7.97 16.2 7.79
8/11/2021 3:30:00 AM 22.73 72.914 0.305 7.97 15.85 7.79
8/11/2021 3:45:00 AM 22.77 72.986 0.312 7.96 15.74 7.79
8/11/2021 4:00:00 AM 22.81 73.058 0.297 7.98 14.98 7.78
8/11/2021 4:15:00 AM 22.84 73.112 0.287 7.97 16.58 7.78
8/11/2021 4:30:00 AM 22.86 73.148 0.303 7.96 20.38 7.77
8/11/2021 4:45:00 AM 22.86 73.148 0.287 7.95 26.1 7.75
8/11/2021 5:00:00 AM 22.86 73.148 0.49 7.93 26.58 7.73
8/11/2021 5:15:00 AM 22.85 73.13 0.487 7.93 31.64 7.72
8/11/2021 5:30:00 AM 22.84 73.112 0.488 7.93 34.89 7.7
8/11/2021 5:45:00 AM 22.84 73.112 0.313 7.92 30.55 7.7
8/11/2021 6:00:00 AM 22.84 73.112 0.274 7.92 29.73 7.71
8/11/2021 6:15:00 AM 22.85 73.13 0.267 7.93 27.76 7.71
8/11/2021 6:30:00 AM 22.86 73.148 0.251 7.94 25.95 7.73
8/11/2021 6:45:00 AM 22.87 73.166 0.295 7.95 21.29 7.74
8/11/2021 7:00:00 AM 22.88 73.184 0.287 7.95 18.09 7.76
8/11/2021 7:15:00 AM 22.89 73.202 0.302 7.96 17.06 7.77
8/11/2021 7:30:00 AM 22.89 73.202 0.548 7.96 15.93 7.78
8/11/2021 7:45:00 AM 22.9 73.22 0.287 7.96 13.12 7.79
8/11/2021 8:00:00 AM 22.91 73.238 0.306 7.97 12.43 7.81
8/11/2021 8:15:00 AM 22.92 73.256 0.307 7.98 11.48 7.82
8/11/2021 8:30:00 AM 22.94 73.292 0.281 7.98 11.74 7.84
8/11/2021 8:45:00 AM 22.95 73.31 0.278 7.99 10.75 7.84
8/11/2021 9:00:00 AM 22.98 73.364 0.255 7.99 10.55 7.86
8/11/2021 9:15:00 AM 23.02 73.436 0.314 7.99 9.55 7.88
8/11/2021 9:30:00 AM 23.06 73.508 0.267 8 9.99 7.9
8/11/2021 9:45:00 AM 23.11 73.598 0.274 8 9.32 7.91
8/11/2021 10:00:00 AM 23.16 73.688 0.264 8 9.36 7.93
8/11/2021 10:15:00 AM 23.22 73.796 0.253 8 9.83 7.93
8/11/2021 10:30:00 AM 23.29 73.922 0.283 7.99 9.81 7.95
8/11/2021 10:45:00 AM 23.36 74.048 0.305 7.99 11.5 7.94
8/11/2021 11:00:00 AM 23.43 74.174 0.284 7.98 11.33 7.95
8/11/2021 11:15:00 AM 23.49 74.282 0.282 7.98 10.62 7.96
8/11/2021 11:30:00 AM 23.55 74.39 0.447 7.97 10.96 7.96
8/11/2021 11:45:00 AM 23.61 74.498 0.308 7.96 10.08 7.95
8/11/2021 12:00:00 PM 23.7 74.66 0.292 7.97 9.24 7.94
8/11/2021 12:15:00 PM 23.78 74.804 0.308 7.96 9.65 7.95
8/11/2021 12:30:00 PM 23.82 74.876 0.288 7.96 9.12 7.94
8/11/2021 12:45:00 PM 23.88 74.984 0.25 7.96 10.18 7.93
8/11/2021 1:00:00 PM 23.95 75.11 0.309 7.96 9.44 7.93
8/11/2021 1:15:00 PM 24.01 75.218 0.259 7.96 9.66 7.92
8/11/2021 1:30:00 PM 24.05 75.29 0.285 7.95 9.25 7.86
8/11/2021 1:45:00 PM 24.02 75.236 0.298 7.94 9.52 7.84
8/11/2021 2:00:00 PM 24.1 75.38 0.28 7.94 8.87 7.87
8/11/2021 2:15:00 PM 24.21 75.578 0.274 7.95 8.9 7.88
8/11/2021 2:30:00 PM 24.33 75.794 0.27 7.93 8.95 7.87
8/11/2021 2:45:00 PM 24.48 76.064 0.288 7.95 8.35 7.89
8/11/2021 3:00:00 PM 24.51 76.118 0.273 7.96 8.56 7.88
8/11/2021 3:15:00 PM 24.47 76.046 0.285 7.94 8.58 7.72
8/11/2021 3:30:00 PM 24.42 75.956 0.274 7.92 8.05 7.6
8/11/2021 3:45:00 PM 24.35 75.83 0.26 7.91 8.86 7.61
8/11/2021 4:00:00 PM 24.49 76.082 0.254 7.92 8.59 7.81
8/11/2021 4:15:00 PM 24.71 76.478 0.255 7.94 9.09 7.86
8/11/2021 4:30:00 PM 24.83 76.694 0.267 7.96 8.92 7.84
8/11/2021 4:45:00 PM 24.77 76.586 0.269 7.95 8.2 7.74
8/11/2021 5:00:00 PM 24.69 76.442 0.255 7.93 8.49 7.63
8/11/2021 5:15:00 PM 24.64 76.352 0.27 7.93 8.02 7.6
8/11/2021 5:30:00 PM 24.33 75.794 0.268 7.93 13.44 7.67
8/11/2021 5:45:00 PM 24.27 75.686 0.256 7.92 9.74 7.65
8/11/2021 6:00:00 PM 24.3 75.74 0.231 7.91 9.84 7.67
8/11/2021 6:15:00 PM 24.31 75.758 0.253 7.91 9.41 7.68
8/11/2021 6:30:00 PM 24.27 75.686 0.224 7.89 9.96 7.71
8/11/2021 6:45:00 PM 24.23 75.614 0.252 7.9 10.08 7.74
8/11/2021 7:00:00 PM 24.17 75.506 0.212 7.9 10.22 7.76
8/11/2021 7:15:00 PM 24.11 75.398 0.269 7.89 10.62 7.78
8/11/2021 7:30:00 PM 24.07 75.326 0.227 7.89 11 7.8
8/11/2021 7:45:00 PM 24.08 75.344 0.273 7.87 10.67 7.8
8/11/2021 8:00:00 PM 24.1 75.38 0.268 7.89 9.57 7.81
8/11/2021 8:15:00 PM 24.14 75.452 0.399 7.89 9.64 7.83
8/11/2021 8:30:00 PM 24.19 75.542 0.271 7.9 12.15 7.85
8/11/2021 8:45:00 PM 24.23 75.614 0.232 7.92 10.37 7.89
8/11/2021 9:00:00 PM 24.25 75.65 0.275 7.91 11.32 7.92
8/11/2021 9:15:00 PM 24.25 75.65 0.292 7.9 14.49 7.95
8/11/2021 9:30:00 PM 24.07 75.326 0.261 7.89 42.02 7.97
8/11/2021 9:45:00 PM 24.03 75.254 0.252 7.86 39.46 7.93
8/11/2021 10:00:00 PM 24.05 75.29 0.256 7.83 46.62 7.94
8/11/2021 10:15:00 PM 24.09 75.362 0.245 7.83 55.75 7.94
8/11/2021 10:30:00 PM 23.94 75.092 0.26 7.79 81.46 7.93
8/11/2021 10:45:00 PM 23.78 74.804 0.233 7.76 104.87 7.93
8/11/2021 11:00:00 PM 23.74 74.732 0.254 7.74 87.52 7.92
8/11/2021 11:15:00 PM 23.75 74.75 0.248 7.74 102.34 7.91
8/11/2021 11:30:00 PM 23.81 74.858 0.214 7.76 82.78 7.89
8/11/2021 11:45:00 PM 23.88 74.984 0.25 7.73 78.73 7.85
8/12/2021 12:00:00 AM 23.94 75.092 0.233 7.71 68.7 7.8
8/12/2021 12:15:00 AM 23.99 75.182 0.242 7.72 70.31 7.74
8/12/2021 12:30:00 AM 24.02 75.236 0.266 7.71 57.83 7.69
8/12/2021 12:45:00 AM 24.03 75.254 0.224 7.68 67.63 7.67
8/12/2021 1:00:00 AM 24.04 75.272 0.222 7.65 59.33 7.67
8/12/2021 1:15:00 AM 24.05 75.29 0.212 7.69 57.97 7.69
8/12/2021 1:30:00 AM 24.05 75.29 0.225 7.69 58.72 7.71
8/12/2021 1:45:00 AM 24.06 75.308 0.25 7.69 57.04 7.72
8/12/2021 2:00:00 AM 24.05 75.29 0.188 7.68 54.22 7.74
8/12/2021 2:15:00 AM 24.05 75.29 0.229 7.67 47.81 7.75
8/12/2021 2:30:00 AM 24.04 75.272 0.168 7.69 48.43 7.76
8/12/2021 2:45:00 AM 24.03 75.254 0.189 7.67 55.59 7.76
8/12/2021 3:00:00 AM 24.02 75.236 0.204 7.67 37.37 7.76
8/12/2021 3:15:00 AM 24.01 75.218 0.179 7.66 40.06 7.76
8/12/2021 3:30:00 AM 24 75.2 0.161 7.67 39.47 7.77
8/12/2021 3:45:00 AM 23.99 75.182 0.169 7.66 37.55 7.76
8/12/2021 4:00:00 AM 23.97 75.146 0.165 7.66 39.63 7.77
8/12/2021 4:15:00 AM 23.95 75.11 0.172 7.67 44.17 7.77
8/12/2021 4:30:00 AM 23.93 75.074 0.171 7.7 59.66 7.78
8/12/2021 4:45:00 AM 23.9 75.02 0.171 7.69 52.19 7.78
8/12/2021 5:00:00 AM 23.87 74.966 0.18 7.67 53.8 7.8
8/12/2021 5:15:00 AM 23.84 74.912 0.178 7.68 55.58 7.8
8/12/2021 5:30:00 AM 23.81 74.858 0.17 7.71 57.99 7.8
8/12/2021 5:45:00 AM 23.77 74.786 0.181 7.72 54.01 7.81
8/12/2021 6:00:00 AM 23.73 74.714 0.196 7.71 56.99 7.81
8/12/2021 6:15:00 AM 23.69 74.642 0.197 7.72 54.53 7.81
8/12/2021 6:30:00 AM 23.65 74.57 0.232 7.73 50.71 7.8
8/12/2021 6:45:00 AM 23.61 74.498 0.201 7.73 41.85 7.82
8/12/2021 7:00:00 AM 23.57 74.426 0.194 7.72 39.99 7.81
8/12/2021 7:15:00 AM 23.53 74.354 0.212 7.74 46 7.81
8/12/2021 7:30:00 AM 23.48 74.264 0.207 7.71 45.18 7.81
8/12/2021 7:45:00 AM 23.45 74.21 0.204 7.73 38.42 7.81
8/12/2021 8:00:00 AM 23.41 74.138 0.218 7.73 41.79 7.81
8/12/2021 8:15:00 AM 23.37 74.066 0.247 7.74 36.32 7.8
8/12/2021 8:30:00 AM 23.35 74.03 0.213 7.74 35.41 7.81
8/12/2021 8:45:00 AM 23.33 73.994 0.185 7.73 34.42 7.82
8/12/2021 9:00:00 AM 23.31 73.958 0.204 7.73 37.86 7.81
8/12/2021 9:15:00 AM 23.3 73.94 0.201 7.74 34.8 7.82
8/12/2021 9:30:00 AM 23.3 73.94 0.201 7.75 31.3 7.83
8/12/2021 9:45:00 AM 23.31 73.958 0.248 7.75 35.49 7.83
8/12/2021 10:00:00 AM 23.32 73.976 0.215 7.75 34.81 7.84
8/12/2021 10:15:00 AM 23.33 73.994 0.214 7.75 34.62 7.86
8/12/2021 10:30:00 AM 23.34 74.012 0.215 7.74 30.84 7.87
8/12/2021 10:45:00 AM 23.36 74.048 0.222 7.75 27.82 7.88
8/12/2021 11:00:00 AM 23.39 74.102 0.227 7.76 30.29 7.89
8/12/2021 11:15:00 AM 23.41 74.138 0.225 7.75 29.84 7.91
8/12/2021 11:30:00 AM 23.43 74.174 0.223 7.77 31.4 7.92
8/12/2021 11:45:00 AM 23.47 74.246 0.237 7.78 32.71 7.93
8/12/2021 12:00:00 PM 23.51 74.318 0.233 7.79 31.32 7.93
8/12/2021 12:15:00 PM 23.54 74.372 0.237 7.79 30.55 7.93
8/12/2021 12:30:00 PM 23.62 74.516 0.231 7.79 29.27 7.93
8/12/2021 12:45:00 PM 23.66 74.588 0.233 7.79 31.78 7.93
8/12/2021 1:00:00 PM 23.74 74.732 0.239 7.8 30.12 7.9
8/12/2021 1:15:00 PM 23.78 74.804 0.247 7.8 28.16 7.9
8/12/2021 1:30:00 PM 23.84 74.912 0.229 7.81 28.03 7.92
8/12/2021 1:45:00 PM 23.94 75.092 0.25 7.81 26.78 7.91
8/12/2021 2:00:00 PM 24.02 75.236 0.247 7.83 28.62 7.91
8/12/2021 2:15:00 PM 24.12 75.416 0.235 7.82 25.99 7.9
8/12/2021 2:30:00 PM 24.17 75.506 0.232 7.82 26.02 7.88
8/12/2021 2:45:00 PM 24.26 75.668 0.248 7.83 27.56 7.9
8/12/2021 3:00:00 PM 24.35 75.83 0.257 7.83 24.8 7.89
8/12/2021 3:15:00 PM 24.39 75.902 0.251 7.85 26.2 7.87
8/12/2021 3:30:00 PM 24.46 76.028 0.243 7.86 23.17 7.87
8/12/2021 3:45:00 PM 24.5 76.1 0.26 7.86 23.85 7.86
8/12/2021 4:00:00 PM 24.58 76.244 0.247 7.86 22.6 7.85
8/12/2021 4:15:00 PM 24.64 76.352 0.249 7.87 20.74 7.84
8/12/2021 4:30:00 PM 24.66 76.388 0.254 7.86 20.05 7.83
8/12/2021 4:45:00 PM 24.74 76.532 0.266 7.88 20.03 7.81
8/12/2021 5:00:00 PM 24.76 76.568 0.252 7.88 19.7 7.8
8/12/2021 5:15:00 PM 24.8 76.64 0.265 7.88 18.97 7.79
8/12/2021 5:30:00 PM 24.81 76.658 0.254 7.88 17.76 7.77
8/12/2021 5:45:00 PM 24.84 76.712 0.268 7.87 17.13 7.77
8/12/2021 6:00:00 PM 24.85 76.73 0.245 7.87 16.24 7.75
8/12/2021 6:15:00 PM 24.84 76.712 0.266 7.88 14.82 7.75
8/12/2021 6:30:00 PM 24.83 76.694 0.261 7.88 15.68 7.73
8/12/2021 6:45:00 PM 24.8 76.64 0.245 7.88 13.52 7.7
8/12/2021 7:00:00 PM 24.77 76.586 0.261 7.88 13.55 7.71
8/12/2021 7:15:00 PM 24.74 76.532 0.238 7.88 13.08 7.69
8/12/2021 7:30:00 PM 24.71 76.478 0.27 7.88 13.83 7.69
8/12/2021 7:45:00 PM 24.69 76.442 0.262 7.86 12.13 7.68
8/12/2021 8:00:00 PM 24.67 76.406 0.246 7.86 12.76 7.68
8/12/2021 8:15:00 PM 24.65 76.37 0.254 7.88 12.61 7.67
8/12/2021 8:30:00 PM 24.64 76.352 0.261 7.87 13.19 7.66
8/12/2021 8:45:00 PM 24.64 76.352 0.306 7.87 12.2 7.64
8/12/2021 9:00:00 PM 24.63 76.334 0.242 7.88 12.57 7.64
8/12/2021 9:15:00 PM 24.63 76.334 0.269 7.86 11.96 7.65
8/12/2021 9:30:00 PM 24.63 76.334 0.257 7.87 11.24 7.63
8/12/2021 9:45:00 PM 24.63 76.334 0.251 7.89 11.14 7.63
8/12/2021 10:00:00 PM 24.63 76.334 0.267 7.88 10.97 7.63
8/12/2021 10:15:00 PM 24.63 76.334 0.274 7.89 10.59 7.62
8/12/2021 10:30:00 PM 24.63 76.334 0.246 7.88 10.63 7.6
8/12/2021 10:45:00 PM 24.63 76.334 0.304 7.86 9.92 7.58
8/12/2021 11:00:00 PM 24.63 76.334 0.391 7.89 10 7.58
8/12/2021 11:15:00 PM 24.62 76.316 0.307 7.87 10.09 7.56
8/12/2021 11:30:00 PM 24.59 76.262 0.282 7.9 9.56 7.58
8/12/2021 11:45:00 PM 24.57 76.226 0.263 7.89 10.36 7.59
8/13/2021 12:00:00 AM 24.56 76.208 0.284 7.9 9.87 7.57
8/13/2021 12:15:00 AM 24.56 76.208 0.262 7.88 9.72 7.57
8/13/2021 12:30:00 AM 24.55 76.19 0.287 7.9 9.39 7.56
8/13/2021 12:45:00 AM 24.53 76.154 0.268 7.89 9.57 7.52
8/13/2021 1:00:00 AM 24.53 76.154 0.289 7.89 9.24 7.55
8/13/2021 1:15:00 AM 24.52 76.136 0.279 7.9 9.82 7.55
8/13/2021 1:30:00 AM 24.5 76.1 0.29 7.9 9.95 7.54
8/13/2021 1:45:00 AM 24.49 76.082 0.271 7.88 9.92 7.54
8/13/2021 2:00:00 AM 24.47 76.046 0.29 7.88 10.66 7.53
8/13/2021 2:15:00 AM 24.45 76.01 0.241 7.88 10.59 7.52
8/13/2021 2:30:00 AM 24.43 75.974 0.288 7.88 10.05 7.51
8/13/2021 2:45:00 AM 24.41 75.938 0.282 7.89 9.88 7.49
8/13/2021 3:00:00 AM 24.39 75.902 0.277 7.87 15.69 7.49
8/13/2021 3:15:00 AM 24.37 75.866 0.29 7.87 8.87 7.47
8/13/2021 3:30:00 AM 24.35 75.83 0.282 7.88 11.26 7.46
8/13/2021 3:45:00 AM 24.33 75.794 0.295 7.87 11.58 7.46
8/13/2021 4:00:00 AM 24.3 75.74 0.282 7.87 12.08 7.45
8/13/2021 4:15:00 AM 24.27 75.686 0.276 7.86 11.07 7.44
8/13/2021 4:30:00 AM 24.25 75.65 0.26 7.88 10.74 7.44
8/13/2021 4:45:00 AM 24.22 75.596 0.271 7.88 11.01 7.44
8/13/2021 5:00:00 AM 24.19 75.542 0.289 7.87 10.08 7.44
8/13/2021 5:15:00 AM 24.16 75.488 0.269 7.86 10.67 7.44
8/13/2021 5:30:00 AM 24.12 75.416 0.298 7.87 11.01 7.43
8/13/2021 5:45:00 AM 24.08 75.344 0.285 7.88 10.52 7.43
8/13/2021 6:00:00 AM 24.04 75.272 0.281 7.86 10.36 7.43
8/13/2021 6:15:00 AM 24 75.2 0.394 7.86 11.09 7.43
8/13/2021 6:30:00 AM 23.97 75.146 0.311 7.85 10.56 7.45
8/13/2021 6:45:00 AM 23.92 75.056 0.298 7.86 10.52 7.46
8/13/2021 7:00:00 AM 23.88 74.984 0.267 7.87 11 7.47
8/13/2021 7:15:00 AM 23.84 74.912 0.266 7.86 12.8 7.48
8/13/2021 7:30:00 AM 23.8 74.84 0.279 7.86 11.53 7.49
8/13/2021 7:45:00 AM 23.75 74.75 0.301 7.86 10.83 7.48
8/13/2021 8:00:00 AM 23.71 74.67799 0.283 7.88 10.93 7.5
8/13/2021 8:15:00 AM 23.67 74.606 0.313 7.86 10.73 7.51
8/13/2021 8:30:00 AM 23.63 74.534 0.295 7.88 11.09 7.52
8/13/2021 8:45:00 AM 23.58 74.444 0.283 7.88 10.62 7.55
8/13/2021 9:00:00 AM 23.55 74.39 0.291 7.88 10.98 7.59
8/13/2021 9:15:00 AM 23.51 74.318 0.294 7.88 13.45 7.62
8/13/2021 9:30:00 AM 23.5 74.3 0.29 7.88 10.61 7.66
8/13/2021 9:45:00 AM 23.5 74.3 0.401 7.9 9.97 7.7
8/13/2021 10:00:00 AM 23.52 74.336 0.405 7.9 10.17 7.72
8/13/2021 10:15:00 AM 23.54 74.372 0.303 7.9 10.43 7.76
8/13/2021 10:30:00 AM 23.57 74.426 0.314 7.93 9.5 7.78
8/13/2021 10:45:00 AM 23.61 74.498 0.401 7.92 10.23 7.81
8/13/2021 11:00:00 AM 23.64 74.552 0.276 7.92 10.36 7.84
8/13/2021 11:15:00 AM 23.71 74.67799 0.285 7.93 9.93 7.87
8/13/2021 11:30:00 AM 23.75 74.75 0.312 7.93 10.24 7.87
8/13/2021 11:45:00 AM 23.81 74.858 0.255 7.94 9.78 7.89
8/13/2021 12:00:00 PM 23.81 74.858 0.286 7.92 9.58 7.91
8/13/2021 12:15:00 PM 23.84 74.912 0.297 7.93 8.59 7.92
8/13/2021 12:30:00 PM 23.85 74.93 0.254 7.95 8.7 7.92
8/13/2021 12:45:00 PM 23.88 74.984 0.303 7.94 8.07 7.93
8/13/2021 1:00:00 PM 23.96 75.128 0.309 7.95 8.34 7.95
8/13/2021 1:15:00 PM 24 75.2 0.278 7.94 7.72 7.95
8/13/2021 1:30:00 PM 23.96 75.128 0.288 7.97 7.87 7.96
8/13/2021 1:45:00 PM 23.96 75.128 0.417 7.95 7.47 7.96
8/13/2021 2:00:00 PM 24.01 75.218 0.29 7.97 7.34 7.97
8/13/2021 2:15:00 PM 24.09 75.362 0.299 7.97 7.18 7.97
8/13/2021 2:30:00 PM 24.21 75.578 0.295 7.98 7.81 7.96
8/13/2021 2:45:00 PM 24.33 75.794 0.423 7.98 7.3 7.96
8/13/2021 3:00:00 PM 24.43 75.974 0.3 7.99 7.64 7.97
8/13/2021 3:15:00 PM 24.52 76.136 0.299 8 7.11 7.96
8/13/2021 3:30:00 PM 24.6 76.28 0.428 8 7.2 7.95
8/13/2021 3:45:00 PM 24.73 76.514 0.291 8 7.73 7.95
8/13/2021 4:00:00 PM 24.79 76.622 0.301 7.99 8.3 7.81
8/13/2021 4:15:00 PM 24.79 76.622 0.303 7.99 9.43 7.76
8/13/2021 4:30:00 PM 24.75 76.55 0.292 7.99 16.02 7.74
8/13/2021 4:45:00 PM 24.71 76.478 0.291 7.99 7.39 7.73
8/13/2021 5:00:00 PM 24.64 76.352 0.261 7.99 7.94 7.71
8/13/2021 5:15:00 PM 24.48 76.064 0.26 8 7.3 7.75
8/13/2021 5:30:00 PM 24.42 75.956 0.266 8 7.97 7.77
8/13/2021 5:45:00 PM 24.33 75.794 0.299 8 8.06 7.78
8/13/2021 6:00:00 PM 24.24 75.632 0.284 8.01 7.11 7.81
8/13/2021 6:15:00 PM 24.19 75.542 0.263 8.02 6.92 7.81
8/13/2021 6:30:00 PM 24.17 75.506 0.439 8.02 6.72 7.83
8/13/2021 6:45:00 PM 24.13 75.434 0.274 8 6.07 7.81
8/13/2021 7:00:00 PM 24.07 75.326 0.277 8 6.17 7.81
8/13/2021 7:15:00 PM 24.02 75.236 0.312 7.99 8.07 7.8
8/13/2021 7:30:00 PM 23.98 75.164 0.312 8 6.31 7.79
8/13/2021 7:45:00 PM 23.96 75.128 0.277 7.99 6.48 7.79
8/13/2021 8:00:00 PM 23.93 75.074 0.276 7.98 6.59 7.77
8/13/2021 8:15:00 PM 23.91 75.038 0.298 7.99 6.22 7.76
8/13/2021 8:30:00 PM 23.9 75.02 0.299 7.99 6.31 7.76
8/13/2021 8:45:00 PM 23.89 75.002 0.288 7.99 6.18 7.77
8/13/2021 9:00:00 PM 23.89 75.002 0.3 7.99 5.87 7.77
8/13/2021 9:15:00 PM 23.9 75.02 0.298 7.97 6.78 7.77
8/13/2021 9:30:00 PM 23.91 75.038 0.297 7.99 7.75 7.77
8/13/2021 9:45:00 PM 23.92 75.056 0.295 8 5.94 7.78
8/13/2021 10:00:00 PM 23.94 75.092 0.458 7.99 11.18 7.79
8/13/2021 10:15:00 PM 23.95 75.11 0.295 7.98 6.39 7.78
8/13/2021 10:30:00 PM 23.97 75.146 0.29 7.98 6.32 7.77
8/13/2021 10:45:00 PM 23.99 75.182 0.29 8 6.33 7.78
8/13/2021 11:00:00 PM 24.01 75.218 0.306 8 5.74 7.77
8/13/2021 11:15:00 PM 24.02 75.236 0.299 8 6.05 7.77
8/13/2021 11:30:00 PM 24.04 75.272 0.304 8.01 6.74 7.76
8/13/2021 11:45:00 PM 24.05 75.29 0.289 8 5.6 7.75
8/14/2021 12:00:00 AM 24.07 75.326 0.283 8.01 6 7.75
8/14/2021 12:15:00 AM 24.08 75.344 0.264 8.01 6.77 7.72
8/14/2021 12:30:00 AM 24.09 75.362 0.268 8.02 6.16 7.73
8/14/2021 12:45:00 AM 24.09 75.362 0.293 7.98 6.83 7.7
8/14/2021 1:00:00 AM 24.09 75.362 0.474 8.02 5.76 7.69
8/14/2021 1:15:00 AM 24.09 75.362 0.297 8 6.3 7.69
8/14/2021 1:30:00 AM 24.08 75.344 0.306 7.99 7.25 7.67
8/14/2021 1:45:00 AM 24.08 75.344 0.295 8.01 12.67 7.66
8/14/2021 2:00:00 AM 24.07 75.326 0.297 8 6.24 7.65
8/14/2021 2:15:00 AM 24.06 75.308 0.308 8.01 6.17 7.64
8/14/2021 2:30:00 AM 24.05 75.29 0.311 8 6.26 7.64
8/14/2021 2:45:00 AM 24.03 75.254 0.244 8 7.17 7.63
8/14/2021 3:00:00 AM 24 75.2 0.312 8 5.99 7.62
8/14/2021 3:15:00 AM 23.97 75.146 0.269 8.01 8.24 7.62
8/14/2021 3:30:00 AM 23.94 75.092 0.276 8 6.55 7.6
8/14/2021 3:45:00 AM 23.92 75.056 0.245 8 6.5 7.6
8/14/2021 4:00:00 AM 23.89 75.002 0.311 8.01 6.07 7.59
8/14/2021 4:15:00 AM 23.86 74.948 0.247 8 6.3 7.58
8/14/2021 4:30:00 AM 23.83 74.894 0.246 7.99 6.24 7.57
8/14/2021 4:45:00 AM 23.8 74.84 0.491 7.99 6.4 7.56
8/14/2021 5:00:00 AM 23.76 74.768 0.249 7.98 6.27 7.54
8/14/2021 5:15:00 AM 23.73 74.714 0.28 7.99 6.79 7.55
8/14/2021 5:30:00 AM 23.7 74.66 0.252 7.98 6.94 7.55
8/14/2021 5:45:00 AM 23.67 74.606 0.289 8 6.73 7.56
8/14/2021 6:00:00 AM 23.64 74.552 0.267 7.99 269.55 7.55
8/14/2021 6:15:00 AM 23.6 74.48 0.273 7.99 7.09 7.56
8/14/2021 6:30:00 AM 23.57 74.426 0.261 8 4.88 7.56
8/14/2021 6:45:00 AM 23.54 74.372 0.252 7.98 7.62 7.56
8/14/2021 7:00:00 AM 23.51 74.318 0.312 7.99 7.22 7.58
8/14/2021 7:15:00 AM 23.48 74.264 0.27 7.99 6.35 7.59
8/14/2021 7:30:00 AM 23.46 74.228 0.258 7.99 7.22 7.6
8/14/2021 7:45:00 AM 23.44 74.192 0.292 7.99 7.18 7.6
8/14/2021 8:00:00 AM 23.41 74.138 0.279 7.98 7.48 7.6
8/14/2021 8:15:00 AM 23.4 74.12 0.309 7.99 9.03 7.62
8/14/2021 8:30:00 AM 23.39 74.102 0.316 8 7.52 7.67
8/14/2021 8:45:00 AM 23.39 74.102 0.26 8 6.92 7.69
8/14/2021 9:00:00 AM 23.42 74.156 0.497 8.01 6.92 7.78
8/14/2021 9:15:00 AM 23.39 74.102 0.255 8.01 6.59 7.76
8/14/2021 9:30:00 AM 23.39 74.102 0.268 8.01 6.49 7.78
8/14/2021 9:45:00 AM 23.38 74.084 0.259 8 6.26 7.74
8/14/2021 10:00:00 AM 23.39 74.102 0.306 8.01 6.84 7.81
8/14/2021 10:15:00 AM 23.38 74.084 0.31 8.01 6.45 7.83
8/14/2021 10:30:00 AM 23.38 74.084 0.281 8.01 6.32 7.83
8/14/2021 10:45:00 AM 23.4 74.12 0.266 8.02 6.12 7.92
8/14/2021 11:00:00 AM 23.47 74.246 0.281 8.03 6.57 8.03
8/14/2021 11:15:00 AM 23.47 74.246 0.262 8.03 5.71 8
8/14/2021 11:30:00 AM 23.41 74.138 0.246 8.02 6.35 7.89
8/14/2021 11:45:00 AM 23.37 74.066 0.28 8.01 6.31 7.87
8/14/2021 12:00:00 PM 23.33 73.994 0.302 8.01 6.37 7.83
8/14/2021 12:15:00 PM 23.29 73.922 0.284 8 6.04 7.77
8/14/2021 12:30:00 PM 23.29 73.922 0.249 8.01 5.97 7.84
8/14/2021 12:45:00 PM 23.29 73.922 0.496 8.01 6.02 7.89
8/14/2021 1:00:00 PM 23.33 73.994 0.28 8.02 5.34 8.01
8/14/2021 1:15:00 PM 23.35 74.03 0.267 8.03 5.78 8.02
8/14/2021 1:30:00 PM 23.36 74.048 0.251 8.03 7.13 8.03
8/14/2021 1:45:00 PM 23.37 74.066 0.494 8.04 6 8.05
8/14/2021 2:00:00 PM 23.38 74.084 0.494 8.04 5.57 8.06
8/14/2021 2:15:00 PM 23.36 74.048 0.494 8.03 5.23 8.04
8/14/2021 2:30:00 PM 23.37 74.066 0.308 8.03 5.41 8.07
8/14/2021 2:45:00 PM 23.37 74.066 0.28 8.04 5.54 8.06
8/14/2021 3:00:00 PM 23.37 74.066 0.495 8.04 4.78 8.03
8/14/2021 3:15:00 PM 23.42 74.156 0.287 8.06 5.39 8.16
8/14/2021 3:30:00 PM 23.4 74.12 0.243 8.04 5.23 8.09
8/14/2021 3:45:00 PM 23.45 74.21 0.293 8.05 4.72 8.15
8/14/2021 4:00:00 PM 23.47 74.246 0.254 8.05 6.35 8.12
8/14/2021 4:15:00 PM 23.49 74.282 0.314 8.05 5.32 8.11
8/14/2021 4:30:00 PM 23.52 74.336 0.254 8.05 4.63 8.13
8/14/2021 4:45:00 PM 23.52 74.336 0.312 8.06 5.27 8.09
8/14/2021 5:00:00 PM 23.49 74.282 0.257 8.04 4.64 8.05
8/14/2021 5:15:00 PM 23.45 74.21 0.499 8.05 4.6 8
8/14/2021 5:30:00 PM 23.46 74.228 0.289 8.05 4.47 8.06
8/14/2021 5:45:00 PM 23.47 74.246 0.315 8.06 6.36 8.07
8/14/2021 6:00:00 PM 23.46 74.228 0.281 8.06 4.6 8.01
8/14/2021 6:15:00 PM 23.46 74.228 0.283 8.06 4.48 7.97
8/14/2021 6:30:00 PM 23.45 74.21 0.24 8.05 5.6 7.92
8/14/2021 6:45:00 PM 23.48 74.264 0.312 8.05 4.17 7.94
8/14/2021 7:00:00 PM 23.49 74.282 0.286 8.07 4.43 7.97
8/14/2021 7:15:00 PM 23.48 74.264 0.299 8.06 4.54 7.95
8/14/2021 7:30:00 PM 23.45 74.21 0.508 8.06 3.71 7.93
8/14/2021 7:45:00 PM 23.42 74.156 0.511 8.06 4.32 7.96
8/14/2021 8:00:00 PM 23.39 74.102 0.287 8.07 5.48 7.94
8/14/2021 8:15:00 PM 23.36 74.048 0.299 8.05 4.62 7.95
8/14/2021 8:30:00 PM 23.32 73.976 0.243 8.05 4.19 7.94
8/14/2021 8:45:00 PM 23.27 73.886 0.292 8.06 4.74 7.95
8/14/2021 9:00:00 PM 23.23 73.814 0.25 8.05 5.13 7.94
8/14/2021 9:15:00 PM 23.19 73.742 0.514 8.05 4.41 7.95
8/14/2021 9:30:00 PM 23.16 73.688 0.244 8.04 5.24 7.96
8/14/2021 9:45:00 PM 23.12 73.616 0.258 8.05 4.77 7.97
8/14/2021 10:00:00 PM 23.09 73.562 0.257 8.06 5.05 7.98
8/14/2021 10:15:00 PM 23.05 73.49 0.274 8.06 5.21 7.97
8/14/2021 10:30:00 PM 23.03 73.454 0.284 8.07 5.04 7.97
8/14/2021 10:45:00 PM 22.99 73.382 0.261 8.07 5.08 7.97
8/14/2021 11:00:00 PM 22.97 73.346 0.247 8.06 5.92 7.98
8/14/2021 11:15:00 PM 22.93 73.274 0.252 8.07 5.19 7.99
8/14/2021 11:30:00 PM 22.9 73.22 0.259 8.06 4.85 7.97
8/14/2021 11:45:00 PM 22.88 73.184 0.525 8.07 6.62 7.99
8/15/2021 12:00:00 AM 22.86 73.148 0.293 8.07 6.21 7.99
8/15/2021 12:15:00 AM 22.84 73.112 0.291 8.07 4.95 7.98
8/15/2021 12:30:00 AM 22.82 73.076 0.26 8.07 4.44 7.98
8/15/2021 12:45:00 AM 22.8 73.04 0.255 8.08 5.3 7.98
8/15/2021 1:00:00 AM 22.79 73.022 0.311 8.07 5.77 8
8/15/2021 1:15:00 AM 22.77 72.986 0.317 8.06 6.77 8
8/15/2021 1:30:00 AM 22.76 72.968 0.305 8.06 5.33 8.01
8/15/2021 1:45:00 AM 22.75 72.95 0.286 8.09 5.76 8.02
8/15/2021 2:00:00 AM 22.74 72.932 0.305 8.08 7.02 8.01
8/15/2021 2:15:00 AM 22.75 72.95 0.269 8.08 7.31 8.01
8/15/2021 2:30:00 AM 22.74 72.932 0.27 8.08 6.71 7.99
8/15/2021 2:45:00 AM 22.72 72.896 0.307 8.08 6.86 8
8/15/2021 3:00:00 AM 22.7 72.86 0.299 8.07 6.07 7.98
8/15/2021 3:15:00 AM 22.69 72.842 0.276 8.08 5.82 7.99
8/15/2021 3:30:00 AM 22.68 72.824 0.254 8.08 5.97 7.99
8/15/2021 3:45:00 AM 22.67 72.806 0.315 8.08 5.73 7.97
8/15/2021 4:00:00 AM 22.66 72.788 0.282 8.07 6.11 7.98
8/15/2021 4:15:00 AM 22.66 72.788 0.265 8.08 7.86 7.98
8/15/2021 4:30:00 AM 22.64 72.752 0.25 8.08 6.29 7.97
8/15/2021 4:45:00 AM 22.62 72.716 0.262 8.08 5.9 7.97
8/15/2021 5:00:00 AM 22.61 72.698 0.257 8.08 6.3 7.96
8/15/2021 5:15:00 AM 22.6 72.68 0.299 8.07 6.09 7.95
8/15/2021 5:30:00 AM 22.58 72.644 0.28 8.09 6.23 7.95
8/15/2021 5:45:00 AM 22.56 72.608 0.262 8.08 6.26 7.93
8/15/2021 6:00:00 AM 22.55 72.59 0.308 8.07 6.73 7.93
8/15/2021 6:15:00 AM 22.53 72.554 0.307 8.08 8.41 7.94
8/15/2021 6:30:00 AM 22.51 72.518 0.264 8.08 6.28 7.92
8/15/2021 6:45:00 AM 22.5 72.5 0.32 8.07 6.42 7.93
8/15/2021 7:00:00 AM 22.49 72.482 0.279 8.08 6.27 7.93
8/15/2021 7:15:00 AM 22.48 72.464 0.268 8.08 6.13 7.93
8/15/2021 7:30:00 AM 22.47 72.446 0.286 8.08 6.52 7.95
8/15/2021 7:45:00 AM 22.46 72.42799 0.309 8.07 6.58 7.97
8/15/2021 8:00:00 AM 22.46 72.42799 0.29 8.09 6.42 8.01
8/15/2021 8:15:00 AM 22.45 72.41 0.534 8.09 5.92 7.99
8/15/2021 8:30:00 AM 22.43 72.374 0.269 8.08 6.23 7.96
8/15/2021 8:45:00 AM 22.42 72.356 0.257 8.08 6.18 7.98
8/15/2021 9:00:00 AM 22.4 72.32 0.314 8.08 5.93 7.98
8/15/2021 9:15:00 AM 22.39 72.302 0.308 8.08 6.52 8.01
8/15/2021 9:30:00 AM 22.37 72.266 0.303 8.08 6.35 8
8/15/2021 9:45:00 AM 22.36 72.248 0.315 8.09 5.81 8.04
8/15/2021 10:00:00 AM 22.35 72.23 0.319 8.09 5.85 8.1
8/15/2021 10:15:00 AM 22.36 72.248 0.306 8.09 5.25 8.17
8/15/2021 10:30:00 AM 22.36 72.248 0.301 8.09 6.42 8.21
8/15/2021 10:45:00 AM 22.46 72.42799 0.307 8.1 5.65 8.34
8/15/2021 11:00:00 AM 22.57 72.626 0.287 8.11 6.15 8.4
8/15/2021 11:15:00 AM 22.61 72.698 0.314 8.12 5.8 8.41
8/15/2021 11:30:00 AM 22.62 72.716 0.27 8.12 6 8.38
8/15/2021 11:45:00 AM 22.62 72.716 0.274 8.12 5.28 8.39
8/15/2021 12:00:00 PM 22.61 72.698 0.306 8.11 5.88 8.37
8/15/2021 12:15:00 PM 22.7 72.86 0.253 8.13 7.06 8.43
8/15/2021 12:30:00 PM 22.79 73.022 0.302 8.13 5.39 8.46
8/15/2021 12:45:00 PM 22.82 73.076 0.292 8.13 5.52 8.45
8/15/2021 1:00:00 PM 22.89 73.202 0.276 8.13 5.08 8.47
8/15/2021 1:15:00 PM 22.88 73.184 0.543 8.14 4.9 8.45
8/15/2021 1:30:00 PM 22.96 73.328 0.254 8.15 5.34 8.5
8/15/2021 1:45:00 PM 23.04 73.472 0.546 8.13 4.69 8.48
8/15/2021 2:00:00 PM 23.1 73.58 0.266 8.13 4.94 8.44
8/15/2021 2:15:00 PM 23.15 73.67 0.293 8.14 6.89 8.43
8/15/2021 2:30:00 PM 23.15 73.67 0.249 8.14 4.78 8.43
8/15/2021 2:45:00 PM 23.17 73.706 0.311 8.14 6.07 8.43
8/15/2021 3:00:00 PM 23.23 73.814 0.261 8.14 4.83 8.43
8/15/2021 3:15:00 PM 23.31 73.958 0.262 8.16 4.28 8.43
8/15/2021 3:30:00 PM 23.35 74.03 0.274 8.16 5.09 8.44
8/15/2021 3:45:00 PM 23.36 74.048 0.309 8.16 4.42 8.42
8/15/2021 4:00:00 PM 23.39 74.102 0.256 8.15 4.03 8.4
8/15/2021 4:15:00 PM 23.41 74.138 0.29 8.17 4.75 8.4
8/15/2021 4:30:00 PM 23.38 74.084 0.3 8.16 5.12 8.39
8/15/2021 4:45:00 PM 23.34 74.012 0.276 8.16 4.14 8.37
8/15/2021 5:00:00 PM 23.28 73.904 0.252 8.15 4.08 8.35
8/15/2021 5:15:00 PM 23.26 73.868 0.275 8.16 3.96 8.36
8/15/2021 5:30:00 PM 23.24 73.832 0.314 8.16 4.98 8.37
8/15/2021 5:45:00 PM 23.21 73.778 0.549 8.16 3.91 8.31
8/15/2021 6:00:00 PM 23.19 73.742 0.257 8.16 3.83 8.31
8/15/2021 6:15:00 PM 23.19 73.742 0.547 8.16 5.09 8.31
8/15/2021 6:30:00 PM 23.16 73.688 0.311 8.16 3.74 8.34
8/15/2021 6:45:00 PM 23.13 73.634 0.547 8.16 4.22 8.32
8/15/2021 7:00:00 PM 23.08 73.544 0.3 8.16 3.9 8.32
8/15/2021 7:15:00 PM 23.04 73.472 0.285 8.17 4.12 8.32
8/15/2021 7:30:00 PM 22.97 73.346 0.264 8.15 8.8 8.27
8/15/2021 7:45:00 PM 22.91 73.238 0.27 8.15 4.15 8.27
8/15/2021 8:00:00 PM 22.85 73.13 0.282 8.15 3.98 8.24
8/15/2021 8:15:00 PM 22.8 73.04 0.268 8.14 3.88 8.23
8/15/2021 8:30:00 PM 22.75 72.95 0.281 8.14 4.24 8.23
8/15/2021 8:45:00 PM 22.69 72.842 0.319 8.14 4.13 8.21
8/15/2021 9:00:00 PM 22.65 72.77 0.319 8.13 5.4 8.2
8/15/2021 9:15:00 PM 22.59 72.662 0.301 8.13 4.44 8.2
8/15/2021 9:30:00 PM 22.54 72.57201 0.302 8.11 4.67 8.21
8/15/2021 9:45:00 PM 22.49 72.482 0.275 8.14 5.46 8.2
8/15/2021 10:00:00 PM 22.43 72.374 0.258 8.13 4.22 8.23
8/15/2021 10:15:00 PM 22.38 72.284 0.31 8.12 5.36 8.23
8/15/2021 10:30:00 PM 22.32 72.176 0.277 8.13 4.52 8.23
8/15/2021 10:45:00 PM 22.27 72.086 0.548 8.13 4.16 8.21
8/15/2021 11:00:00 PM 22.21 71.978 0.261 8.12 4.42 8.22
8/15/2021 11:15:00 PM 22.17 71.906 0.316 8.11 4.83 8.23
8/15/2021 11:30:00 PM 22.13 71.834 0.26 8.11 4.25 8.24
8/15/2021 11:45:00 PM 22.09 71.762 0.284 8.12 5.46 8.24
8/16/2021 12:00:00 AM 22.05 71.69 0.549 8.12 5.35 8.25
8/16/2021 12:15:00 AM 22.02 71.636 0.285 8.12 4.75 8.25
8/16/2021 12:30:00 AM 22 71.6 0.282 8.11 4.82 8.26
8/16/2021 12:45:00 AM 21.98 71.564 0.293 8.12 4.83 8.26
8/16/2021 1:00:00 AM 21.95 71.51 0.297 8.11 4.95 8.27
8/16/2021 1:15:00 AM 21.93 71.474 0.289 8.12 5.51 8.27
8/16/2021 1:30:00 AM 21.91 71.438 0.316 8.12 4.53 8.27
8/16/2021 1:45:00 AM 21.89 71.402 0.316 8.12 4.32 8.28
8/16/2021 2:00:00 AM 21.88 71.384 0.309 8.13 4.7 8.29
8/16/2021 2:15:00 AM 21.86 71.348 0.291 8.14 4.29 8.27
8/16/2021 2:30:00 AM 21.85 71.33 0.282 8.12 4.5 8.26
8/16/2021 2:45:00 AM 21.84 71.312 0.293 8.13 4.9 8.26
8/16/2021 3:00:00 AM 21.83 71.294 0.318 8.11 5.21 8.27
8/16/2021 3:15:00 AM 21.83 71.294 0.264 8.12 4.69 8.26
8/16/2021 3:30:00 AM 21.83 71.294 0.274 8.13 5.22 8.26
8/16/2021 3:45:00 AM 21.83 71.294 0.304 8.13 5.03 8.25
8/16/2021 4:00:00 AM 21.83 71.294 0.325 8.13 5.65 8.24
8/16/2021 4:15:00 AM 21.83 71.294 0.32 8.13 5.34 8.24
8/16/2021 4:30:00 AM 21.84 71.312 0.553 8.13 6.62 8.23
8/16/2021 4:45:00 AM 21.85 71.33 0.307 8.13 5.46 8.23
8/16/2021 5:00:00 AM 21.85 71.33 0.275 8.14 5.35 8.22
8/16/2021 5:15:00 AM 21.85 71.33 0.286 8.13 4.84 8.21
8/16/2021 5:30:00 AM 21.85 71.33 0.312 8.12 5.11 8.2
8/16/2021 5:45:00 AM 21.85 71.33 0.29 8.13 5.4 8.19
8/16/2021 6:00:00 AM 21.85 71.33 0.293 8.13 6.54 8.19
8/16/2021 6:15:00 AM 21.85 71.33 0.3 8.13 6 8.18
8/16/2021 6:30:00 AM 21.85 71.33 0.558 8.12 5.2 8.18
8/16/2021 6:45:00 AM 21.85 71.33 0.557 8.13 5.45 8.16
8/16/2021 7:00:00 AM 21.85 71.33 0.273 8.13 5.57 8.18
8/16/2021 7:15:00 AM 21.85 71.33 0.558 8.13 5.29 8.19
8/16/2021 7:30:00 AM 21.85 71.33 0.281 8.14 7.24 8.22
8/16/2021 7:45:00 AM 21.84 71.312 0.288 8.14 4.68 8.19
8/16/2021 8:00:00 AM 21.84 71.312 0.31 8.13 4.82 8.19
8/16/2021 8:15:00 AM 21.84 71.312 0.56 8.13 5.96 8.23
8/16/2021 8:30:00 AM 21.85 71.33 0.317 8.14 5.88 8.27
8/16/2021 8:45:00 AM 21.86 71.348 0.305 8.14 7.35 8.31
8/16/2021 9:00:00 AM 21.86 71.348 0.293 8.15 9.9 8.32
8/16/2021 9:15:00 AM 21.86 71.348 0.558 8.15 5.08 8.31
8/16/2021 9:30:00 AM 21.86 71.348 0.558 8.15 4.41 8.3
8/16/2021 9:45:00 AM 21.86 71.348 0.307 8.14 5.04 8.26
8/16/2021 10:00:00 AM 21.87 71.366 0.277 8.15 4.86 8.33
8/16/2021 10:15:00 AM 21.88 71.384 0.293 8.15 4.76 8.39
8/16/2021 10:30:00 AM 21.89 71.402 0.263 8.15 4.91 8.39
8/16/2021 10:45:00 AM 21.89 71.402 0.314 8.15 4.82 8.38
8/16/2021 11:00:00 AM 21.9 71.42 0.303 8.15 4.87 8.41
8/16/2021 11:15:00 AM 21.9 71.42 0.289 8.15 4.92 8.41
8/16/2021 11:30:00 AM 21.91 71.438 0.272 8.15 4.62 8.43
8/16/2021 11:45:00 AM 21.92 71.456 0.311 8.14 4.82 8.41
8/16/2021 12:00:00 PM 21.91 71.438 0.255 8.14 5.46 8.35
8/16/2021 12:15:00 PM 21.92 71.456 0.263 8.15 4.79 8.4
8/16/2021 12:30:00 PM 21.95 71.51 0.26 8.15 4.67 8.44
8/16/2021 12:45:00 PM 21.97 71.546 0.257 8.15 5.2 8.47
8/16/2021 1:00:00 PM 21.98 71.564 0.254 8.15 5.8 8.4
8/16/2021 1:15:00 PM 22 71.6 0.281 8.15 4.08 8.45
8/16/2021 1:30:00 PM 22.01 71.618 0.3 8.15 4.32 8.41
8/16/2021 1:45:00 PM 22.01 71.618 0.279 8.15 4.41 8.4
8/16/2021 2:00:00 PM 22.03 71.654 0.26 8.15 5.34 8.46
8/16/2021 2:15:00 PM 22.07 71.726 0.315 8.16 4.94 8.57
8/16/2021 2:30:00 PM 22.13 71.834 0.313 8.16 4.29 8.62
8/16/2021 2:45:00 PM 22.14 71.852 0.315 8.16 4.33 8.49
8/16/2021 3:00:00 PM 22.13 71.834 0.272 8.17 4.44 8.43
8/16/2021 3:15:00 PM 22.14 71.852 0.319 8.15 4.25 8.47
8/16/2021 3:30:00 PM 22.14 71.852 0.288 8.16 4.59 8.47
8/16/2021 3:45:00 PM 22.15 71.87 0.311 8.16 4.82 8.46
8/16/2021 4:00:00 PM 22.17 71.906 0.298 8.18 4.93 8.5
8/16/2021 4:15:00 PM 22.16 71.888 0.301 8.17 3.85 8.4
8/16/2021 4:30:00 PM 22.15 71.87 0.3 8.14 4.25 8.4
8/16/2021 4:45:00 PM 22.16 71.888 0.313 8.15 3.97 8.43
8/16/2021 5:00:00 PM 22.13 71.834 0.287 8.15 4.42 8.39
8/16/2021 5:15:00 PM 22.12 71.816 0.302 8.15 4.87 8.28
8/16/2021 5:30:00 PM 22.1 71.78 0.294 8.14 4.09 8.23
8/16/2021 5:45:00 PM 22.11 71.798 0.303 8.15 3.97 8.33
8/16/2021 6:00:00 PM 22.1 71.78 0.256 8.16 5.06 8.31
8/16/2021 6:15:00 PM 22.1 71.78 0.322 8.14 4.59 8.28
8/16/2021 6:30:00 PM 22.09 71.762 0.584 8.14 5.09 8.25
8/16/2021 6:45:00 PM 22.07 71.726 0.159 8.14 4.89 8.23
8/16/2021 7:00:00 PM 22.03 71.654 0.29 8.13 4.13 8.22
8/16/2021 7:15:00 PM 22.01 71.618 0.258 8.13 4.84 8.2
8/16/2021 7:30:00 PM 21.99 71.582 0.284 8.12 4.76 8.19
8/16/2021 7:45:00 PM 21.96 71.528 0.309 8.13 3.98 8.17
8/16/2021 8:00:00 PM 21.93 71.474 0.283 8.12 4.54 8.16
8/16/2021 8:15:00 PM 21.92 71.456 0.276 8.12 6.73 8.15
8/16/2021 8:30:00 PM 21.9 71.42 0.281 8.12 4.18 8.15
8/16/2021 8:45:00 PM 21.88 71.384 0.296 8.1 5.14 8.16
8/16/2021 9:00:00 PM 21.86 71.348 0.317 8.12 4.57 8.16
8/16/2021 9:15:00 PM 21.84 71.312 0.299 8.12 4.59 8.16
8/16/2021 9:30:00 PM 21.83 71.294 0.288 8.12 4.81 8.17
8/16/2021 9:45:00 PM 21.81 71.258 0.318 8.12 4.77 8.16
8/16/2021 10:00:00 PM 21.79 71.222 0.265 8.12 4.24 8.16
8/16/2021 10:15:00 PM 21.77 71.186 0.324 8.11 4.29 8.16
8/16/2021 10:30:00 PM 21.74 71.132 0.594 8.12 4.29 8.16
8/16/2021 10:45:00 PM 21.72 71.096 0.277 8.11 4.6 8.16
8/16/2021 11:00:00 PM 21.7 71.06 0.323 8.11 4.92 8.15
8/16/2021 11:15:00 PM 21.68 71.024 0.309 8.11 4.46 8.16
8/16/2021 11:30:00 PM 21.67 71.006 0.306 8.11 4.57 8.15
8/16/2021 11:45:00 PM 21.66 70.988 0.595 8.12 4.22 8.14
8/17/2021 12:00:00 AM 21.65 70.97 0.273 8.11 4.68 8.15
8/17/2021 12:15:00 AM 21.63 70.934 0.31 8.11 4.58 8.16
8/17/2021 12:30:00 AM 21.62 70.916 0.257 8.11 4.58 8.15
8/17/2021 12:45:00 AM 21.61 70.898 0.285 8.11 4.42 8.17
8/17/2021 1:00:00 AM 21.6 70.88 0.304 8.1 4.34 8.17
8/17/2021 1:15:00 AM 21.59 70.862 0.32 8.11 4.81 8.14
8/17/2021 1:30:00 AM 21.58 70.844 0.302 8.11 4.18 8.17
8/17/2021 1:45:00 AM 21.58 70.844 0.279 8.11 4.28 8.16
8/17/2021 2:00:00 AM 21.57 70.826 0.598 8.11 4.65 8.16
8/17/2021 2:15:00 AM 21.56 70.808 0.289 8.09 4.37 8.16
8/17/2021 2:30:00 AM 21.56 70.808 0.275 8.11 7.1 8.16
8/17/2021 2:45:00 AM 21.55 70.79 0.597 8.12 5.34 8.18
8/17/2021 3:00:00 AM 21.54 70.772 0.322 8.12 4.35 8.18
8/17/2021 3:15:00 AM 21.54 70.772 0.294 8.1 4.58 8.19
8/17/2021 3:30:00 AM 21.54 70.772 0.293 8.12 4.78 8.2
8/17/2021 3:45:00 AM 21.54 70.772 0.596 8.13 4.11 8.18
8/17/2021 4:00:00 AM 21.54 70.772 0.313 8.13 4.92 8.2
8/17/2021 4:15:00 AM 21.53 70.754 0.311 8.13 4.22 8.19
8/17/2021 4:30:00 AM 21.54 70.772 0.302 8.13 4.86 8.2
8/17/2021 4:45:00 AM 21.54 70.772 0.314 8.12 4.51 8.22
8/17/2021 5:00:00 AM 21.55 70.79 0.312 8.12 4.07 8.21
8/17/2021 5:15:00 AM 21.55 70.79 0.325 8.11 4.81 8.21
8/17/2021 5:30:00 AM 21.56 70.808 0.295 8.12 12.05 8.2
8/17/2021 5:45:00 AM 21.56 70.808 0.318 8.14 15.24 8.21
8/17/2021 6:00:00 AM 21.57 70.826 0.269 8.12 7.29 8.19
8/17/2021 6:15:00 AM 21.57 70.826 0.316 8.13 4.43 8.19
8/17/2021 6:30:00 AM 21.57 70.826 0.598 8.13 4.49 8.17
8/17/2021 6:45:00 AM 21.57 70.826 0.318 8.13 3.93 8.19
8/17/2021 7:00:00 AM 21.58 70.844 0.317 8.13 4.73 8.21
8/17/2021 7:15:00 AM 21.58 70.844 0.319 8.14 6.62 8.22
8/17/2021 7:30:00 AM 21.58 70.844 0.321 8.13 4.57 8.22
8/17/2021 7:45:00 AM 21.59 70.862 0.309 8.12 4.6 8.24
8/17/2021 8:00:00 AM 21.6 70.88 0.317 8.14 6.83 8.29
8/17/2021 8:15:00 AM 21.63 70.934 0.321 8.14 4.2 8.35
8/17/2021 8:30:00 AM 21.64 70.952 0.294 8.16 4.96 8.32
8/17/2021 8:45:00 AM 21.65 70.97 0.326 8.14 4.81 8.31
8/17/2021 9:00:00 AM 21.65 70.97 0.298 8.14 5.39 8.24
8/17/2021 9:15:00 AM 21.65 70.97 0.265 8.15 3.9 8.22
8/17/2021 9:30:00 AM 21.64 70.952 0.308 8.13 4.39 8.2
8/17/2021 9:45:00 AM 21.64 70.952 0.263 8.13 4.07 8.18
8/17/2021 10:00:00 AM 21.63 70.934 0.257 8.13 4.35 8.18
8/17/2021 10:15:00 AM 21.64 70.952 0.305 8.12 4.69 8.22
8/17/2021 10:30:00 AM 21.65 70.97 0.316 8.13 4.13 8.24
8/17/2021 10:45:00 AM 21.67 71.006 0.283 8.13 4.28 8.25
8/17/2021 11:00:00 AM 21.69 71.042 0.306 8.13 4.34 8.26
8/17/2021 11:15:00 AM 21.71 71.078 0.322 8.14 3.67 8.31
8/17/2021 11:30:00 AM 21.74 71.132 0.277 8.15 3.92 8.34
8/17/2021 11:45:00 AM 21.74 71.132 0.322 8.13 4.43 8.28
8/17/2021 12:00:00 PM 21.83 71.294 0.303 8.16 4.36 8.52
8/17/2021 12:15:00 PM 21.94 71.492 0.317 8.16 4.86 8.6
8/17/2021 12:30:00 PM 22.11 71.798 0.315 8.16 4.35 8.7
8/17/2021 12:45:00 PM 22.2 71.96 0.313 8.17 4.14 8.72
8/17/2021 1:00:00 PM 22.22 71.996 0.328 8.17 4.08 8.65
8/17/2021 1:15:00 PM 22.37 72.266 0.299 8.18 4.14 8.7
8/17/2021 1:30:00 PM 22.47 72.446 0.301 8.17 5.22 8.7
8/17/2021 1:45:00 PM 22.49 72.482 0.6 8.17 4.5 8.6
8/17/2021 2:00:00 PM 22.51 72.518 0.285 8.18 4.98 8.57
8/17/2021 2:15:00 PM 22.54 72.57201 0.285 8.18 3.94 8.59
8/17/2021 2:30:00 PM 22.57 72.626 0.275 8.18 4.03 8.57
8/17/2021 2:45:00 PM 22.6 72.68 0.3 8.16 4.31 8.57
8/17/2021 3:00:00 PM 22.61 72.698 0.262 8.18 4.1 8.42
8/17/2021 3:15:00 PM 22.7 72.86 0.278 8.19 4.08 8.4
8/17/2021 3:30:00 PM 22.69 72.842 0.271 8.17 4.63 8.32
8/17/2021 3:45:00 PM 22.62 72.716 0.271 8.17 5.15 8.29
8/17/2021 4:00:00 PM 22.6 72.68 0.29 8.17 5.46 8.33
8/17/2021 4:15:00 PM 22.6 72.68 0.293 8.16 3.85 8.31
8/17/2021 4:30:00 PM 22.59 72.662 0.294 8.16 3.73 8.28
8/17/2021 4:45:00 PM 22.62 72.716 0.32 8.17 3.82 8.25
8/17/2021 5:00:00 PM 22.67 72.806 0.287 8.17 4.37 8.29
8/17/2021 5:15:00 PM 22.66 72.788 0.589 8.18 4.34 8.32
8/17/2021 5:30:00 PM 22.65 72.77 0.305 8.17 5.44 8.27
8/17/2021 5:45:00 PM 22.65 72.77 0.589 8.17 4.6 8.24
8/17/2021 6:00:00 PM 22.66 72.788 0.253 8.18 5.48 8.27
8/17/2021 6:15:00 PM 22.64 72.752 0.266 8.18 4.27 8.28
8/17/2021 6:30:00 PM 22.6 72.68 0.318 8.17 4.24 8.26
8/17/2021 6:45:00 PM 22.57 72.626 0.264 8.17 4.66 8.28
8/17/2021 7:00:00 PM 22.52 72.536 0.261 8.16 4.76 8.26
8/17/2021 7:15:00 PM 22.48 72.464 0.267 8.16 5.44 8.22
8/17/2021 7:30:00 PM 22.44 72.392 0.254 8.16 4.23 8.19
8/17/2021 7:45:00 PM 22.42 72.356 0.31 8.15 6.83 8.17
8/17/2021 8:00:00 PM 22.38 72.284 0.25 8.15 4.94 8.16
8/17/2021 8:15:00 PM 22.37 72.266 0.305 8.14 4 8.13
8/17/2021 8:30:00 PM 22.36 72.248 0.314 8.15 5.03 8.12
8/17/2021 8:45:00 PM 22.33 72.194 0.268 8.16 3.87 8.12
8/17/2021 9:00:00 PM 22.29 72.122 0.266 8.14 3.55 8.12
8/17/2021 9:15:00 PM 22.26 72.068 0.31 8.13 4.45 8.11
8/17/2021 9:30:00 PM 22.23 72.014 0.261 8.14 3.86 8.11
8/17/2021 9:45:00 PM 22.2 71.96 0.269 8.14 5.92 8.11
8/17/2021 10:00:00 PM 22.18 71.924 0.318 8.12 4.02 8.1
8/17/2021 10:15:00 PM 22.16 71.888 0.256 8.13 3.78 8.12
8/17/2021 10:30:00 PM 22.15 71.87 0.319 8.12 4.67 8.11
8/17/2021 10:45:00 PM 22.13 71.834 0.255 8.13 3.53 8.12
8/17/2021 11:00:00 PM 22.12 71.816 0.278 8.13 2.9 8.12
8/17/2021 11:15:00 PM 22.11 71.798 0.273 8.14 4.35 8.11
8/17/2021 11:30:00 PM 22.11 71.798 0.271 8.13 3.64 8.1
8/17/2021 11:45:00 PM 22.11 71.798 0.592 8.13 4.31 8.09
8/18/2021 12:00:00 AM 22.11 71.798 0.319 8.12 3.6 8.12
8/18/2021 12:15:00 AM 22.1 71.78 0.314 7.99 3.62 8.12
8/18/2021 12:30:00 AM 22.1 71.78 0.263 8.13 3.51 8.11
8/18/2021 12:45:00 AM 22.1 71.78 0.592 8.13 4.26 8.11
8/18/2021 1:00:00 AM 22.1 71.78 0.323 8.11 5.16 8.12
8/18/2021 1:15:00 AM 22.1 71.78 0.312 8.12 4.11 8.14
8/18/2021 1:30:00 AM 22.11 71.798 0.323 8.12 11.14 8.14
8/18/2021 1:45:00 AM 22.12 71.816 0.592 8.12 3.42 8.12
8/18/2021 2:00:00 AM 22.13 71.834 0.296 8.12 3.58 8.14
8/18/2021 2:15:00 AM 22.14 71.852 0.311 8.13 3.79 8.14
8/18/2021 2:30:00 AM 22.15 71.87 0.593 8.14 3.83 8.12
8/18/2021 2:45:00 AM 22.15 71.87 0.592 8.12 4.04 8.13
8/18/2021 3:00:00 AM 22.15 71.87 0.27 8.14 4.13 8.13
8/18/2021 3:15:00 AM 22.16 71.888 0.281 8.14 6.17 8.13
8/18/2021 3:30:00 AM 22.16 71.888 0.264 8.14 3.34 8.14
8/18/2021 3:45:00 AM 22.17 71.906 0.271 8.12 3.65 8.14
8/18/2021 4:00:00 AM 22.17 71.906 0.302 8.13 4.81 8.13
8/18/2021 4:15:00 AM 22.18 71.924 0.298 8.13 4.01 8.12
8/18/2021 4:30:00 AM 22.19 71.942 0.32 8.13 3.7 8.14
8/18/2021 4:45:00 AM 22.19 71.942 0.292 8.13 3.82 8.12
8/18/2021 5:00:00 AM 22.2 71.96 0.263 8.12 4.18 8.11
8/18/2021 5:15:00 AM 22.21 71.978 0.255 8.15 3.4 8.11
8/18/2021 5:30:00 AM 22.21 71.978 0.256 8.14 8.43 8.1
8/18/2021 5:45:00 AM 22.22 71.996 0.321 8.15 4.33 8.1
8/18/2021 6:00:00 AM 22.22 71.996 0.303 8.13 5.05 8.09
8/18/2021 6:15:00 AM 22.23 72.014 0.319 8.14 4.01 8.11
8/18/2021 6:30:00 AM 22.24 72.032 0.273 8.14 5.35 8.1
8/18/2021 6:45:00 AM 22.24 72.032 0.264 8.14 6.62 8.1
8/18/2021 7:00:00 AM 22.24 72.032 0.274 8.13 4.24 8.11
8/18/2021 7:15:00 AM 22.25 72.05 0.59 8.13 4.01 8.1
8/18/2021 7:30:00 AM 22.25 72.05 0.258 8.14 3.68 8.12
8/18/2021 7:45:00 AM 22.26 72.068 0.323 8.13 3.82 8.14
8/18/2021 8:00:00 AM 22.27 72.086 0.29 8.14 4.24 8.17
8/18/2021 8:15:00 AM 22.28 72.104 0.309 8.15 3.67 8.19
8/18/2021 8:30:00 AM 22.28 72.104 0.257 8.14 3.8 8.17
8/18/2021 8:45:00 AM 22.3 72.14 0.259 8.14 6.43 8.18
8/18/2021 9:00:00 AM 22.31 72.158 0.301 8.14 4.46 8.22
8/18/2021 9:15:00 AM 22.33 72.194 0.267 8.15 6.16 8.26
8/18/2021 9:30:00 AM 22.37 72.266 0.312 8.14 4.41 8.35
8/18/2021 9:45:00 AM 22.4 72.32 0.322 8.16 4.21 8.34
8/18/2021 10:00:00 AM 22.44 72.392 0.27 8.16 4.34 8.37
8/18/2021 10:15:00 AM 22.46 72.42799 0.253 8.16 5.44 8.34
8/18/2021 10:30:00 AM 22.47 72.446 0.292 8.16 4.2 8.32
8/18/2021 10:45:00 AM 22.48 72.464 0.322 8.14 3.37 8.29
8/18/2021 11:00:00 AM 22.55 72.59 0.311 8.15 3.87 8.41
8/18/2021 11:15:00 AM 22.63 72.734 0.592 8.15 3.75 8.42
8/18/2021 11:30:00 AM 22.64 72.752 0.319 8.16 3.84 8.35
8/18/2021 11:45:00 AM 22.73 72.914 0.284 8.16 3.89 8.45
8/18/2021 12:00:00 PM 22.76 72.968 0.312 8.16 3.44 8.4
8/18/2021 12:15:00 PM 22.86 73.148 0.26 8.18 3.5 8.47
8/18/2021 12:30:00 PM 22.88 73.184 0.248 8.17 3.38 8.38
8/18/2021 12:45:00 PM 22.98 73.364 0.286 8.18 4.27 8.44
8/18/2021 1:00:00 PM 23.03 73.454 0.265 8.18 3.74 8.45
8/18/2021 1:15:00 PM 23.15 73.67 0.252 8.2 3.75 8.51
8/18/2021 1:30:00 PM 23.18 73.724 0.302 8.17 2.7 8.48
8/18/2021 1:45:00 PM 23.28 73.904 0.278 8.2 4.12 8.52
8/18/2021 2:00:00 PM 23.25 73.85 0.283 8.17 4.6 8.26
8/18/2021 2:15:00 PM 23.2 73.76 0.591 8.18 4.47 8.18
8/18/2021 2:30:00 PM 23.26 73.868 0.274 8.18 4.87 8.39
8/18/2021 2:45:00 PM 23.25 73.85 0.252 8.2 6.3 8.4
8/18/2021 3:00:00 PM 23.27 73.886 0.256 8.19 3.48 8.42
8/18/2021 3:15:00 PM 23.28 73.904 0.59 8.19 3.52 8.32
8/18/2021 3:30:00 PM 23.3 73.94 0.29 8.16 3.82 8.22
8/18/2021 3:45:00 PM 23.3 73.94 0.328 8.17 3.52 8.07
8/18/2021 4:00:00 PM 23.29 73.922 0.248 8.17 4.26 8.13
8/18/2021 4:15:00 PM 23.27 73.886 0.587 8.17 3.29 8.11
8/18/2021 4:30:00 PM 23.27 73.886 0.255 8.17 3.46 8.23
8/18/2021 4:45:00 PM 23.25 73.85 0.587 8.18 3.53 8.27
8/18/2021 5:00:00 PM 23.22 73.796 0.276 8.17 3.8 8.27
8/18/2021 5:15:00 PM 23.21 73.778 0.268 8.17 4.82 8.19
8/18/2021 5:30:00 PM 23.2 73.76 0.582 8.17 3.06 8.13
8/18/2021 5:45:00 PM 23.21 73.778 0.582 8.17 6.82 8.16
8/18/2021 6:00:00 PM 23.18 73.724 0.254 8.15 3.81 8.17
8/18/2021 6:15:00 PM 23.13 73.634 0.324 8.16 4.97 8.12
8/18/2021 6:30:00 PM 23.08 73.544 0.584 8.16 4.97 8.05
8/18/2021 6:45:00 PM 23.05 73.49 0.261 8.15 4.52 8.03
8/18/2021 7:00:00 PM 23.02 73.436 0.251 8.14 5.2 8.02
8/18/2021 7:15:00 PM 22.99 73.382 0.291 8.12 4.26 8
8/18/2021 7:30:00 PM 22.94 73.292 0.584 8.12 5.08 7.97
8/18/2021 7:45:00 PM 22.93 73.274 0.582 8.13 5.36 7.97
8/18/2021 8:00:00 PM 22.96 73.328 0.309 8.17 5.43 8.06
8/18/2021 8:15:00 PM 22.94 73.292 0.302 8.14 9.1 8.09
8/18/2021 8:30:00 PM 22.83 73.094 0.267 8.1 7.64 8.06
8/18/2021 8:45:00 PM 22.7 72.86 0.266 8.08 7.99 8.03
8/18/2021 9:00:00 PM 22.7 72.86 0.272 8.09 7.01 8.09
8/18/2021 9:15:00 PM 22.74 72.932 0.254 8.09 8 8.14
8/18/2021 9:30:00 PM 22.71 72.878 0.287 8.08 8.7 8.16
8/18/2021 9:45:00 PM 22.75 72.95 0.305 8.09 8.8 8.21
8/18/2021 10:00:00 PM 22.82 73.076 0.273 8.09 9.02 8.25
8/18/2021 10:15:00 PM 22.88 73.184 0.28 8.1 9.05 8.28
8/18/2021 10:30:00 PM 22.93 73.274 0.316 8.11 9.34 8.29
8/18/2021 10:45:00 PM 22.94 73.292 0.265 8.12 7.33 8.28
8/18/2021 11:00:00 PM 22.96 73.328 0.252 8.1 7.87 8.27
8/18/2021 11:15:00 PM 22.98 73.364 0.299 8.13 8.51 8.26
8/18/2021 11:30:00 PM 23.01 73.418 0.29 8.12 9.02 8.25
8/18/2021 11:45:00 PM 23.03 73.454 0.296 8.14 11.11 8.25
8/19/2021 12:00:00 AM 23.02 73.436 0.307 8.13 17.42 8.25
8/19/2021 12:15:00 AM 23.06 73.508 0.3 8.1 31 8.25
8/19/2021 12:30:00 AM 23.19 73.742 0.241 8.01 41.86 8.22
8/19/2021 12:45:00 AM 23.28 73.904 0.272 7.95 47.1 8.2
8/19/2021 1:00:00 AM 23.25 73.85 0.253 7.96 40 8.2
8/19/2021 1:15:00 AM 23.21 73.778 0.307 7.97 35.71 8.22
8/19/2021 1:30:00 AM 23.24 73.832 0.249 7.99 46.04 8.21
8/19/2021 1:45:00 AM 23.25 73.85 0.424 8 57.08 8.2
8/19/2021 2:00:00 AM 23.26 73.868 0.268 7.99 63.96 8.2
8/19/2021 2:15:00 AM 23.28 73.904 0.29 7.97 65.97 8.17
8/19/2021 2:30:00 AM 23.33 73.994 0.229 7.97 76.24 8.17
8/19/2021 2:45:00 AM 23.38 74.084 0.289 7.97 74.76 8.17
8/19/2021 3:00:00 AM 23.46 74.228 0.264 7.97 68.91 8.15
8/19/2021 3:15:00 AM 23.53 74.354 0.302 7.94 67.17 8.1
8/19/2021 3:30:00 AM 23.6 74.48 0.302 7.91 67.69 8.05
8/19/2021 3:45:00 AM 23.64 74.552 0.255 7.9 66.1 8.04
8/19/2021 4:00:00 AM 23.67 74.606 0.258 7.87 72.45 8.04
8/19/2021 4:15:00 AM 23.71 74.67799 0.26 7.86 66.1 8.05
8/19/2021 4:30:00 AM 23.74 74.732 0.231 7.83 67.39 8.05
8/19/2021 4:45:00 AM 23.76 74.768 0.246 7.84 67.76 8.03
8/19/2021 5:00:00 AM 23.78 74.804 0.208 7.82 75.7 8.05
8/19/2021 5:15:00 AM 23.78 74.804 0.191 7.81 94.38 8.04
8/19/2021 5:30:00 AM 23.76 74.768 0.169 7.75 113.25 8.03
8/19/2021 5:45:00 AM 23.73 74.714 0.193 7.78 127.19 8.04
8/19/2021 6:00:00 AM 23.7 74.66 0.198 7.75 154.4 8.03
8/19/2021 6:15:00 AM 23.68 74.624 0.188 7.75 150.24 8.04
8/19/2021 6:30:00 AM 23.65 74.57 0.194 7.73 137.07 8.04
8/19/2021 6:45:00 AM 23.62 74.516 0.209 7.76 131.09 8.03
8/19/2021 7:00:00 AM 23.59 74.462 0.207 7.76 121.72 8.05
8/19/2021 7:15:00 AM 23.56 74.408 0.202 7.73 119.57 8.03
8/19/2021 7:30:00 AM 23.53 74.354 0.237 7.75 135.01 8.03
8/19/2021 7:45:00 AM 23.49 74.282 0.205 7.76 112.98 8.04
8/19/2021 8:00:00 AM 23.46 74.228 0.197 7.74 125.66 8.05
8/19/2021 8:15:00 AM 23.42 74.156 0.209 7.74 112.39 8.06
8/19/2021 8:30:00 AM 23.4 74.12 0.235 7.76 104.66 8.07
8/19/2021 8:45:00 AM 23.37 74.066 0.211 7.77 96.85 8.08
8/19/2021 9:00:00 AM 23.36 74.048 0.201 7.75 90.59 8.09
8/19/2021 9:15:00 AM 23.34 74.012 0.202 7.76 87.53 8.08
8/19/2021 9:30:00 AM 23.33 73.994 0.199 7.74 83.22 8.09
8/19/2021 9:45:00 AM 23.32 73.976 0.201 7.76 69.77 8.08
8/19/2021 10:00:00 AM 23.32 73.976 0.244 7.78 66.18 8.07
8/19/2021 10:15:00 AM 23.32 73.976 0.247 7.74 61.89 8.08
8/19/2021 10:30:00 AM 23.32 73.976 0.211 7.76 61.75 8.07
8/19/2021 10:45:00 AM 23.33 73.994 0.213 7.76 60.17 8.07
8/19/2021 11:00:00 AM 23.33 73.994 0.215 7.75 57.73 8.06
8/19/2021 11:15:00 AM 23.34 74.012 0.215 7.74 56.22 8.05
8/19/2021 11:30:00 AM 23.38 74.084 0.213 7.76 53.28 8.06
8/19/2021 11:45:00 AM 23.37 74.066 0.22 7.78 62.92 8.05
8/19/2021 12:00:00 PM 23.39 74.102 0.225 7.8 53.58 8.04
8/19/2021 12:15:00 PM 23.41 74.138 0.266 7.79 52.01 8.03
8/19/2021 12:30:00 PM 23.44 74.192 0.221 7.8 52.39 8.03
8/19/2021 12:45:00 PM 23.47 74.246 0.219 7.8 59.21 8.03
8/19/2021 1:00:00 PM 23.49 74.282 0.232 7.82 45.33 8.02
8/19/2021 1:15:00 PM 23.58 74.444 0.23 7.79 51.45 8.04
8/19/2021 1:30:00 PM 23.59 74.462 0.223 7.8 51.05 8.02
8/19/2021 1:45:00 PM 23.6 74.48 0.241 7.81 50.13 8.01
8/19/2021 2:00:00 PM 23.63 74.534 0.237 7.81 48.88 8
8/19/2021 2:15:00 PM 23.74 74.732 0.247 7.81 47.13 8.01
8/19/2021 2:30:00 PM 23.79 74.82201 0.241 7.83 47.23 8
8/19/2021 2:45:00 PM 23.79 74.82201 0.235 7.82 43.54 7.99
8/19/2021 3:00:00 PM 23.8 74.84 0.248 7.82 44.51 7.97
8/19/2021 3:15:00 PM 23.86 74.948 0.241 7.83 49.3 7.99
8/19/2021 3:30:00 PM 23.9 75.02 0.279 7.83 49.38 7.97
8/19/2021 3:45:00 PM 23.95 75.11 0.244 7.83 46.88 7.97
8/19/2021 4:00:00 PM 23.96 75.128 0.242 7.85 43.33 7.97
8/19/2021 4:15:00 PM 23.95 75.11 0.253 7.83 39.9 7.96
8/19/2021 4:30:00 PM 24 75.2 0.247 7.84 40.87 7.96
8/19/2021 4:45:00 PM 24.01 75.218 0.244 7.84 41.88 7.94
8/19/2021 5:00:00 PM 24.02 75.236 0.24 7.86 40.64 7.94
8/19/2021 5:15:00 PM 24.03 75.254 0.252 7.86 39.37 7.95
8/19/2021 5:30:00 PM 24.01 75.218 0.238 7.84 35.49 7.94
8/19/2021 5:45:00 PM 23.99 75.182 0.258 7.86 33.61 7.92
8/19/2021 6:00:00 PM 23.98 75.164 0.249 7.86 34.93 7.92
8/19/2021 6:15:00 PM 23.97 75.146 0.262 7.85 32.76 7.92
8/19/2021 6:30:00 PM 23.94 75.092 0.258 7.86 33.71 7.91
8/19/2021 6:45:00 PM 23.9 75.02 0.263 7.86 33.1 7.91
8/19/2021 7:00:00 PM 23.87 74.966 0.255 7.88 31.77 7.91
8/19/2021 7:15:00 PM 23.83 74.894 0.248 7.86 30.7 7.9
8/19/2021 7:30:00 PM 23.81 74.858 0.247 7.88 31.46 7.91
8/19/2021 7:45:00 PM 23.78 74.804 0.233 7.87 29.86 7.9
8/19/2021 8:00:00 PM 23.76 74.768 0.262 7.87 29.51 7.9
8/19/2021 8:15:00 PM 23.74 74.732 0.257 7.9 28.43 7.91
8/19/2021 8:30:00 PM 23.73 74.714 0.261 7.87 28.29 7.91
8/19/2021 8:45:00 PM 23.71 74.67799 0.264 7.86 27.7 7.89
8/19/2021 9:00:00 PM 23.7 74.66 0.247 7.88 27.99 7.89
8/19/2021 9:15:00 PM 23.68 74.624 0.25 7.89 26.54 7.89
8/19/2021 9:30:00 PM 23.67 74.606 0.265 7.87 25.82 7.88
8/19/2021 9:45:00 PM 23.66 74.588 0.308 7.86 25.79 7.88
8/19/2021 10:00:00 PM 23.65 74.57 0.248 7.89 24.07 7.87
8/19/2021 10:15:00 PM 23.64 74.552 0.311 7.89 24.23 7.87
8/19/2021 10:30:00 PM 23.63 74.534 0.312 7.85 23.06 7.87
8/19/2021 10:45:00 PM 23.61 74.498 0.264 7.86 23.19 7.87
8/19/2021 11:00:00 PM 23.59 74.462 0.246 7.88 22.67 7.85
8/19/2021 11:15:00 PM 23.58 74.444 0.267 7.89 22.31 7.87
8/19/2021 11:30:00 PM 23.56 74.408 0.26 7.9 21.7 7.86
8/19/2021 11:45:00 PM 23.55 74.39 0.264 7.88 21.05 7.86
8/20/2021 12:00:00 AM 23.53 74.354 0.219 7.88 20.79 7.85
8/20/2021 12:15:00 AM 23.52 74.336 0.313 7.89 20.46 7.86
8/20/2021 12:30:00 AM 23.5 74.3 0.312 7.9 20.27 7.85
8/20/2021 12:45:00 AM 23.48 74.264 0.228 7.88 19.95 7.85
8/20/2021 1:00:00 AM 23.46 74.228 0.255 7.88 18.97 7.85
8/20/2021 1:15:00 AM 23.44 74.192 0.248 7.85 18.33 7.85
8/20/2021 1:30:00 AM 23.41 74.138 0.26 7.88 18.15 7.86
8/20/2021 1:45:00 AM 23.38 74.084 0.234 7.89 20.89 7.86
8/20/2021 2:00:00 AM 23.35 74.03 0.264 7.88 18.58 7.86
8/20/2021 2:15:00 AM 23.33 73.994 0.258 7.86 17.98 7.86
8/20/2021 2:30:00 AM 23.3 73.94 0.26 7.87 17.38 7.86
8/20/2021 2:45:00 AM 23.27 73.886 0.265 7.88 17.88 7.87
8/20/2021 3:00:00 AM 23.24 73.832 0.41 7.89 16.79 7.86
8/20/2021 3:15:00 AM 23.21 73.778 0.266 7.86 16.46 7.86
8/20/2021 3:30:00 AM 23.19 73.742 0.258 7.89 15.98 7.87
8/20/2021 3:45:00 AM 23.16 73.688 0.273 7.87 15.62 7.87
8/20/2021 4:00:00 AM 23.13 73.634 0.377 7.88 15 7.87
8/20/2021 4:15:00 AM 23.1 73.58 0.274 7.87 14.23 7.87
8/20/2021 4:30:00 AM 23.08 73.544 0.286 7.88 14.68 7.87
8/20/2021 4:45:00 AM 23.05 73.49 0.274 7.87 14.29 7.85
8/20/2021 5:00:00 AM 23.03 73.454 0.26 7.89 14.55 7.87
8/20/2021 5:15:00 AM 23 73.4 0.262 7.88 14.51 7.87
8/20/2021 5:30:00 AM 22.98 73.364 0.389 7.9 13.7 7.87
8/20/2021 5:45:00 AM 22.95 73.31 0.294 7.89 13.08 7.87
8/20/2021 6:00:00 AM 22.93 73.274 0.283 7.91 13.36 7.89
8/20/2021 6:15:00 AM 22.9 73.22 0.259 7.89 13.54 7.87
8/20/2021 6:30:00 AM 22.88 73.184 0.297 7.9 12.33 7.87
8/20/2021 6:45:00 AM 22.86 73.148 0.283 7.89 12.48 7.88
8/20/2021 7:00:00 AM 22.83 73.094 0.263 7.9 12.05 7.88
8/20/2021 7:15:00 AM 22.81 73.058 0.256 7.91 12.27 7.88
8/20/2021 7:30:00 AM 22.8 73.04 0.226 7.9 12.32 7.89
8/20/2021 7:45:00 AM 22.79 73.022 0.391 7.93 12.82 7.89
8/20/2021 8:00:00 AM 22.78 73.004 0.303 7.91 12.4 7.91
8/20/2021 8:15:00 AM 22.76 72.968 0.306 7.9 12.6 7.91
8/20/2021 8:30:00 AM 22.76 72.968 0.278 7.92 11.01 7.91
8/20/2021 8:45:00 AM 22.75 72.95 0.311 7.9 11.62 7.93
8/20/2021 9:00:00 AM 22.75 72.95 0.409 7.93 11.79 7.93
8/20/2021 9:15:00 AM 22.74 72.932 0.306 7.92 11.54 7.94
8/20/2021 9:30:00 AM 22.73 72.914 0.28 7.92 11.37 7.92
8/20/2021 9:45:00 AM 22.72 72.896 0.314 7.91 11.49 7.93
8/20/2021 10:00:00 AM 22.7 72.86 0.289 7.91 11.15 7.92
8/20/2021 10:15:00 AM 22.7 72.86 0.316 7.91 11.16 7.92
8/20/2021 10:30:00 AM 22.69 72.842 0.304 7.93 11.07 7.94
8/20/2021 10:45:00 AM 22.69 72.842 0.265 7.93 10.28 7.96
8/20/2021 11:00:00 AM 22.69 72.842 0.285 7.93 10.17 7.95
8/20/2021 11:15:00 AM 22.7 72.86 0.263 7.93 10.26 7.99
8/20/2021 11:30:00 AM 22.69 72.842 0.313 7.93 10.46 7.98
8/20/2021 11:45:00 AM 22.69 72.842 0.29 7.92 9.69 8
8/20/2021 12:00:00 PM 22.69 72.842 0.298 7.92 9.73 8.01
8/20/2021 12:15:00 PM 22.69 72.842 0.259 7.92 11.11 8.03
8/20/2021 12:30:00 PM 22.7 72.86 0.296 7.94 9.94 8.03
8/20/2021 12:45:00 PM 22.72 72.896 0.297 7.91 9.97 8.06
8/20/2021 1:00:00 PM 22.72 72.896 0.292 7.94 10.2 8.04
8/20/2021 1:15:00 PM 22.72 72.896 0.299 7.95 9.58 8.03
8/20/2021 1:30:00 PM 22.74 72.932 0.301 7.94 9.73 8.04
8/20/2021 1:45:00 PM 22.76 72.968 0.286 7.96 8.96 8.05
8/20/2021 2:00:00 PM 22.75 72.95 0.313 7.96 9.07 8.05
8/20/2021 2:15:00 PM 22.81 73.058 0.264 7.96 10.38 8.12
8/20/2021 2:30:00 PM 22.84 73.112 0.308 7.96 9.22 8.1
8/20/2021 2:45:00 PM 22.84 73.112 0.258 7.96 9.17 8.08
8/20/2021 3:00:00 PM 22.87 73.166 0.431 7.99 8.3 8.11
8/20/2021 3:15:00 PM 22.89 73.202 0.279 7.97 8.47 8.11
8/20/2021 3:30:00 PM 22.91 73.238 0.278 7.98 8.36 8.12
8/20/2021 3:45:00 PM 22.93 73.274 0.318 7.98 8.5 8.12
8/20/2021 4:00:00 PM 22.96 73.328 0.257 7.99 8.29 8.12
8/20/2021 4:15:00 PM 22.99 73.382 0.301 7.99 8.19 8.13
8/20/2021 4:30:00 PM 23.03 73.454 0.276 7.99 7.93 8.14
8/20/2021 4:45:00 PM 23.07 73.526 0.283 8 7.95 8.13
8/20/2021 5:00:00 PM 23.09 73.562 0.315 7.98 7.65 8.09
8/20/2021 5:15:00 PM 23.08 73.544 0.281 8.01 7.43 8.08
8/20/2021 5:30:00 PM 23.09 73.562 0.292 8 6.83 8.07
8/20/2021 5:45:00 PM 23.07 73.526 0.288 8 6.66 8.06
8/20/2021 6:00:00 PM 23.07 73.526 0.289 8 6.73 8.05
8/20/2021 6:15:00 PM 23.06 73.508 0.281 8 6.61 8.07
8/20/2021 6:30:00 PM 23.05 73.49 0.269 8.01 6.99 8.05
8/20/2021 6:45:00 PM 23.04 73.472 0.292 8 7.22 8.05
8/20/2021 7:00:00 PM 23.03 73.454 0.287 8.02 7.48 8.05
8/20/2021 7:15:00 PM 23.01 73.418 0.271 7.98 7.08 8.04
8/20/2021 7:30:00 PM 22.99 73.382 0.318 8 7.47 8.04
8/20/2021 7:45:00 PM 22.97 73.346 0.451 8.03 7.32 8.04
8/20/2021 8:00:00 PM 22.94 73.292 0.275 7.99 7.07 8.03
8/20/2021 8:15:00 PM 22.9 73.22 0.277 7.99 6.42 8.04
8/20/2021 8:30:00 PM 22.88 73.184 0.312 8.01 7.3 8.03
8/20/2021 8:45:00 PM 22.85 73.13 0.26 8.01 6.79 8.04
8/20/2021 9:00:00 PM 22.84 73.112 0.314 8.01 7.15 8.04
8/20/2021 9:15:00 PM 22.83 73.094 0.284 8.02 8.28 8.05
8/20/2021 9:30:00 PM 22.82 73.076 0.302 8.02 6.55 8.05
8/20/2021 9:45:00 PM 22.81 73.058 0.278 8.01 6.56 8.05
8/20/2021 10:00:00 PM 22.8 73.04 0.29 8.01 6.85 8.04
8/20/2021 10:15:00 PM 22.79 73.022 0.318 7.97 6.73 8.04
8/20/2021 10:30:00 PM 22.79 73.022 0.279 7.99 8.51 8.04
8/20/2021 10:45:00 PM 22.78 73.004 0.296 8.02 7.24 8.03
8/20/2021 11:00:00 PM 22.78 73.004 0.272 7.98 6.86 8.04
8/20/2021 11:15:00 PM 22.77 72.986 0.3 7.99 7.63 8.03
8/20/2021 11:30:00 PM 22.77 72.986 0.279 8 7.1 8.03
8/20/2021 11:45:00 PM 22.76 72.968 0.286 8.03 11.01 8.03
8/21/2021 12:00:00 AM 22.76 72.968 0.293 8.02 6.87 8.03
8/21/2021 12:15:00 AM 22.75 72.95 0.268 7.97 7.51 8.03
8/21/2021 12:30:00 AM 22.73 72.914 0.269 8 7.78 8.02
8/21/2021 12:45:00 AM 22.72 72.896 0.294 8.01 8.38 8.02
8/21/2021 1:00:00 AM 22.71 72.878 0.285 8.02 7.9 8.02
8/21/2021 1:15:00 AM 22.69 72.842 0.286 8.01 7.23 8.01
8/21/2021 1:30:00 AM 22.67 72.806 0.453 8.03 6.99 8
8/21/2021 1:45:00 AM 22.66 72.788 0.272 8 7.2 8.01
8/21/2021 2:00:00 AM 22.63 72.734 0.45 8.02 9.09 8
8/21/2021 2:15:00 AM 22.61 72.698 0.299 8.01 8.15 7.99
8/21/2021 2:30:00 AM 22.59 72.662 0.291 8.02 7.24 7.99
8/21/2021 2:45:00 AM 22.56 72.608 0.28 8.01 8.55 7.98
8/21/2021 3:00:00 AM 22.54 72.57201 0.277 8 7.69 7.98
8/21/2021 3:15:00 AM 22.51 72.518 0.249 7.99 8.25 7.98
8/21/2021 3:30:00 AM 22.48 72.464 0.269 8 7.26 7.99
8/21/2021 3:45:00 AM 22.46 72.42799 0.291 8.01 7.39 7.98
8/21/2021 4:00:00 AM 22.43 72.374 0.303 8 7.42 7.99
8/21/2021 4:15:00 AM 22.4 72.32 0.285 8 7.4 7.99
8/21/2021 4:30:00 AM 22.37 72.266 0.292 8.02 7.79 7.99
8/21/2021 4:45:00 AM 22.34 72.212 0.302 8.01 7.68 7.97
8/21/2021 5:00:00 AM 22.31 72.158 0.287 7.96 7.77 7.98
8/21/2021 5:15:00 AM 22.28 72.104 0.468 8.01 9.73 7.97
8/21/2021 5:30:00 AM 22.24 72.032 0.271 7.99 7.63 7.97
8/21/2021 5:45:00 AM 22.21 71.978 0.284 7.99 7.76 7.99
8/21/2021 6:00:00 AM 22.18 71.924 0.317 7.99 8.53 7.97
8/21/2021 6:15:00 AM 22.14 71.852 0.29 8 8.36 7.98
8/21/2021 6:30:00 AM 22.11 71.798 0.295 8 8.92 7.99
8/21/2021 6:45:00 AM 22.08 71.744 0.475 8 11.67 7.98
8/21/2021 7:00:00 AM 22.05 71.69 0.477 8.01 9.77 7.99
8/21/2021 7:15:00 AM 22.01 71.618 0.275 7.99 9.78 7.99
8/21/2021 7:30:00 AM 21.98 71.564 0.301 7.99 7.63 8
8/21/2021 7:45:00 AM 21.95 71.51 0.274 7.98 7.87 8
8/21/2021 8:00:00 AM 21.93 71.474 0.482 7.99 7.58 8.01
8/21/2021 8:15:00 AM 21.91 71.438 0.316 8.01 7.28 8.02
8/21/2021 8:30:00 AM 21.9 71.42 0.308 7.96 7.87 8.04
8/21/2021 8:45:00 AM 21.89 71.402 0.312 8.01 7.6 8.06
8/21/2021 9:00:00 AM 21.9 71.42 0.262 8.01 8.21 8.09
8/21/2021 9:15:00 AM 21.91 71.438 0.31 8.03 7.22 8.12
8/21/2021 9:30:00 AM 21.93 71.474 0.304 8 7.11 8.15
8/21/2021 9:45:00 AM 21.95 71.51 0.264 8.02 7.14 8.17
8/21/2021 10:00:00 AM 21.99 71.582 0.31 8.03 6.94 8.19
8/21/2021 10:15:00 AM 22.04 71.672 0.309 8.02 6.88 8.21
8/21/2021 10:30:00 AM 22.07 71.726 0.308 8.02 6.71 8.23
8/21/2021 10:45:00 AM 22.12 71.816 0.305 8.02 6.52 8.27
8/21/2021 11:00:00 AM 22.15 71.87 0.312 8.04 6.54 8.29
8/21/2021 11:15:00 AM 22.22 71.996 0.32 8.04 6.4 8.31
8/21/2021 11:30:00 AM 22.26 72.068 0.322 8.05 6.33 8.31
8/21/2021 11:45:00 AM 22.3 72.14 0.307 8.04 6.45 8.31
8/21/2021 12:00:00 PM 22.28 72.104 0.316 8.05 6.45 8.29
8/21/2021 12:15:00 PM 22.33 72.194 0.284 8.05 6.1 8.32
8/21/2021 12:30:00 PM 22.27 72.086 0.315 8.05 5.93 8.24
8/21/2021 12:45:00 PM 22.22 71.996 0.271 8.05 5.78 8.28
8/21/2021 1:00:00 PM 22.24 72.032 0.273 8.05 5.81 8.34
8/21/2021 1:15:00 PM 22.31 72.158 0.259 8.05 5.57 8.37
8/21/2021 1:30:00 PM 22.38 72.284 0.489 8.06 5.34 8.37
8/21/2021 1:45:00 PM 22.35 72.23 0.269 8.06 5.48 8.33
8/21/2021 2:00:00 PM 22.34 72.212 0.3 8.05 5.26 8.37
8/21/2021 2:15:00 PM 22.36 72.248 0.301 8.06 5.55 8.4
8/21/2021 2:30:00 PM 22.38 72.284 0.257 8.05 5 8.39
8/21/2021 2:45:00 PM 22.39 72.302 0.281 8.05 4.79 8.39
8/21/2021 3:00:00 PM 22.4 72.32 0.311 8.06 4.72 8.41
8/21/2021 3:15:00 PM 22.36 72.248 0.311 8.06 4.68 8.32
8/21/2021 3:30:00 PM 22.41 72.338 0.27 8.06 4.59 8.39
8/21/2021 3:45:00 PM 22.47 72.446 0.302 8.1 4.42 8.42
8/21/2021 4:00:00 PM 22.52 72.536 0.284 8.09 5 8.42
8/21/2021 4:15:00 PM 22.51 72.518 0.321 8.07 4.59 8.33
8/21/2021 4:30:00 PM 22.51 72.518 0.307 8.1 4.83 8.31
8/21/2021 4:45:00 PM 22.51 72.518 0.26 8.08 4.36 8.31
8/21/2021 5:00:00 PM 22.52 72.536 0.278 8.01 3.6 8.36
8/21/2021 5:15:00 PM 22.58 72.644 0.285 8.08 4.18 8.4
8/21/2021 5:30:00 PM 22.61 72.698 0.27 8.1 4.08 8.39
8/21/2021 5:45:00 PM 22.61 72.698 0.277 8.1 4.13 8.38
8/21/2021 6:00:00 PM 22.59 72.662 0.266 8.09 4.04 8.35
8/21/2021 6:15:00 PM 22.57 72.626 0.282 8.09 4.3 8.34
8/21/2021 6:30:00 PM 22.55 72.59 0.278 8.09 4.02 8.35
8/21/2021 6:45:00 PM 22.55 72.59 0.262 8.09 3.87 8.32
8/21/2021 7:00:00 PM 22.55 72.59 0.493 8.09 3.98 8.28
8/21/2021 7:15:00 PM 22.54 72.57201 0.263 8.08 4.13 8.28
8/21/2021 7:30:00 PM 22.54 72.57201 0.259 8.08 3.99 8.27
8/21/2021 7:45:00 PM 22.52 72.536 0.253 8.08 4.33 8.24
8/21/2021 8:00:00 PM 22.51 72.518 0.315 8.1 7.17 8.23
8/21/2021 8:15:00 PM 22.5 72.5 0.279 8.08 4.18 8.23
8/21/2021 8:30:00 PM 22.49 72.482 0.26 8.09 5.58 8.23
8/21/2021 8:45:00 PM 22.49 72.482 0.258 8.08 5.16 8.23
8/21/2021 9:00:00 PM 22.49 72.482 0.499 8.08 4.23 8.23
8/21/2021 9:15:00 PM 22.49 72.482 0.273 8.09 5.48 8.23
8/21/2021 9:30:00 PM 22.5 72.5 0.317 8.08 4.99 8.23
8/21/2021 9:45:00 PM 22.51 72.518 0.316 8.11 4.58 8.22
8/21/2021 10:00:00 PM 22.52 72.536 0.316 8.07 4.84 8.23
8/21/2021 10:15:00 PM 22.53 72.554 0.253 8.1 4.52 8.22
8/21/2021 10:30:00 PM 22.54 72.57201 0.319 8.08 4.3 8.21
8/21/2021 10:45:00 PM 22.55 72.59 0.506 8.08 4.12 8.2
8/21/2021 11:00:00 PM 22.57 72.626 0.25 8.09 4.04 8.2
8/21/2021 11:15:00 PM 22.58 72.644 0.317 8.08 4.89 8.19
8/21/2021 11:30:00 PM 22.6 72.68 0.281 8.08 4.94 8.18
8/21/2021 11:45:00 PM 22.62 72.716 0.249 8.09 4.49 8.18
8/22/2021 12:00:00 AM 22.63 72.734 0.511 8.09 4.06 8.16
8/22/2021 12:15:00 AM 22.64 72.752 0.294 8.11 4.78 8.15
8/22/2021 12:30:00 AM 22.66 72.788 0.263 8.1 5.19 8.16
8/22/2021 12:45:00 AM 22.67 72.806 0.271 8.1 4.53 8.15
8/22/2021 1:00:00 AM 22.68 72.824 0.315 8.06 5.33 8.14
8/22/2021 1:15:00 AM 22.69 72.842 0.292 8.09 6.82 8.14
8/22/2021 1:30:00 AM 22.7 72.86 0.309 8.09 4.58 8.13
8/22/2021 1:45:00 AM 22.71 72.878 0.299 8.09 4.58 8.11
8/22/2021 2:00:00 AM 22.71 72.878 0.281 8.09 5.23 8.1
8/22/2021 2:15:00 AM 22.72 72.896 0.26 8.08 5.3 8.09
8/22/2021 2:30:00 AM 22.71 72.878 0.276 8.08 4.99 8.08
8/22/2021 2:45:00 AM 22.72 72.896 0.28 8.09 5.6 8.08
8/22/2021 3:00:00 AM 22.71 72.878 0.303 8.09 5.17 8.07
8/22/2021 3:15:00 AM 22.71 72.878 0.52 8.09 4.71 8.06
8/22/2021 3:30:00 AM 22.71 72.878 0.291 8.09 4.99 8.06
8/22/2021 3:45:00 AM 22.7 72.86 0.307 8.1 5.32 8.05
8/22/2021 4:00:00 AM 22.69 72.842 0.521 8.09 5.61 8.02
8/22/2021 4:15:00 AM 22.68 72.824 0.276 8.09 5.16 8.03
8/22/2021 4:30:00 AM 22.67 72.806 0.266 8.08 5.48 8.02
8/22/2021 4:45:00 AM 22.66 72.788 0.258 8.09 5.09 8.02
8/22/2021 5:00:00 AM 22.65 72.77 0.27 8.08 5.6 8.01
8/22/2021 5:15:00 AM 22.64 72.752 0.263 8.08 5.7 8.03
8/22/2021 5:30:00 AM 22.62 72.716 0.258 8.08 6.19 8.01
8/22/2021 5:45:00 AM 22.61 72.698 0.26 8.08 5.47 8
8/22/2021 6:00:00 AM 22.54 72.57201 0.25 8.09 5.63 8.05
8/22/2021 6:15:00 AM 22.49 72.482 0.28 8.09 7.95 8.03
8/22/2021 6:30:00 AM 22.46 72.42799 0.291 8.08 8.69 8.05
8/22/2021 6:45:00 AM 22.45 72.41 0.269 8.06 7.76 8.06
8/22/2021 7:00:00 AM 22.42 72.356 0.291 8.07 7.25 8.06
8/22/2021 7:15:00 AM 22.39 72.302 0.273 8.06 6.95 8.07
8/22/2021 7:30:00 AM 22.36 72.248 0.255 8.05 7.21 8.07
8/22/2021 7:45:00 AM 22.33 72.194 0.3 8.08 7.7 8.06
8/22/2021 8:00:00 AM 22.3 72.14 0.297 8.03 8.75 8.05
8/22/2021 8:15:00 AM 22.26 72.068 0.313 8.06 8.92 8.04
8/22/2021 8:30:00 AM 22.24 72.032 0.295 8.03 8.54 8.03
8/22/2021 8:45:00 AM 22.22 71.996 0.268 8.03 7.94 8.04
8/22/2021 9:00:00 AM 22.2 71.96 0.287 8.04 8.22 8.05
8/22/2021 9:15:00 AM 22.19 71.942 0.263 8.04 7.71 8.05
8/22/2021 9:30:00 AM 22.17 71.906 0.28 8.05 8.43 8.04
8/22/2021 9:45:00 AM 22.16 71.888 0.295 8.05 8.42 8.09
8/22/2021 10:00:00 AM 22.16 71.888 0.252 8.03 7.96 8.13
8/22/2021 10:15:00 AM 22.15 71.87 0.293 8.04 7.95 8.11
8/22/2021 10:30:00 AM 22.13 71.834 0.257 8.03 8.18 8.05
8/22/2021 10:45:00 AM 22.09 71.762 0.254 8.05 9.78 8.03
8/22/2021 11:00:00 AM 22.07 71.726 0.316 8.01 6.78 8.04
8/22/2021 11:15:00 AM 22.06 71.708 0.292 8.04 7.13 8.1
8/22/2021 11:30:00 AM 22.06 71.708 0.291 8.06 6.83 8.14
8/22/2021 11:45:00 AM 22.05 71.69 0.3 8.04 7.29 8.16
8/22/2021 12:00:00 PM 22.04 71.672 0.281 8.04 7.58 8.14
8/22/2021 12:15:00 PM 22.01 71.618 0.257 8.05 7.76 8.1
8/22/2021 12:30:00 PM 21.99 71.582 0.509 8.03 7.68 8.07
8/22/2021 12:45:00 PM 21.97 71.546 0.51 8.05 7.64 8.09
8/22/2021 1:00:00 PM 21.95 71.51 0.269 8.02 8.59 8.08
8/22/2021 1:15:00 PM 21.93 71.474 0.296 8.05 8.52 8.11
8/22/2021 1:30:00 PM 21.93 71.474 0.256 8.02 8.42 8.16
8/22/2021 1:45:00 PM 21.89 71.402 0.29 8.04 8.24 8.12
8/22/2021 2:00:00 PM 21.86 71.348 0.323 8.04 9.81 8.16
8/22/2021 2:15:00 PM 21.83 71.294 0.265 8.02 10.56 8.13
8/22/2021 2:30:00 PM 21.79 71.222 0.28 8.02 11.01 8.13
8/22/2021 2:45:00 PM 21.77 71.186 0.27 8.02 12.27 8.16
8/22/2021 3:00:00 PM 21.74 71.132 0.314 8.01 12.55 8.16
8/22/2021 3:15:00 PM 21.7 71.06 0.317 8.01 12.34 8.15
8/22/2021 3:30:00 PM 21.68 71.024 0.302 8.02 12.54 8.15
8/22/2021 3:45:00 PM 21.64 70.952 0.316 7.99 12.29 8.14
8/22/2021 4:00:00 PM 21.62 70.916 0.321 7.98 12.85 8.14
8/22/2021 4:15:00 PM 21.61 70.898 0.488 7.99 11.58 8.14
8/22/2021 4:30:00 PM 21.6 70.88 0.322 7.97 11.79 8.09
8/22/2021 4:45:00 PM 21.58 70.844 0.298 7.96 11.59 8.06
8/22/2021 5:00:00 PM 21.57 70.826 0.298 7.96 11.36 8.05
8/22/2021 5:15:00 PM 21.56 70.808 0.304 7.96 11.62 8.03
8/22/2021 5:30:00 PM 21.56 70.808 0.267 7.96 10.01 8.04
8/22/2021 5:45:00 PM 21.56 70.808 0.316 7.97 10.9 8.03
8/22/2021 6:00:00 PM 21.55 70.79 0.325 7.96 9.37 8.01
8/22/2021 6:15:00 PM 21.54 70.772 0.493 7.96 9.21 8.01
8/22/2021 6:30:00 PM 21.52 70.736 0.326 7.96 8.58 8.01
8/22/2021 6:45:00 PM 21.51 70.718 0.319 7.96 8.77 8.01
8/22/2021 7:00:00 PM 21.49 70.682 0.298 7.99 8.12 8.03
8/22/2021 7:15:00 PM 21.48 70.664 0.261 7.95 10.72 8.03
8/22/2021 7:30:00 PM 21.46 70.628 0.261 7.96 8.75 8.04
8/22/2021 7:45:00 PM 21.44 70.592 0.289 7.97 8.34 8.04
8/22/2021 8:00:00 PM 21.42 70.556 0.299 7.96 8.24 8.06
8/22/2021 8:15:00 PM 21.41 70.538 0.31 7.97 8.35 8.08
8/22/2021 8:30:00 PM 21.39 70.502 0.265 7.98 7.94 8.09
8/22/2021 8:45:00 PM 21.37 70.466 0.296 7.99 6.86 8.1
8/22/2021 9:00:00 PM 21.36 70.448 0.306 7.98 8.32 8.12
8/22/2021 9:15:00 PM 21.34 70.412 0.306 7.98 7.11 8.13
8/22/2021 9:30:00 PM 21.33 70.394 0.285 8 6.8 8.14
8/22/2021 9:45:00 PM 21.33 70.394 0.304 7.99 6.42 8.15
8/22/2021 10:00:00 PM 21.32 70.376 0.3 8.02 6.61 8.16
8/22/2021 10:15:00 PM 21.31 70.358 0.318 8 9.38 8.16
8/22/2021 10:30:00 PM 21.31 70.358 0.277 8.01 6.81 8.17
8/22/2021 10:45:00 PM 21.3 70.34 0.265 8.01 6.92 8.18
8/22/2021 11:00:00 PM 21.3 70.34 0.301 8.04 8.26 8.19
8/22/2021 11:15:00 PM 21.29 70.32201 0.278 8.02 6.37 8.19
8/22/2021 11:30:00 PM 21.29 70.32201 0.301 8.02 6.86 8.19
8/22/2021 11:45:00 PM 21.29 70.32201 0.535 8.05 6.75 8.19
8/23/2021 12:00:00 AM 21.28 70.304 0.294 8.03 6.64 8.2
8/23/2021 12:15:00 AM 21.29 70.32201 0.536 8.03 6.9 8.21
8/23/2021 12:30:00 AM 21.29 70.32201 0.323 8.03 6.74 8.22
8/23/2021 12:45:00 AM 21.3 70.34 0.313 8.03 6.69 8.23
8/23/2021 1:00:00 AM 21.31 70.358 0.315 8.03 6.68 8.24
8/23/2021 1:15:00 AM 21.31 70.358 0.533 8.05 7.01 8.23
8/23/2021 1:30:00 AM 21.31 70.358 0.321 8.04 6.43 8.25
8/23/2021 1:45:00 AM 21.31 70.358 0.534 8.07 8 8.25
8/23/2021 2:00:00 AM 21.32 70.376 0.275 8.06 6.27 8.25
8/23/2021 2:15:00 AM 21.32 70.376 0.292 8.05 6.97 8.25
8/23/2021 2:30:00 AM 21.33 70.394 0.537 8.07 6.81 8.25
8/23/2021 2:45:00 AM 21.34 70.412 0.303 8.06 6.85 8.26
8/23/2021 3:00:00 AM 21.35 70.43 0.265 8.04 6.99 8.26
8/23/2021 3:15:00 AM 21.35 70.43 0.297 8.07 8.6 8.25
8/23/2021 3:30:00 AM 21.35 70.43 0.323 8.05 8.36 8.25
8/23/2021 3:45:00 AM 21.35 70.43 0.314 8.06 8.75 8.24
8/23/2021 4:00:00 AM 21.36 70.448 0.294 8.06 7.55 8.23
8/23/2021 4:15:00 AM 21.36 70.448 0.305 8.05 7.41 8.22
8/23/2021 4:30:00 AM 21.35 70.43 0.304 8.05 7.72 8.22
8/23/2021 4:45:00 AM 21.35 70.43 0.259 8.04 9.14 8.22
8/23/2021 5:00:00 AM 21.34 70.412 0.316 8.07 7.03 8.22
8/23/2021 5:15:00 AM 21.33 70.394 0.32 8.03 7.58 8.21
8/23/2021 5:30:00 AM 21.32 70.376 0.316 8.06 8.17 8.21
8/23/2021 5:45:00 AM 21.31 70.358 0.305 8.04 7.63 8.21
8/23/2021 6:00:00 AM 21.29 70.32201 0.295 8.05 7.61 8.21
8/23/2021 6:15:00 AM 21.28 70.304 0.545 8.04 7.77 8.21
8/23/2021 6:30:00 AM 21.27 70.286 0.283 8.04 7.79 8.22
8/23/2021 6:45:00 AM 21.25 70.25 0.297 8.03 8.7 8.23
8/23/2021 7:00:00 AM 21.23 70.214 0.305 8.04 8.79 8.25
8/23/2021 7:15:00 AM 21.22 70.196 0.544 8.04 8.86 8.24
8/23/2021 7:30:00 AM 21.19 70.142 0.309 8.03 8.53 8.24
8/23/2021 7:45:00 AM 21.16 70.088 0.282 8.04 8.72 8.26
8/23/2021 8:00:00 AM 21.13 70.034 0.28 8.02 8.5 8.28
8/23/2021 8:15:00 AM 21.09 69.962 0.317 8.04 8.55 8.3
8/23/2021 8:30:00 AM 21.05 69.89 0.311 8.04 9.46 8.29
8/23/2021 8:45:00 AM 21.04 69.872 0.272 8.03 9.92 8.32
8/23/2021 9:00:00 AM 21.05 69.89 0.307 8.01 9.48 8.31
8/23/2021 9:15:00 AM 21.09 69.962 0.522 8.02 9.36 8.36
8/23/2021 9:30:00 AM 21.13 70.034 0.298 8.04 9.28 8.37
8/23/2021 9:45:00 AM 21.17 70.106 0.262 8.03 9.14 8.38
8/23/2021 10:00:00 AM 21.22 70.196 0.285 8.04 8.88 8.39
8/23/2021 10:15:00 AM 21.26 70.268 0.329 8.04 8.17 8.39
8/23/2021 10:30:00 AM 21.31 70.358 0.298 8.06 8.05 8.43
8/23/2021 10:45:00 AM 21.4 70.52 0.309 8.07 7.72 8.45
8/23/2021 11:00:00 AM 21.45 70.61 0.309 8.01 7.77 8.47
8/23/2021 11:15:00 AM 21.5 70.7 0.299 8.07 7.49 8.47
8/23/2021 11:30:00 AM 21.54 70.772 0.3 8.08 7.64 8.48
8/23/2021 11:45:00 AM 21.52 70.736 0.305 8.08 8.24 8.43
8/23/2021 12:00:00 PM 21.49 70.682 0.283 8.05 8.45 8.42
8/23/2021 12:15:00 PM 21.6 70.88 0.3 8.08 8.29 8.48
8/23/2021 12:30:00 PM 21.67 71.006 0.515 8.06 8.45 8.49
8/23/2021 12:45:00 PM 21.73 71.114 0.274 8.06 8.54 8.49
8/23/2021 1:00:00 PM 21.79 71.222 0.281 8.06 8.44 8.49
8/23/2021 1:15:00 PM 21.87 71.366 0.319 8.07 8.29 8.5
8/23/2021 1:30:00 PM 21.94 71.492 0.264 8.06 8.48 8.5
8/23/2021 1:45:00 PM 22 71.6 0.506 8.06 7.93 8.45
8/23/2021 2:00:00 PM 22.04 71.672 0.267 8.07 7.81 8.47
8/23/2021 2:15:00 PM 22.17 71.906 0.286 8.09 7.86 8.5
8/23/2021 2:30:00 PM 22.28 72.104 0.312 8.1 8.43 8.47
8/23/2021 2:45:00 PM 22.35 72.23 0.292 8.09 7.49 8.45
8/23/2021 3:00:00 PM 22.48 72.464 0.308 8.11 7.44 8.51
8/23/2021 3:15:00 PM 22.59 72.662 0.288 8.1 7.64 8.51
8/23/2021 3:30:00 PM 22.64 72.752 0.28 8.11 7.19 8.48
8/23/2021 3:45:00 PM 22.65 72.77 0.293 8.13 7.07 8.45
8/23/2021 4:00:00 PM 22.7 72.86 0.312 8.11 7.18 8.45
8/23/2021 4:15:00 PM 22.8 73.04 0.295 8.13 7.02 8.48
8/23/2021 4:30:00 PM 22.92 73.256 0.25 8.14 7.25 8.49
8/23/2021 4:45:00 PM 22.98 73.364 0.244 8.13 6.66 8.48
8/23/2021 5:00:00 PM 23.05 73.49 0.506 8.15 7.17 8.47
8/23/2021 5:15:00 PM 23.08 73.544 0.263 8.14 6.52 8.44
8/23/2021 5:30:00 PM 23.12 73.616 0.298 8.13 6.88 8.41
8/23/2021 5:45:00 PM 23.16 73.688 0.245 8.13 6.28 8.39
8/23/2021 6:00:00 PM 23.21 73.778 0.254 8.14 6.4 8.36
8/23/2021 6:15:00 PM 23.24 73.832 0.279 8.14 6.54 8.37
8/23/2021 6:30:00 PM 23.25 73.85 0.501 8.13 6.26 8.36
8/23/2021 6:45:00 PM 23.24 73.832 0.27 8.14 6.64 8.34
8/23/2021 7:00:00 PM 23.22 73.796 0.257 8.13 6.48 8.3
8/23/2021 7:15:00 PM 23.21 73.778 0.252 8.12 6.4 8.28
8/23/2021 7:30:00 PM 23.19 73.742 0.315 8.11 6.47 8.26
8/23/2021 7:45:00 PM 23.18 73.724 0.301 8.12 6.84 8.24
8/23/2021 8:00:00 PM 23.18 73.724 0.478 8.1 7.04 8.23
8/23/2021 8:15:00 PM 23.17 73.706 0.308 8.1 6.79 8.23
8/23/2021 8:30:00 PM 23.16 73.688 0.285 8.11 6.79 8.22
8/23/2021 8:45:00 PM 23.15 73.67 0.284 8.1 6.63 8.21
8/23/2021 9:00:00 PM 23.14 73.652 0.274 8.09 7.66 8.2
8/23/2021 9:15:00 PM 23.13 73.634 0.283 8.09 7.84 8.18
8/23/2021 9:30:00 PM 23.13 73.634 0.294 8.07 7.13 8.18
8/23/2021 9:45:00 PM 23.13 73.634 0.3 8.07 7.74 8.17
8/23/2021 10:00:00 PM 23.12 73.616 0.3 8.06 7.37 8.16
8/23/2021 10:15:00 PM 23.12 73.616 0.286 8.05 8.34 8.17
8/23/2021 10:30:00 PM 23.11 73.598 0.271 8.04 7.56 8.16
8/23/2021 10:45:00 PM 23.1 73.58 0.436 7.97 8.7 8.16
8/23/2021 11:00:00 PM 23.09 73.562 0.304 8.06 8.13 8.18
8/23/2021 11:15:00 PM 23.08 73.544 0.436 8.04 8.65 8.19
8/23/2021 11:30:00 PM 23.06 73.508 0.435 8.05 9.13 8.19
8/23/2021 11:45:00 PM 23.02 73.436 0.439 8.03 8.9 8.21
8/24/2021 12:00:00 AM 22.98 73.364 0.242 8.02 9 8.21
8/24/2021 12:15:00 AM 22.93 73.274 0.301 8.03 8.89 8.21
8/24/2021 12:30:00 AM 22.89 73.202 0.276 8.04 9.01 8.21
8/24/2021 12:45:00 AM 22.86 73.148 0.446 8.05 8.96 8.2
8/24/2021 1:00:00 AM 22.85 73.13 0.28 8.01 9.05 8.21
8/24/2021 1:15:00 AM 22.83 73.094 0.314 8.02 9.12 8.21
8/24/2021 1:30:00 AM 22.81 73.058 0.271 8.03 9.4 8.21
8/24/2021 1:45:00 AM 22.8 73.04 0.306 8.04 9.96 8.2
8/24/2021 2:00:00 AM 22.79 73.022 0.304 8.02 10.38 8.2
8/24/2021 2:15:00 AM 22.79 73.022 0.306 8.03 10.57 8.2
8/24/2021 2:30:00 AM 22.79 73.022 0.31 8.02 11.1 8.2
8/24/2021 2:45:00 AM 22.8 73.04 0.315 7.97 11.46 8.2
8/24/2021 3:00:00 AM 22.8 73.04 0.304 8.01 11.62 8.2
8/24/2021 3:15:00 AM 22.8 73.04 0.318 8 11.33 8.21
8/24/2021 3:30:00 AM 22.81 73.058 0.278 7.97 11.5 8.22
8/24/2021 3:45:00 AM 22.82 73.076 0.311 8 12 8.21
8/24/2021 4:00:00 AM 22.83 73.094 0.301 7.99 12.38 8.21
8/24/2021 4:15:00 AM 22.84 73.112 0.312 7.98 12.88 8.2
8/24/2021 4:30:00 AM 22.85 73.13 0.318 7.99 13.11 8.2
8/24/2021 4:45:00 AM 22.87 73.166 0.316 7.98 13.19 8.2
8/24/2021 5:00:00 AM 22.88 73.184 0.437 7.98 13.49 8.19
8/24/2021 5:15:00 AM 22.88 73.184 0.316 7.97 27.78 8.18
8/24/2021 5:30:00 AM 22.89 73.202 0.206 7.97 14.13 8.17
8/24/2021 5:45:00 AM 22.89 73.202 0.28 7.97 15.82 8.16
8/24/2021 6:00:00 AM 22.89 73.202 0.298 7.98 14.91 8.15
8/24/2021 6:15:00 AM 22.89 73.202 0.319 7.96 14.79 8.15
8/24/2021 6:30:00 AM 22.89 73.202 0.309 7.93 15.03 8.15
8/24/2021 6:45:00 AM 22.89 73.202 0.297 7.95 15.01 8.14
8/24/2021 7:00:00 AM 22.88 73.184 0.316 7.94 16.17 8.13
8/24/2021 7:15:00 AM 22.89 73.202 0.28 7.93 15.23 8.13
8/24/2021 7:30:00 AM 22.89 73.202 0.286 7.9 16.21 8.13
8/24/2021 7:45:00 AM 22.89 73.202 0.266 7.94 16 8.13
8/24/2021 8:00:00 AM 22.89 73.202 0.286 7.93 15.48 8.13
8/24/2021 8:15:00 AM 22.89 73.202 0.423 7.93 16.06 8.13
8/24/2021 8:30:00 AM 22.89 73.202 0.379 7.92 16.35 8.14
8/24/2021 8:45:00 AM 22.88 73.184 0.276 7.91 16.74 8.14
8/24/2021 9:00:00 AM 22.88 73.184 0.3 7.94 16.8 8.15
8/24/2021 9:15:00 AM 22.87 73.166 0.262 7.92 16.19 8.16
8/24/2021 9:30:00 AM 22.87 73.166 0.292 7.93 16.28 8.17
8/24/2021 9:45:00 AM 22.87 73.166 0.279 7.94 16.08 8.18
8/24/2021 10:00:00 AM 22.86 73.148 0.275 7.95 15.96 8.2
8/24/2021 10:15:00 AM 22.86 73.148 0.291 7.97 16.18 8.21
8/24/2021 10:30:00 AM 22.87 73.166 0.403 7.96 16.36 8.22
8/24/2021 10:45:00 AM 22.88 73.184 0.302 7.96 16.91 8.24
8/24/2021 11:00:00 AM 22.89 73.202 0.393 7.94 16.23 8.26
8/24/2021 11:15:00 AM 22.89 73.202 0.231 7.97 15.82 8.27
8/24/2021 11:30:00 AM 22.91 73.238 0.307 7.97 17.26 8.28
8/24/2021 11:45:00 AM 22.94 73.292 0.255 7.98 16.78 8.29
8/24/2021 12:00:00 PM 22.96 73.328 0.309 7.98 17.5 8.29
8/24/2021 12:15:00 PM 23 73.4 0.281 8 17.04 8.29
8/24/2021 12:30:00 PM 23.01 73.418 0.396 7.99 15.51 8.3
8/24/2021 12:45:00 PM 23.08 73.544 0.298 7.99 15.79 8.3
8/24/2021 1:00:00 PM 23.14 73.652 0.247 7.99 15.59 8.3
8/24/2021 1:15:00 PM 23.18 73.724 0.278 8.01 16.13 8.29
8/24/2021 1:30:00 PM 23.24 73.832 0.277 8 15.51 8.29
8/24/2021 1:45:00 PM 23.3 73.94 0.311 8.01 15.86 8.29
8/24/2021 2:00:00 PM 23.36 74.048 0.3 8.01 15.87 8.28
8/24/2021 2:15:00 PM 23.43 74.174 0.29 8 14.96 8.29
8/24/2021 2:30:00 PM 23.5 74.3 0.243 8 15.1 8.29
8/24/2021 2:45:00 PM 23.58 74.444 0.308 8.01 16.59 8.28
8/24/2021 3:00:00 PM 23.63 74.534 0.253 8.01 16.13 8.27
8/24/2021 3:15:00 PM 23.69 74.642 0.289 8.02 13.69 8.26
8/24/2021 3:30:00 PM 23.76 74.768 0.29 8 13.68 8.25
8/24/2021 3:45:00 PM 23.8 74.84 0.288 8.01 14.26 8.24
8/24/2021 4:00:00 PM 23.86 74.948 0.293 8.01 13.44 8.23
8/24/2021 4:15:00 PM 23.89 75.002 0.284 8.01 13.09 8.23
8/24/2021 4:30:00 PM 23.93 75.074 0.282 8.02 13.12 8.21
8/24/2021 4:45:00 PM 23.96 75.128 0.311 8.03 13.01 8.21
8/24/2021 5:00:00 PM 23.98 75.164 0.391 8.03 12.52 8.2
8/24/2021 5:15:00 PM 23.99 75.182 0.286 8.02 12.79 8.2
8/24/2021 5:30:00 PM 23.98 75.164 0.307 8.03 12.11 8.18
8/24/2021 5:45:00 PM 23.97 75.146 0.287 8.03 12.3 8.17
8/24/2021 6:00:00 PM 23.95 75.11 0.301 8.03 12.96 8.15
8/24/2021 6:15:00 PM 23.92 75.056 0.279 8.05 12.54 8.15
8/24/2021 6:30:00 PM 23.88 74.984 0.286 8.03 12.35 8.14
8/24/2021 6:45:00 PM 23.83 74.894 0.308 8.05 11.63 8.14
8/24/2021 7:00:00 PM 23.79 74.82201 0.278 8.03 10.96 8.13
8/24/2021 7:15:00 PM 23.75 74.75 0.288 8.03 11.09 8.12
8/24/2021 7:30:00 PM 23.71 74.67799 0.401 8.03 10.64 8.11
8/24/2021 7:45:00 PM 23.67 74.606 0.402 8.05 10.14 8.12
8/24/2021 8:00:00 PM 23.64 74.552 0.292 8.02 10.54 8.1
8/24/2021 8:15:00 PM 23.62 74.516 0.294 8.04 10.94 8.1
8/24/2021 8:30:00 PM 23.59 74.462 0.291 8.03 10.74 8.11
8/24/2021 8:45:00 PM 23.57 74.426 0.253 8.01 10.33 8.09
8/24/2021 9:00:00 PM 23.55 74.39 0.298 8.02 11.78 8.09
8/24/2021 9:15:00 PM 23.52 74.336 0.3 8 10.13 8.09
8/24/2021 9:30:00 PM 23.51 74.318 0.312 8.03 10.04 8.09
8/24/2021 9:45:00 PM 23.48 74.264 0.301 8.02 10.54 8.08
8/24/2021 10:00:00 PM 23.46 74.228 0.302 8 10.34 8.07
8/24/2021 10:15:00 PM 23.45 74.21 0.259 8.02 9.69 8.08
8/24/2021 10:30:00 PM 23.42 74.156 0.298 8.01 9.93 8.07
8/24/2021 10:45:00 PM 23.41 74.138 0.301 7.99 9.83 8.06
8/24/2021 11:00:00 PM 23.39 74.102 0.305 8 9.93 8.06
8/24/2021 11:15:00 PM 23.37 74.066 0.415 8.02 9.63 8.05
8/24/2021 11:30:00 PM 23.36 74.048 0.297 8.01 9.99 8.05
8/24/2021 11:45:00 PM 23.33 73.994 0.296 8 10.16 8.03
8/25/2021 12:00:00 AM 23.32 73.976 0.299 8 10.6 8.04
8/25/2021 12:15:00 AM 23.3 73.94 0.297 7.98 11.9 8.04
8/25/2021 12:30:00 AM 23.28 73.904 0.299 8 9.91 8.03
8/25/2021 12:45:00 AM 23.26 73.868 0.283 8 9.62 8.02
8/25/2021 1:00:00 AM 23.23 73.814 0.293 7.99 10.87 8.03
8/25/2021 1:15:00 AM 23.21 73.778 0.314 7.98 9.46 8.03
8/25/2021 1:30:00 AM 23.18 73.724 0.293 8 9.42 8.01
8/25/2021 1:45:00 AM 23.15 73.67 0.301 7.97 10.34 8.02
8/25/2021 2:00:00 AM 23.12 73.616 0.293 7.99 10.17 8
8/25/2021 2:15:00 AM 23.09 73.562 0.26 7.99 10.12 8.01
8/25/2021 2:30:00 AM 23.05 73.49 0.305 7.98 9.68 8.01
8/25/2021 2:45:00 AM 23.02 73.436 0.316 7.98 9.76 8
8/25/2021 3:00:00 AM 22.98 73.364 0.309 7.97 9.47 8.01
8/25/2021 3:15:00 AM 22.95 73.31 0.294 7.96 9.8 8
8/25/2021 3:30:00 AM 22.91 73.238 0.3 7.98 9.87 8
8/25/2021 3:45:00 AM 22.87 73.166 0.267 7.98 9.8 8
8/25/2021 4:00:00 AM 22.83 73.094 0.223 7.97 9.78 7.99
8/25/2021 4:15:00 AM 22.79 73.022 0.272 7.99 10.01 8
8/25/2021 4:30:00 AM 22.75 72.95 0.307 7.98 9.93 7.99
8/25/2021 4:45:00 AM 22.71 72.878 0.236 7.96 10.3 8
8/25/2021 5:00:00 AM 22.66 72.788 0.303 7.96 10.43 8
8/25/2021 5:15:00 AM 22.62 72.716 0.309 7.94 10.07 8.01
8/25/2021 5:30:00 AM 22.58 72.644 0.305 7.95 10.04 8
8/25/2021 5:45:00 AM 22.53 72.554 0.251 7.95 10.27 8.01
8/25/2021 6:00:00 AM 22.49 72.482 0.315 7.95 10.58 8.01
8/25/2021 6:15:00 AM 22.44 72.392 0.274 7.97 10.53 8.02
8/25/2021 6:30:00 AM 22.4 72.32 0.276 7.95 10.5 8.03
8/25/2021 6:45:00 AM 22.36 72.248 0.266 7.97 10.48 8.02
8/25/2021 7:00:00 AM 22.32 72.176 0.308 7.95 10.13 8.03
8/25/2021 7:15:00 AM 22.28 72.104 0.295 7.95 10.01 8.05
8/25/2021 7:30:00 AM 22.25 72.05 0.321 7.95 10.65 8.07
8/25/2021 7:45:00 AM 22.22 71.996 0.261 7.95 10.26 8.08
8/25/2021 8:00:00 AM 22.19 71.942 0.32 7.96 10.75 8.08
8/25/2021 8:15:00 AM 22.16 71.888 0.454 7.95 10.25 8.1
8/25/2021 8:30:00 AM 22.15 71.87 0.449 7.96 10.75 8.11
8/25/2021 8:45:00 AM 22.13 71.834 0.456 7.99 10.83 8.13
8/25/2021 9:00:00 AM 22.14 71.852 0.314 7.97 9.95 8.16
8/25/2021 9:15:00 AM 22.15 71.87 0.268 7.98 10.86 8.19
8/25/2021 9:30:00 AM 22.17 71.906 0.275 7.97 10.99 8.22
8/25/2021 9:45:00 AM 22.19 71.942 0.297 7.98 11.08 8.24
8/25/2021 10:00:00 AM 22.22 71.996 0.318 7.98 11.21 8.26
8/25/2021 10:15:00 AM 22.25 72.05 0.279 7.96 11.06 8.29
8/25/2021 10:30:00 AM 22.29 72.122 0.295 7.99 10.81 8.31
8/25/2021 10:45:00 AM 22.32 72.176 0.29 8.01 11.45 8.33
8/25/2021 11:00:00 AM 22.37 72.266 0.294 7.97 10.71 8.36
8/25/2021 11:15:00 AM 22.4 72.32 0.294 7.98 10.61 8.37
8/25/2021 11:30:00 AM 22.48 72.464 0.458 8 10.27 8.38
8/25/2021 11:45:00 AM 22.49 72.482 0.307 8.01 10.28 8.39
8/25/2021 12:00:00 PM 22.52 72.536 0.272 7.97 9.83 8.39
8/25/2021 12:15:00 PM 22.63 72.734 0.275 8.03 9.44 8.38
8/25/2021 12:30:00 PM 22.68 72.824 0.277 8.01 9.45 8.38
8/25/2021 12:45:00 PM 22.67 72.806 0.316 8.02 9.19 8.38
8/25/2021 1:00:00 PM 22.66 72.788 0.306 8.03 9.17 8.4
8/25/2021 1:15:00 PM 22.74 72.932 0.315 8.02 9.14 8.4
8/25/2021 1:30:00 PM 22.77 72.986 0.311 8.03 8.8 8.4
8/25/2021 1:45:00 PM 22.82 73.076 0.305 8.04 8.52 8.4
8/25/2021 2:00:00 PM 22.84 73.112 0.296 8.03 8.34 8.4
8/25/2021 2:15:00 PM 22.94 73.292 0.267 8.06 8.16 8.41
8/25/2021 2:30:00 PM 22.95 73.31 0.284 8.04 7.88 8.41
8/25/2021 2:45:00 PM 22.94 73.292 0.31 8.04 7.67 8.42
8/25/2021 3:00:00 PM 22.99 73.382 0.294 8.04 7.54 8.42
8/25/2021 3:15:00 PM 23.13 73.634 0.298 8.03 7.46 8.41
8/25/2021 3:30:00 PM 23.21 73.778 0.26 8.06 7.3 8.4
8/25/2021 3:45:00 PM 23.39 74.102 0.268 8.07 9 8.39
8/25/2021 4:00:00 PM 23.47 74.246 0.261 8.07 7.06 8.38
8/25/2021 4:15:00 PM 23.52 74.336 0.306 8.08 6.76 8.36
8/25/2021 4:30:00 PM 23.56 74.408 0.476 8.09 8.31 8.37
8/25/2021 4:45:00 PM 23.58 74.444 0.295 8.07 7.68 8.36
8/25/2021 5:00:00 PM 23.61 74.498 0.265 8.08 6.34 8.35
8/25/2021 5:15:00 PM 23.62 74.516 0.265 8.07 6.55 8.35
8/25/2021 5:30:00 PM 23.63 74.534 0.255 8.11 6.9 8.32
8/25/2021 5:45:00 PM 23.62 74.516 0.268 8.1 7.13 8.3
8/25/2021 6:00:00 PM 23.61 74.498 0.275 8.1 7.14 8.3
8/25/2021 6:15:00 PM 23.61 74.498 0.277 8.08 7.16 8.28
8/25/2021 6:30:00 PM 23.58 74.444 0.48 8.1 7.25 8.27
8/25/2021 6:45:00 PM 23.52 74.336 0.479 8.07 6.19 8.25
8/25/2021 7:00:00 PM 23.49 74.282 0.481 8.1 6.17 8.25
8/25/2021 7:15:00 PM 23.46 74.228 0.297 8.07 6.4 8.23
8/25/2021 7:30:00 PM 23.43 74.174 0.3 8.06 6.4 8.23
8/25/2021 7:45:00 PM 23.4 74.12 0.272 8.07 7.64 8.21
8/25/2021 8:00:00 PM 23.38 74.084 0.266 8.08 6.32 8.19
8/25/2021 8:15:00 PM 23.36 74.048 0.256 8.06 5.66 8.2
8/25/2021 8:30:00 PM 23.34 74.012 0.262 8.06 6.53 8.18
8/25/2021 8:45:00 PM 23.34 74.012 0.293 8.07 5.68 8.18
8/25/2021 9:00:00 PM 23.35 74.03 0.297 8.09 5.94 8.17
8/25/2021 9:15:00 PM 23.36 74.048 0.266 8.07 5.95 8.17
8/25/2021 9:30:00 PM 23.36 74.048 0.279 8.09 7.68 8.16
8/25/2021 9:45:00 PM 23.38 74.084 0.301 8.07 6.09 8.16
8/25/2021 10:00:00 PM 23.39 74.102 0.275 8.06 5.63 8.15
8/25/2021 10:15:00 PM 23.4 74.12 0.28 8.07 5.85 8.15
8/25/2021 10:30:00 PM 23.41 74.138 0.277 8.06 5.59 8.14
8/25/2021 10:45:00 PM 23.41 74.138 0.277 8.07 5.78 8.13
8/25/2021 11:00:00 PM 23.42 74.156 0.28 8.09 5.84 8.12
8/25/2021 11:15:00 PM 23.42 74.156 0.303 8.07 6.71 8.11
8/25/2021 11:30:00 PM 23.43 74.174 0.283 8.08 6.46 8.11
8/25/2021 11:45:00 PM 23.43 74.174 0.276 8.06 6.81 8.1
8/26/2021 12:00:00 AM 23.43 74.174 0.279 8.09 6.15 8.09
8/26/2021 12:15:00 AM 23.43 74.174 0.278 8.07 7.74 8.09
8/26/2021 12:30:00 AM 23.42 74.156 0.315 8.08 6.4 8.08
8/26/2021 12:45:00 AM 23.42 74.156 0.26 8.08 6.82 8.06
8/26/2021 1:00:00 AM 23.41 74.138 0.247 8.08 7.69 8.06
8/26/2021 1:15:00 AM 23.4 74.12 0.49 8.08 6.7 8.05
8/26/2021 1:30:00 AM 23.38 74.084 0.49 8.06 6.33 8.05
8/26/2021 1:45:00 AM 23.37 74.066 0.491 8.07 6.52 8.05
8/26/2021 2:00:00 AM 23.35 74.03 0.251 8.07 6.57 8.04
8/26/2021 2:15:00 AM 23.33 73.994 0.253 8.06 6.8 8.02
8/26/2021 2:30:00 AM 23.31 73.958 0.25 8.06 7.12 8.02
8/26/2021 2:45:00 AM 23.3 73.94 0.491 8.05 7.7 8.02
8/26/2021 3:00:00 AM 23.28 73.904 0.275 8.07 7.07 8.02
8/26/2021 3:15:00 AM 23.25 73.85 0.492 8.06 7.14 8.01
8/26/2021 3:30:00 AM 23.23 73.814 0.492 8.05 6.84 8
8/26/2021 3:45:00 AM 23.21 73.778 0.269 8.06 7.14 8.01
8/26/2021 4:00:00 AM 23.19 73.742 0.275 8.05 6.96 8.01
8/26/2021 4:15:00 AM 23.16 73.688 0.495 8.05 7.08 7.99
8/26/2021 4:30:00 AM 23.14 73.652 0.268 8.04 7.58 7.99
8/26/2021 4:45:00 AM 23.11 73.598 0.28 8.04 7.05 7.99
8/26/2021 5:00:00 AM 23.09 73.562 0.28 8.06 7.13 7.98
8/26/2021 5:15:00 AM 23.07 73.526 0.285 8.04 7.05 7.98
8/26/2021 5:30:00 AM 23.04 73.472 0.276 8.03 8.07 7.98
8/26/2021 5:45:00 AM 23.01 73.418 0.284 8.04 7.27 7.97
8/26/2021 6:00:00 AM 22.98 73.364 0.292 8.05 8.13 7.97
8/26/2021 6:15:00 AM 22.95 73.31 0.284 8.03 8.43 7.97
8/26/2021 6:30:00 AM 22.92 73.256 0.315 8.03 9.25 7.97
8/26/2021 6:45:00 AM 22.89 73.202 0.27 8.02 7.99 7.96
8/26/2021 7:00:00 AM 22.86 73.148 0.261 8.02 7.56 7.98
8/26/2021 7:15:00 AM 22.83 73.094 0.262 8.03 7.56 7.99
8/26/2021 7:30:00 AM 22.8 73.04 0.259 8.02 7.1 8
8/26/2021 7:45:00 AM 22.78 73.004 0.277 8.03 7.19 8.01
8/26/2021 8:00:00 AM 22.76 72.968 0.246 8.02 7.28 8.02
8/26/2021 8:15:00 AM 22.75 72.95 0.284 8.04 7.19 8.03
8/26/2021 8:30:00 AM 22.73 72.914 0.26 8.05 7.97 8.06
8/26/2021 8:45:00 AM 22.71 72.878 0.252 8.05 7.41 8.09
8/26/2021 9:00:00 AM 22.71 72.878 0.288 8.03 7.97 8.12
8/26/2021 9:15:00 AM 22.72 72.896 0.315 8.05 7.57 8.16
8/26/2021 9:30:00 AM 22.74 72.932 0.251 8.05 7.25 8.19
8/26/2021 9:45:00 AM 22.76 72.968 0.507 8.06 6.94 8.22
8/26/2021 10:00:00 AM 22.77 72.986 0.319 8.05 7.22 8.25
8/26/2021 10:15:00 AM 22.83 73.094 0.269 8.06 6.89 8.29
8/26/2021 10:30:00 AM 22.87 73.166 0.274 8.07 7.14 8.32
8/26/2021 10:45:00 AM 22.91 73.238 0.314 8.05 7.21 8.34
8/26/2021 11:00:00 AM 22.96 73.328 0.27 8.07 6.96 8.36
8/26/2021 11:15:00 AM 22.96 73.328 0.25 8.07 7.05 8.37
8/26/2021 11:30:00 AM 22.97 73.346 0.287 8.06 7.13 8.39
8/26/2021 11:45:00 AM 23 73.4 0.299 8.09 7.06 8.41
8/26/2021 12:00:00 PM 23.02 73.436 0.512 8.08 6.83 8.4
8/26/2021 12:15:00 PM 23.02 73.436 0.293 8.1 6.45 8.41
8/26/2021 12:30:00 PM 23.09 73.562 0.305 8.07 6.28 8.41
8/26/2021 12:45:00 PM 23.18 73.724 0.306 8.08 8.57 8.4
8/26/2021 1:00:00 PM 23.16 73.688 0.304 8.1 7.3 8.41
8/26/2021 1:15:00 PM 23.17 73.706 0.298 8.11 7.21 8.42
8/26/2021 1:30:00 PM 23.16 73.688 0.302 8.1 6.37 8.41
8/26/2021 1:45:00 PM 23.16 73.688 0.253 8.08 6.77 8.42
8/26/2021 2:00:00 PM 23.17 73.706 0.303 8.07 7.21 8.41
8/26/2021 2:15:00 PM 23.22 73.796 0.519 8.09 6.5 8.42
8/26/2021 2:30:00 PM 23.21 73.778 0.31 8.11 6.36 8.42
8/26/2021 2:45:00 PM 23.21 73.778 0.291 8.1 6.1 8.42
8/26/2021 3:00:00 PM 23.28 73.904 0.263 8.1 6.13 8.42
8/26/2021 3:15:00 PM 23.39 74.102 0.264 8.1 5.55 8.42
8/26/2021 3:30:00 PM 23.42 74.156 0.288 8.1 5.21 8.41
8/26/2021 3:45:00 PM 23.48 74.264 0.279 8.11 5.26 8.41
8/26/2021 4:00:00 PM 23.61 74.498 0.256 8.1 5.58 8.38
8/26/2021 4:15:00 PM 23.72 74.696 0.298 8.12 5.6 8.37
8/26/2021 4:30:00 PM 23.85 74.93 0.311 8.11 5.37 8.34
8/26/2021 4:45:00 PM 23.96 75.128 0.302 8.11 5.04 8.35
8/26/2021 5:00:00 PM 23.95 75.11 0.306 8.13 5 8.34
8/26/2021 5:15:00 PM 23.97 75.146 0.307 8.12 4.83 8.33
8/26/2021 5:30:00 PM 23.99 75.182 0.309 8.14 4.85 8.31
8/26/2021 5:45:00 PM 24.01 75.218 0.307 8.13 5.36 8.28
8/26/2021 6:00:00 PM 23.96 75.128 0.3 8.14 4.88 8.26
8/26/2021 6:15:00 PM 23.91 75.038 0.257 8.12 4.8 8.26
8/26/2021 6:30:00 PM 23.88 74.984 0.294 8.12 4.63 8.24
8/26/2021 6:45:00 PM 23.84 74.912 0.302 8.12 5.7 8.24
8/26/2021 7:00:00 PM 23.8 74.84 0.31 8.11 4.15 8.23
8/26/2021 7:15:00 PM 23.73 74.714 0.292 8.13 5.26 8.22
8/26/2021 7:30:00 PM 23.67 74.606 0.519 8.1 4.94 8.21
8/26/2021 7:45:00 PM 23.62 74.516 0.288 8.11 3.98 8.2
8/26/2021 8:00:00 PM 23.58 74.444 0.259 8.13 4.34 8.18
8/26/2021 8:15:00 PM 23.54 74.372 0.282 8.1 4.3 8.19
8/26/2021 8:30:00 PM 23.52 74.336 0.275 8.11 4.49 8.19
8/26/2021 8:45:00 PM 23.49 74.282 0.521 8.11 4.49 8.16
8/26/2021 9:00:00 PM 23.46 74.228 0.301 8.11 4.48 8.19
8/26/2021 9:15:00 PM 23.45 74.21 0.269 8.12 4.32 8.18
8/26/2021 9:30:00 PM 23.46 74.228 0.289 8.11 4.89 8.17
8/26/2021 9:45:00 PM 23.46 74.228 0.524 8.11 4.24 8.15
8/26/2021 10:00:00 PM 23.48 74.264 0.281 8.12 4.57 8.15
8/26/2021 10:15:00 PM 23.49 74.282 0.308 8.09 4.59 8.15
8/26/2021 10:30:00 PM 23.51 74.318 0.282 8.12 5.37 8.14
8/26/2021 10:45:00 PM 23.53 74.354 0.26 8.11 5.3 8.12
8/26/2021 11:00:00 PM 23.55 74.39 0.293 8.1 5.15 8.12
8/26/2021 11:15:00 PM 23.57 74.426 0.31 8.11 5.16 8.11
8/26/2021 11:30:00 PM 23.59 74.462 0.255 8.1 5.43 8.1
8/26/2021 11:45:00 PM 23.6 74.48 0.294 8.11 5.84 8.1
8/27/2021 12:00:00 AM 23.62 74.516 0.533 8.11 5.01 8.09
8/27/2021 12:15:00 AM 23.63 74.534 0.299 8.12 6.69 8.08
8/27/2021 12:30:00 AM 23.64 74.552 0.297 8.1 5.56 8.06
8/27/2021 12:45:00 AM 23.66 74.588 0.292 8.11 5.54 8.06
8/27/2021 1:00:00 AM 23.67 74.606 0.293 8.12 10.19 8.05
8/27/2021 1:15:00 AM 23.67 74.606 0.307 8.12 5.9 8.04
8/27/2021 1:30:00 AM 23.67 74.606 0.538 8.1 5.32 8.02
8/27/2021 1:45:00 AM 23.68 74.624 0.254 8.11 5.56 8.03
8/27/2021 2:00:00 AM 23.67 74.606 0.294 8.1 6.47 8
8/27/2021 2:15:00 AM 23.67 74.606 0.303 8.1 6.43 8
8/27/2021 2:30:00 AM 23.67 74.606 0.267 8.09 5.73 7.97
8/27/2021 2:45:00 AM 23.66 74.588 0.312 8.09 5.97 7.97
8/27/2021 3:00:00 AM 23.66 74.588 0.296 8.1 6.59 7.96
8/27/2021 3:15:00 AM 23.65 74.57 0.54 8.09 6.01 7.93
8/27/2021 3:30:00 AM 23.64 74.552 0.263 8.09 6.42 7.95
8/27/2021 3:45:00 AM 23.63 74.534 0.298 8.09 5.52 7.93
8/27/2021 4:00:00 AM 23.62 74.516 0.249 8.08 5.83 7.93
8/27/2021 4:15:00 AM 23.6 74.48 0.271 8.07 5.53 7.92
8/27/2021 4:30:00 AM 23.59 74.462 0.257 8.09 5.58 7.92
8/27/2021 4:45:00 AM 23.58 74.444 0.261 8.07 5.53 7.92
8/27/2021 5:00:00 AM 23.56 74.408 0.545 8.07 6.03 7.9
8/27/2021 5:15:00 AM 23.55 74.39 0.277 8.08 6.2 7.9
8/27/2021 5:30:00 AM 23.53 74.354 0.276 8.08 6.06 7.89
8/27/2021 5:45:00 AM 23.52 74.336 0.259 8.06 6.01 7.88
8/27/2021 6:00:00 AM 23.5 74.3 0.306 8.06 5.83 7.88
8/27/2021 6:15:00 AM 23.48 74.264 0.306 8.06 6.09 7.87
8/27/2021 6:30:00 AM 23.46 74.228 0.548 8.07 6.51 7.85
8/27/2021 6:45:00 AM 23.44 74.192 0.274 8.07 6.07 7.87
8/27/2021 7:00:00 AM 23.43 74.174 0.286 8.07 6.07 7.88
8/27/2021 7:15:00 AM 23.42 74.156 0.253 8.04 6.34 7.89
8/27/2021 7:30:00 AM 23.41 74.138 0.296 8.07 6.48 7.89
8/27/2021 7:45:00 AM 23.4 74.12 0.266 8.06 6.04 7.9
8/27/2021 8:00:00 AM 23.39 74.102 0.266 8.04 6.21 7.9
8/27/2021 8:15:00 AM 23.37 74.066 0.276 8.02 6.25 7.9
8/27/2021 8:30:00 AM 23.36 74.048 0.278 8.08 6.3 7.92
8/27/2021 8:45:00 AM 23.38 74.084 0.28 8.07 6.05 8.05
8/27/2021 9:00:00 AM 23.38 74.084 0.549 8.07 6.31 8.04
8/27/2021 9:15:00 AM 23.37 74.066 0.311 8.08 6.08 8.02
8/27/2021 9:30:00 AM 23.36 74.048 0.549 8.09 5.84 8.02
8/27/2021 9:45:00 AM 23.35 74.03 0.274 8.07 6.37 8.02
8/27/2021 10:00:00 AM 23.33 73.994 0.289 8.08 6.03 8
8/27/2021 10:15:00 AM 23.33 73.994 0.301 8.07 6.79 8.04
8/27/2021 10:30:00 AM 23.32 73.976 0.305 8.08 6.19 8.04
8/27/2021 10:45:00 AM 23.32 73.976 0.272 8.07 6.21 8.05
8/27/2021 11:00:00 AM 23.35 74.03 0.277 8.09 6.34 8.15
8/27/2021 11:15:00 AM 23.38 74.084 0.278 8.07 6.54 8.19
8/27/2021 11:30:00 AM 23.39 74.102 0.275 8.1 5.92 8.19
8/27/2021 11:45:00 AM 23.39 74.102 0.3 8.08 6.13 8.18
8/27/2021 12:00:00 PM 23.41 74.138 0.295 8.1 6.01 8.26
8/27/2021 12:15:00 PM 23.51 74.318 0.313 8.11 5.95 8.34
8/27/2021 12:30:00 PM 23.6 74.48 0.274 8.11 5.92 8.36
8/27/2021 12:45:00 PM 23.66 74.588 0.282 8.12 5.73 8.39
8/27/2021 1:00:00 PM 23.7 74.66 0.305 8.11 5.78 8.38
8/27/2021 1:15:00 PM 23.74 74.732 0.258 8.11 5.74 8.39
8/27/2021 1:30:00 PM 23.75 74.75 0.287 8.12 5.69 8.38
8/27/2021 1:45:00 PM 23.68 74.624 0.283 8.11 5.9 8.25
8/27/2021 2:00:00 PM 23.69 74.642 0.256 8.1 5.93 8.32
8/27/2021 2:15:00 PM 23.76 74.768 0.264 8.12 5.85 8.36
8/27/2021 2:30:00 PM 23.86 74.948 0.272 8.08 5.66 8.36
8/27/2021 2:45:00 PM 24 75.2 0.263 8.11 5.46 8.37
8/27/2021 3:00:00 PM 24.1 75.38 0.289 8.12 5.25 8.33
8/27/2021 3:15:00 PM 24.08 75.344 0.264 8.11 4.89 8.26
8/27/2021 3:30:00 PM 24.03 75.254 0.261 8.13 5.55 8.28
8/27/2021 3:45:00 PM 24.03 75.254 0.28 8.13 4.65 8.2
8/27/2021 4:00:00 PM 24.03 75.254 0.265 8.1 4.92 8.07
8/27/2021 4:15:00 PM 24.02 75.236 0.256 8.12 4.9 8.11
8/27/2021 4:30:00 PM 24.09 75.362 0.553 8.12 4.31 8.26
8/27/2021 4:45:00 PM 24.07 75.326 0.267 8.1 4.93 8.21
8/27/2021 5:00:00 PM 24.02 75.236 0.288 8.12 4.32 8.16
8/27/2021 5:15:00 PM 23.91 75.038 0.271 8.09 4.34 8.16
8/27/2021 5:30:00 PM 23.83 74.894 0.278 8.1 4.19 8.16
8/27/2021 5:45:00 PM 23.79 74.82201 0.268 8.1 4.41 8.17
8/27/2021 6:00:00 PM 23.77 74.786 0.256 8.12 4.24 8.22
8/27/2021 6:15:00 PM 23.74 74.732 0.284 8.12 4.14 8.21
8/27/2021 6:30:00 PM 23.67 74.606 0.252 8.12 4.49 8.17
8/27/2021 6:45:00 PM 23.57 74.426 0.555 8.11 3.95 8.14
8/27/2021 7:00:00 PM 23.5 74.3 0.306 8.11 3.96 8.14
8/27/2021 7:15:00 PM 23.44 74.192 0.291 8.1 3.92 8.14
8/27/2021 7:30:00 PM 23.43 74.174 0.277 8.1 3.98 8.14
8/27/2021 7:45:00 PM 23.41 74.138 0.263 8.11 3.83 8.12
8/27/2021 8:00:00 PM 23.38 74.084 0.25 8.12 4.04 8.13
8/27/2021 8:15:00 PM 23.35 74.03 0.286 8.11 4.44 8.13
8/27/2021 8:30:00 PM 23.33 73.994 0.287 8.11 4.17 8.13
8/27/2021 8:45:00 PM 23.32 73.976 0.316 8.11 4.14 8.14
8/27/2021 9:00:00 PM 23.31 73.958 0.25 8.12 4.26 8.14
8/27/2021 9:15:00 PM 23.3 73.94 0.307 8.13 4.34 8.15
8/27/2021 9:30:00 PM 23.29 73.922 0.291 8.12 8.24 8.15
8/27/2021 9:45:00 PM 23.28 73.904 0.257 8.1 4.11 8.17
8/27/2021 10:00:00 PM 23.27 73.886 0.28 8.1 3.82 8.17
8/27/2021 10:15:00 PM 23.26 73.868 0.305 8.11 5.02 8.17
8/27/2021 10:30:00 PM 23.26 73.868 0.557 8.12 4.2 8.17
8/27/2021 10:45:00 PM 23.27 73.886 0.31 8.08 6.04 8.17
8/27/2021 11:00:00 PM 23.29 73.922 0.291 8.13 4.28 8.17
8/27/2021 11:15:00 PM 23.3 73.94 0.313 8.1 4.25 8.16
8/27/2021 11:30:00 PM 23.33 73.994 0.286 8.13 4.5 8.16
8/27/2021 11:45:00 PM 23.34 74.012 0.263 8.13 4.06 8.15
8/28/2021 12:00:00 AM 23.37 74.066 0.271 8.11 3.85 8.17
8/28/2021 12:15:00 AM 23.39 74.102 0.307 8.12 4.04 8.15
8/28/2021 12:30:00 AM 23.39 74.102 0.252 8.14 4.21 8.16
8/28/2021 12:45:00 AM 23.4 74.12 0.247 8.15 4.96 8.15
8/28/2021 1:00:00 AM 23.41 74.138 0.262 8.13 4.54 8.13
8/28/2021 1:15:00 AM 23.43 74.174 0.301 8.14 4.42 8.12
8/28/2021 1:30:00 AM 23.44 74.192 0.555 8.14 4.42 8.12
8/28/2021 1:45:00 AM 23.45 74.21 0.264 8.13 4.93 8.1
8/28/2021 2:00:00 AM 23.46 74.228 0.264 8.13 4.94 8.1
8/28/2021 2:15:00 AM 23.45 74.21 0.557 8.1 4.82 8.09
8/28/2021 2:30:00 AM 23.44 74.192 0.285 8.12 4.75 8.09
8/28/2021 2:45:00 AM 23.43 74.174 0.304 8.13 5.01 8.07
8/28/2021 3:00:00 AM 23.42 74.156 0.557 8.11 4.68 8.05
8/28/2021 3:15:00 AM 23.41 74.138 0.271 8.13 5.57 8.06
8/28/2021 3:30:00 AM 23.4 74.12 0.311 8.13 4.85 8.05
8/28/2021 3:45:00 AM 23.38 74.084 0.306 8.12 5.32 8.05
8/28/2021 4:00:00 AM 23.36 74.048 0.308 8.12 6.74 8.06
8/28/2021 4:15:00 AM 23.34 74.012 0.31 8.12 7.11 8.05
8/28/2021 4:30:00 AM 23.31 73.958 0.261 8.12 5.7 8.04
8/28/2021 4:45:00 AM 23.29 73.922 0.307 8.12 5.78 8.03
8/28/2021 5:00:00 AM 23.26 73.868 0.255 8.12 6.29 8.01
8/28/2021 5:15:00 AM 23.23 73.814 0.306 8.11 5.99 7.99
8/28/2021 5:30:00 AM 23.21 73.778 0.302 8.12 6.24 7.98
8/28/2021 5:45:00 AM 23.18 73.724 0.29 8.12 7.05 7.97
8/28/2021 6:00:00 AM 23.16 73.688 0.306 8.12 6.51 7.97
8/28/2021 6:15:00 AM 23.13 73.634 0.301 8.11 6.11 7.96
8/28/2021 6:30:00 AM 23.1 73.58 0.3 8.11 5.97 7.96
8/28/2021 6:45:00 AM 23.07 73.526 0.269 8.09 6.13 7.95
8/28/2021 7:00:00 AM 23.05 73.49 0.31 8.1 6.23 7.96
8/28/2021 7:15:00 AM 23.03 73.454 0.567 8.1 6.1 7.97
8/28/2021 7:30:00 AM 23.01 73.418 0.3 8.11 6.14 7.99
8/28/2021 7:45:00 AM 22.98 73.364 0.3 8.09 7.5 8.03
8/28/2021 8:00:00 AM 22.93 73.274 0.257 8.07 9.3 8.07
8/28/2021 8:15:00 AM 22.87 73.166 0.31 8.05 10.17 8.12
8/28/2021 8:30:00 AM 22.8 73.04 0.315 8.02 12.57 8.17
8/28/2021 8:45:00 AM 22.6 72.68 0.307 7.96 17.22 8.2
8/28/2021 9:00:00 AM 22.46 72.42799 0.499 7.97 24.03 8.26
8/28/2021 9:15:00 AM 22.56 72.608 0.291 7.99 46.72 8.37
8/28/2021 9:30:00 AM 22.91 73.238 0.257 8.02 84.26 8.39
8/28/2021 9:45:00 AM 23.29 73.922 0.276 8.02 126.47 8.31
8/28/2021 10:00:00 AM 23.43 74.174 0.516 7.98 170.87 8.19
8/28/2021 10:15:00 AM 23.47 74.246 0.268 7.91 215.01 8.09
8/28/2021 10:30:00 AM 23.51 74.318 0.28 7.82 245.58 7.99
8/28/2021 10:45:00 AM 23.51 74.318 0.238 7.69 295.15 7.91
8/28/2021 11:00:00 AM 23.48 74.264 0.221 7.7 333.24 7.91
8/28/2021 11:15:00 AM 23.42 74.156 0.195 7.68 372.84 7.87
8/28/2021 11:30:00 AM 23.38 74.084 0.172 7.63 408.47 7.94
8/28/2021 11:45:00 AM 23.35 74.03 0.165 7.62 338.64 7.96
8/28/2021 12:00:00 PM 23.32 73.976 0.147 7.54 343.52 7.97
8/28/2021 12:15:00 PM 23.31 73.958 0.176 7.6 318.82 7.97
8/28/2021 12:30:00 PM 23.31 73.958 0.17 7.6 308.72 7.98
8/28/2021 12:45:00 PM 23.31 73.958 0.176 7.58 303.54 7.98
8/28/2021 1:00:00 PM 23.3 73.94 0.155 7.54 296.2 7.99
8/28/2021 1:15:00 PM 23.3 73.94 0.194 7.6 293.37 7.99
8/28/2021 1:30:00 PM 23.29 73.922 0.156 7.49 282.67 8
8/28/2021 1:45:00 PM 23.29 73.922 0.164 7.54 272 8.01
8/28/2021 2:00:00 PM 23.27 73.886 0.161 7.49 275.79 8
8/28/2021 2:15:00 PM 23.27 73.886 0.189 7.53 265.12 8
8/28/2021 2:30:00 PM 23.26 73.868 0.156 7.47 262.21 8.01
8/28/2021 2:45:00 PM 23.24 73.832 0.163 7.54 256.33 8.02
8/28/2021 3:00:00 PM 23.23 73.814 0.161 7.48 245.72 8.02
8/28/2021 3:15:00 PM 23.23 73.814 0.164 7.5 240.05 8.03
8/28/2021 3:30:00 PM 23.23 73.814 0.155 7.41 231.64 8.04
8/28/2021 3:45:00 PM 23.22 73.796 0.152 7.52 228.1 8.05
8/28/2021 4:00:00 PM 23.22 73.796 0.157 7.43 220.81 8.06
8/28/2021 4:15:00 PM 23.22 73.796 0.158 7.33 218.15 8.07
8/28/2021 4:30:00 PM 23.22 73.796 0.154 7.36 193.2 8.08
8/28/2021 4:45:00 PM 23.21 73.778 0.155 7.38 197.37 8.1
8/28/2021 5:00:00 PM 23.21 73.778 0.152 7.53 187.65 8.12
8/28/2021 5:15:00 PM 23.2 73.76 0.156 7.52 172.3 8.13
8/28/2021 5:30:00 PM 23.19 73.742 0.153 7.44 168.43 8.16
8/28/2021 5:45:00 PM 23.18 73.724 0.159 7.49 163.1 8.18
8/28/2021 6:00:00 PM 23.18 73.724 0.14 7.48 148.12 8.2
8/28/2021 6:15:00 PM 23.17 73.706 0.185 7.51 138.85 8.21
8/28/2021 6:30:00 PM 23.17 73.706 0.156 7.49 127.73 8.22
8/28/2021 6:45:00 PM 23.17 73.706 0.159 7.52 122.2 8.24
8/28/2021 7:00:00 PM 23.17 73.706 0.183 7.45 114.8 8.25
8/28/2021 7:15:00 PM 23.17 73.706 0.155 7.49 113.27 8.26
8/28/2021 7:30:00 PM 23.16 73.688 0.155 7.5 95.9 8.27
8/28/2021 7:45:00 PM 23.15 73.67 0.186 7.46 85.58 8.28
8/28/2021 8:00:00 PM 23.14 73.652 0.15 7.53 75.71 8.28
8/28/2021 8:15:00 PM 23.12 73.616 0.16 7.51 75.9 8.29
8/28/2021 8:30:00 PM 23.1 73.58 0.163 7.61 71.69 8.29
8/28/2021 8:45:00 PM 23.08 73.544 0.171 7.56 65.66 8.29
8/28/2021 9:00:00 PM 23.06 73.508 0.172 7.59 60.53 8.28
8/28/2021 9:15:00 PM 23.04 73.472 0.165 7.52 58.08 8.28
8/28/2021 9:30:00 PM 23.01 73.418 0.15 7.56 55.14 8.28
8/28/2021 9:45:00 PM 22.98 73.364 0.174 7.61 53.59 8.27
8/28/2021 10:00:00 PM 22.95 73.31 0.178 7.6 50.47 8.27
8/28/2021 10:15:00 PM 22.93 73.274 0.177 7.62 47.93 8.26
8/28/2021 10:30:00 PM 22.9 73.22 0.179 7.66 40.8 8.26
8/28/2021 10:45:00 PM 22.87 73.166 0.182 7.63 44.28 8.26
8/28/2021 11:00:00 PM 22.83 73.094 0.162 7.59 43.4 8.26
8/28/2021 11:15:00 PM 22.81 73.058 0.182 7.6 42.54 8.26
8/28/2021 11:30:00 PM 22.78 73.004 0.188 7.64 40.37 8.26
8/28/2021 11:45:00 PM 22.75 72.95 0.189 7.65 40.07 8.26
8/29/2021 12:00:00 AM 22.72 72.896 0.19 7.65 39.29 8.26
8/29/2021 12:15:00 AM 22.69 72.842 0.187 7.69 37.1 8.26
8/29/2021 12:30:00 AM 22.66 72.788 0.189 7.7 36.23 8.26
8/29/2021 12:45:00 AM 22.63 72.734 0.196 7.63 35 8.26
8/29/2021 1:00:00 AM 22.6 72.68 0.194 7.65 35.68 8.27
8/29/2021 1:15:00 AM 22.57 72.626 0.205 7.69 34.31 8.27
8/29/2021 1:30:00 AM 22.54 72.57201 0.198 7.73 33.14 8.27
8/29/2021 1:45:00 AM 22.51 72.518 0.191 7.69 31.95 8.27
8/29/2021 2:00:00 AM 22.48 72.464 0.244 7.74 31.24 8.26
8/29/2021 2:15:00 AM 22.45 72.41 0.217 7.74 30.8 8.26
8/29/2021 2:30:00 AM 22.42 72.356 0.212 7.75 29.75 8.27
8/29/2021 2:45:00 AM 22.38 72.284 0.213 7.71 30.49 8.28
8/29/2021 3:00:00 AM 22.35 72.23 0.25 7.76 29.77 8.27
8/29/2021 3:15:00 AM 22.32 72.176 0.252 7.66 26.98 8.28
8/29/2021 3:30:00 AM 22.29 72.122 0.218 7.73 27.07 8.28
8/29/2021 3:45:00 AM 22.25 72.05 0.222 7.76 27.02 8.29
8/29/2021 4:00:00 AM 22.22 71.996 0.184 7.78 27.2 8.29
8/29/2021 4:15:00 AM 22.19 71.942 0.224 7.75 25.97 8.29
8/29/2021 4:30:00 AM 22.16 71.888 0.219 7.81 24.7 8.29
8/29/2021 4:45:00 AM 22.12 71.816 0.232 7.79 29.47 8.3
8/29/2021 5:00:00 AM 22.09 71.762 0.208 7.75 25.22 8.3
8/29/2021 5:15:00 AM 22.06 71.708 0.274 7.85 32.52 8.31
8/29/2021 5:30:00 AM 22.03 71.654 0.227 7.81 29.93 8.31
8/29/2021 5:45:00 AM 21.99 71.582 0.241 7.8 30.72 8.32
8/29/2021 6:00:00 AM 21.96 71.528 0.244 7.8 51.16 8.33
8/29/2021 6:15:00 AM 21.93 71.474 0.227 7.82 22.42 8.33
8/29/2021 6:30:00 AM 21.89 71.402 0.247 7.82 21.46 8.33
8/29/2021 6:45:00 AM 21.86 71.348 0.247 7.82 36.08 8.34
8/29/2021 7:00:00 AM 21.83 71.294 0.291 7.87 36.45 8.34
8/29/2021 7:15:00 AM 21.8 71.24 0.259 7.82 20.94 8.35
8/29/2021 7:30:00 AM 21.77 71.186 0.23 7.81 20.91 8.35
8/29/2021 7:45:00 AM 21.74 71.132 0.21 7.83 20.39 8.36
8/29/2021 8:00:00 AM 21.72 71.096 0.255 7.83 20.7 8.36
8/29/2021 8:15:00 AM 21.69 71.042 0.236 7.84 20.19 8.37
8/29/2021 8:30:00 AM 21.67 71.006 0.257 7.83 20.02 8.35
8/29/2021 8:45:00 AM 21.64 70.952 0.242 7.84 19.03 8.38
8/29/2021 9:00:00 AM 21.63 70.934 0.25 7.79 19.54 8.39
8/29/2021 9:15:00 AM 21.61 70.898 0.262 7.82 18.85 8.39
8/29/2021 9:30:00 AM 21.6 70.88 0.25 7.81 18.21 8.41
8/29/2021 9:45:00 AM 21.58 70.844 0.244 7.87 17.85 8.41
8/29/2021 10:00:00 AM 21.57 70.826 0.202 7.87 18.35 8.41
8/29/2021 10:15:00 AM 21.57 70.826 0.309 7.9 17.63 8.42
8/29/2021 10:30:00 AM 21.58 70.844 0.249 7.88 17.03 8.45
8/29/2021 10:45:00 AM 21.57 70.826 0.248 7.88 16.2 8.43
8/29/2021 11:00:00 AM 21.58 70.844 0.314 7.93 16.24 8.45
8/29/2021 11:15:00 AM 21.58 70.844 0.256 7.89 16.51 8.46
8/29/2021 11:30:00 AM 21.59 70.862 0.319 7.89 16.26 8.45
8/29/2021 11:45:00 AM 21.63 70.934 0.276 7.89 15.62 8.48
8/29/2021 12:00:00 PM 21.65 70.97 0.283 7.9 15.38 8.48
8/29/2021 12:15:00 PM 21.67 71.006 0.236 7.9 15.14 8.48
8/29/2021 12:30:00 PM 21.76 71.168 0.264 7.91 13.66 8.51
8/29/2021 12:45:00 PM 21.77 71.186 0.231 7.9 14.61 8.49
8/29/2021 1:00:00 PM 21.76 71.168 0.252 7.88 14.48 8.48
8/29/2021 1:15:00 PM 21.8 71.24 0.245 7.85 14.12 8.48
8/29/2021 1:30:00 PM 21.84 71.312 0.261 7.92 14.23 8.49
8/29/2021 1:45:00 PM 21.84 71.312 0.242 7.93 13.55 8.45
8/29/2021 2:00:00 PM 21.87 71.366 0.28 7.92 14.29 8.46
8/29/2021 2:15:00 PM 21.88 71.384 0.261 7.93 13.49 8.45
8/29/2021 2:30:00 PM 21.9 71.42 0.284 7.91 13.43 8.44
8/29/2021 2:45:00 PM 21.92 71.456 0.267 7.96 13.04 8.44
8/29/2021 3:00:00 PM 21.98 71.564 0.279 7.95 13.11 8.47
8/29/2021 3:15:00 PM 22.06 71.708 0.268 7.95 12.86 8.48
8/29/2021 3:30:00 PM 22.09 71.762 0.269 7.94 12.59 8.47
8/29/2021 3:45:00 PM 22.06 71.708 0.215 7.89 12.36 8.42
8/29/2021 4:00:00 PM 22.03 71.654 0.218 7.9 12.22 8.43
8/29/2021 4:15:00 PM 22.05 71.69 0.265 7.94 12.05 8.43
8/29/2021 4:30:00 PM 22.08 71.744 0.229 7.88 11.94 8.43
8/29/2021 4:45:00 PM 22.12 71.816 0.27 7.93 11.82 8.43
8/29/2021 5:00:00 PM 22.15 71.87 0.229 7.96 11.34 8.43
8/29/2021 5:15:00 PM 22.17 71.906 0.243 7.97 11.69 8.42
8/29/2021 5:30:00 PM 22.17 71.906 0.291 7.97 11.17 8.42
8/29/2021 5:45:00 PM 22.16 71.888 0.252 7.97 12.06 8.42
8/29/2021 6:00:00 PM 22.16 71.888 0.25 7.97 10.44 8.43
8/29/2021 6:15:00 PM 22.16 71.888 0.28 7.97 11.51 8.42
8/29/2021 6:30:00 PM 22.17 71.906 0.277 7.99 21.59 8.42
8/29/2021 6:45:00 PM 22.17 71.906 0.282 7.98 11.73 8.41
8/29/2021 7:00:00 PM 22.18 71.924 0.216 7.99 10.08 8.4
8/29/2021 7:15:00 PM 22.18 71.924 0.254 7.98 11.62 8.41
8/29/2021 7:30:00 PM 22.18 71.924 0.282 7.97 11.71 8.39
8/29/2021 7:45:00 PM 22.18 71.924 0.295 7.99 11.82 8.39
8/29/2021 8:00:00 PM 22.18 71.924 0.259 7.98 11.48 8.39
8/29/2021 8:15:00 PM 22.17 71.906 0.257 7.98 11.5 8.38
8/29/2021 8:30:00 PM 22.17 71.906 0.395 8 10.13 8.38
8/29/2021 8:45:00 PM 22.16 71.888 0.244 7.97 11.52 8.38
8/29/2021 9:00:00 PM 22.15 71.87 0.256 7.9 12.67 8.38
8/29/2021 9:15:00 PM 22.15 71.87 0.268 7.96 10.65 8.37
8/29/2021 9:30:00 PM 22.14 71.852 0.261 7.97 12.38 8.37
8/29/2021 9:45:00 PM 22.14 71.852 0.278 7.98 12.19 8.36
8/29/2021 10:00:00 PM 22.14 71.852 0.267 7.9 11.95 8.35
8/29/2021 10:15:00 PM 22.14 71.852 0.294 7.98 11.12 8.35
8/29/2021 10:30:00 PM 22.15 71.87 0.259 7.92 9.2 8.35
8/29/2021 10:45:00 PM 22.15 71.87 0.303 7.99 11.14 8.35
8/29/2021 11:00:00 PM 22.15 71.87 0.287 8.01 11.03 8.34
8/29/2021 11:15:00 PM 22.15 71.87 0.406 8.01 9.62 8.34
8/29/2021 11:30:00 PM 22.16 71.888 0.305 7.97 10.77 8.33
8/29/2021 11:45:00 PM 22.16 71.888 0.271 8 11.9 8.32
8/30/2021 12:00:00 AM 22.16 71.888 0.221 7.98 10.48 8.33
8/30/2021 12:15:00 AM 22.16 71.888 0.278 7.93 10.64 8.32
8/30/2021 12:30:00 AM 22.15 71.87 0.298 7.96 10.23 8.31
8/30/2021 12:45:00 AM 22.14 71.852 0.3 7.97 10.41 8.3
8/30/2021 1:00:00 AM 22.13 71.834 0.281 7.95 10.49 8.29
8/30/2021 1:15:00 AM 22.12 71.816 0.285 7.94 10.95 8.29
8/30/2021 1:30:00 AM 22.11 71.798 0.401 7.99 10.51 8.29
8/30/2021 1:45:00 AM 22.1 71.78 0.294 8 10.75 8.29
8/30/2021 2:00:00 AM 22.08 71.744 0.272 7.97 10.84 8.28
8/30/2021 2:15:00 AM 22.07 71.726 0.282 7.99 12.53 8.28
8/30/2021 2:30:00 AM 22.05 71.69 0.293 7.96 12.05 8.27
8/30/2021 2:45:00 AM 22.03 71.654 0.421 7.99 10.24 8.27
8/30/2021 3:00:00 AM 22.01 71.618 0.289 7.99 10.43 8.27
8/30/2021 3:15:00 AM 21.99 71.582 0.265 7.98 10.86 8.27
8/30/2021 3:30:00 AM 21.96 71.528 0.279 7.98 10.86 8.27
8/30/2021 3:45:00 AM 21.94 71.492 0.293 7.93 8.75 8.25
8/30/2021 4:00:00 AM 21.91 71.438 0.261 7.99 9.61 8.26
8/30/2021 4:15:00 AM 21.88 71.384 0.306 7.94 9.39 8.26
8/30/2021 4:30:00 AM 21.86 71.348 0.246 7.97 8.56 8.26
8/30/2021 4:45:00 AM 21.84 71.312 0.289 7.98 10.44 8.26
8/30/2021 5:00:00 AM 21.81 71.258 0.287 7.96 10.8 8.25
8/30/2021 5:15:00 AM 21.79 71.222 0.322 7.97 10.7 8.25
8/30/2021 5:30:00 AM 21.77 71.186 0.294 7.92 10.94 8.25
8/30/2021 5:45:00 AM 21.75 71.15 0.292 7.97 10.93 8.25
8/30/2021 6:00:00 AM 21.73 71.114 0.248 7.89 10.45 8.26
8/30/2021 6:15:00 AM 21.72 71.096 0.24 7.96 10.37 8.25
8/30/2021 6:30:00 AM 21.69 71.042 0.297 7.96 10.79 8.25
8/30/2021 6:45:00 AM 21.68 71.024 0.427 7.97 11.08 8.25
8/30/2021 7:00:00 AM 21.67 71.006 0.298 7.95 10.95 8.26
8/30/2021 7:15:00 AM 21.66 70.988 0.299 7.91 10.98 8.25
8/30/2021 7:30:00 AM 21.66 70.988 0.307 7.93 10.62 8.27
8/30/2021 7:45:00 AM 21.66 70.988 0.251 7.94 10 8.27
8/30/2021 8:00:00 AM 21.66 70.988 0.274 7.96 10.1 8.28
8/30/2021 8:15:00 AM 21.67 71.006 0.428 7.99 9.81 8.29
8/30/2021 8:30:00 AM 21.68 71.024 0.288 8.01 10.95 8.3
8/30/2021 8:45:00 AM 21.68 71.024 0.298 7.99 8.22 8.3
8/30/2021 9:00:00 AM 21.68 71.024 0.255 8 10.01 8.29
8/30/2021 9:15:00 AM 21.69 71.042 0.299 8 9.48 8.29
8/30/2021 9:30:00 AM 21.71 71.078 0.313 7.95 9.02 8.31
8/30/2021 9:45:00 AM 21.73 71.114 0.305 8.01 8.7 8.34
8/30/2021 10:00:00 AM 21.76 71.168 0.323 7.99 8.58 8.36
8/30/2021 10:15:00 AM 21.81 71.258 0.436 8.01 8.38 8.38
8/30/2021 10:30:00 AM 21.85 71.33 0.319 7.99 8.87 8.38
8/30/2021 10:45:00 AM 21.93 71.474 0.436 8.01 8.61 8.41
8/30/2021 11:00:00 AM 22 71.6 0.304 8.01 8.29 8.42
8/30/2021 11:15:00 AM 22.08 71.744 0.281 8.01 8.08 8.43
8/30/2021 11:30:00 AM 22.04 71.672 0.267 7.98 8.51 8.39
8/30/2021 11:45:00 AM 22.1 71.78 0.305 8.02 7.79 8.41
8/30/2021 12:00:00 PM 22.13 71.834 0.296 8.02 7.56 8.42
8/30/2021 12:15:00 PM 22.2 71.96 0.321 8.05 7.85 8.44
8/30/2021 12:30:00 PM 22.29 72.122 0.449 8.04 7.54 8.44
8/30/2021 12:45:00 PM 22.3 72.14 0.291 8.02 7.38 8.37
8/30/2021 1:00:00 PM 22.25 72.05 0.269 8.02 7.55 8.33
8/30/2021 1:15:00 PM 22.29 72.122 0.282 7.99 7.53 8.37
8/30/2021 1:30:00 PM 22.37 72.266 0.319 8 7.57 8.4
8/30/2021 1:45:00 PM 22.41 72.338 0.315 8.01 9.74 8.38
8/30/2021 2:00:00 PM 22.46 72.42799 0.318 8.04 7.3 8.39
8/30/2021 2:15:00 PM 22.58 72.644 0.318 8.04 7.28 8.4
8/30/2021 2:30:00 PM 22.58 72.644 0.29 8.01 6.72 8.36
8/30/2021 2:45:00 PM 22.57 72.626 0.287 8.02 7.4 8.34
8/30/2021 3:00:00 PM 22.58 72.644 0.459 8.02 6.44 8.29
8/30/2021 3:15:00 PM 22.74 72.932 0.25 8.05 6.83 8.36
8/30/2021 3:30:00 PM 22.82 73.076 0.312 8.05 6.57 8.37
8/30/2021 3:45:00 PM 22.89 73.202 0.301 8.05 7.44 8.36
8/30/2021 4:00:00 PM 22.94 73.292 0.299 8.05 6.53 8.34
8/30/2021 4:15:00 PM 22.99 73.382 0.305 8.05 6.14 8.33
8/30/2021 4:30:00 PM 23 73.4 0.279 8.06 6.67 8.31
8/30/2021 4:45:00 PM 23.01 73.418 0.308 8.06 6.29 8.29
8/30/2021 5:00:00 PM 23.04 73.472 0.272 8.06 6.89 8.28
8/30/2021 5:15:00 PM 23.06 73.508 0.285 8.03 6.51 8.23
8/30/2021 5:30:00 PM 23.1 73.58 0.288 8.05 6.08 8.28
8/30/2021 5:45:00 PM 23.1 73.58 0.283 8.06 6.07 8.27
8/30/2021 6:00:00 PM 23.08 73.544 0.299 8.07 5.9 8.25
8/30/2021 6:15:00 PM 23.06 73.508 0.295 8.05 6.24 8.25
8/30/2021 6:30:00 PM 23.06 73.508 0.288 8.07 6.25 8.23
8/30/2021 6:45:00 PM 23.05 73.49 0.296 8.08 8.18 8.23
8/30/2021 7:00:00 PM 23.03 73.454 0.287 8.07 6.33 8.23
8/30/2021 7:15:00 PM 23 73.4 0.314 8.08 6.34 8.22
8/30/2021 7:30:00 PM 22.97 73.346 0.3 8.06 6.76 8.21
8/30/2021 7:45:00 PM 22.95 73.31 0.304 8.08 6.42 8.2
8/30/2021 8:00:00 PM 22.93 73.274 0.298 8.08 6.67 8.2
8/30/2021 8:15:00 PM 22.91 73.238 0.316 8.08 6.4 8.21
8/30/2021 8:30:00 PM 22.89 73.202 0.318 8.08 6.85 8.21
8/30/2021 8:45:00 PM 22.87 73.166 0.306 8.07 7.42 8.22
8/30/2021 9:00:00 PM 22.86 73.148 0.466 8.06 6.46 8.2
8/30/2021 9:15:00 PM 22.85 73.13 0.317 8.07 7.09 8.21
8/30/2021 9:30:00 PM 22.84 73.112 0.467 8.08 7.33 8.19
8/30/2021 9:45:00 PM 22.82 73.076 0.293 8.05 7.1 8.2
8/30/2021 10:00:00 PM 22.82 73.076 0.301 8.06 7.27 8.18
8/30/2021 10:15:00 PM 22.81 73.058 0.301 8.05 7.37 8.19
8/30/2021 10:30:00 PM 22.81 73.058 0.292 8.07 6.77 8.19
8/30/2021 10:45:00 PM 22.81 73.058 0.318 8.07 6.58 8.17
8/30/2021 11:00:00 PM 22.81 73.058 0.283 8.09 6.67 8.16
8/30/2021 11:15:00 PM 22.8 73.04 0.468 8.08 6.77 8.15
8/30/2021 11:30:00 PM 22.8 73.04 0.281 8.08 7.89 8.16
8/30/2021 11:45:00 PM 22.79 73.022 0.309 8.08 6.53 8.15
8/31/2021 12:00:00 AM 22.78 73.004 0.311 8.07 6.74 8.14
8/31/2021 12:15:00 AM 22.76 72.968 0.311 8.07 7.43 8.13
8/31/2021 12:30:00 AM 22.75 72.95 0.316 8.07 7.08 8.13
8/31/2021 12:45:00 AM 22.74 72.932 0.316 8.07 7.3 8.13
8/31/2021 1:00:00 AM 22.72 72.896 0.303 8.07 7.46 8.13
8/31/2021 1:15:00 AM 22.71 72.878 0.303 8.06 7.44 8.13
8/31/2021 1:30:00 AM 22.69 72.842 0.269 8.08 7.63 8.12
8/31/2021 1:45:00 AM 22.67 72.806 0.284 8.06 7.65 8.12
8/31/2021 2:00:00 AM 22.65 72.77 0.315 8.06 9.14 8.12
8/31/2021 2:15:00 AM 22.64 72.752 0.304 8.05 7.85 8.11
8/31/2021 2:30:00 AM 22.62 72.716 0.307 8.06 7.77 8.1
8/31/2021 2:45:00 AM 22.6 72.68 0.315 8.05 6.96 8.1
8/31/2021 3:00:00 AM 22.58 72.644 0.281 8.05 7.05 8.1
8/31/2021 3:15:00 AM 22.56 72.608 0.317 8.07 7.71 8.1
8/31/2021 3:30:00 AM 22.54 72.57201 0.289 8.06 8.1 8.09
8/31/2021 3:45:00 AM 22.52 72.536 0.318 8.06 9.72 8.09
8/31/2021 4:00:00 AM 22.49 72.482 0.299 8.06 7.91 8.09
8/31/2021 4:15:00 AM 22.47 72.446 0.32 8.07 8.44 8.09
8/31/2021 4:30:00 AM 22.45 72.41 0.311 8.06 7.6 8.08
8/31/2021 4:45:00 AM 22.43 72.374 0.31 8.05 8.28 8.08
8/31/2021 5:00:00 AM 22.41 72.338 0.317 8.06 9.93 8.08
8/31/2021 5:15:00 AM 22.39 72.302 0.306 8.05 8.99 8.08
8/31/2021 5:30:00 AM 22.37 72.266 0.474 8.06 8.47 8.08
8/31/2021 5:45:00 AM 22.34 72.212 0.291 8.05 10.06 8.08
8/31/2021 6:00:00 AM 22.32 72.176 0.302 8.04 7.69 8.08
8/31/2021 6:15:00 AM 22.29 72.122 0.303 8.05 8.1 8.08
8/31/2021 6:30:00 AM 22.27 72.086 0.268 8.03 7.58 8.1
8/31/2021 6:45:00 AM 22.24 72.032 0.285 8 7.83 8.09
8/31/2021 7:00:00 AM 22.22 71.996 0.292 8.03 7.74 8.09
8/31/2021 7:15:00 AM 22.2 71.96 0.285 8 6.85 8.1
8/31/2021 7:30:00 AM 22.18 71.924 0.302 8.04 7.43 8.12
8/31/2021 7:45:00 AM 22.16 71.888 0.298 8.01 7.65 8.12
8/31/2021 8:00:00 AM 22.14 71.852 0.303 8.04 7.6 8.14
8/31/2021 8:15:00 AM 22.13 71.834 0.321 8.05 7.93 8.16
8/31/2021 8:30:00 AM 22.12 71.816 0.299 8.06 7.73 8.17
8/31/2021 8:45:00 AM 22.13 71.834 0.286 8.07 7.42 8.22
8/31/2021 9:00:00 AM 22.12 71.816 0.472 8.04 7.46 8.23
8/31/2021 9:15:00 AM 22.11 71.798 0.284 8.07 7.36 8.25
8/31/2021 9:30:00 AM 22.11 71.798 0.283 8.06 7.4 8.27
8/31/2021 9:45:00 AM 22.11 71.798 0.265 8.05 7.3 8.28
8/31/2021 10:00:00 AM 22.11 71.798 0.268 8.07 7.79 8.3
8/31/2021 10:15:00 AM 22.11 71.798 0.318 8.06 7.51 8.32
8/31/2021 10:30:00 AM 22.13 71.834 0.474 8.08 7.19 8.34
8/31/2021 10:45:00 AM 22.15 71.87 0.307 8.08 7.91 8.36
8/31/2021 11:00:00 AM 22.15 71.87 0.303 8.08 7.4 8.36
8/31/2021 11:15:00 AM 22.16 71.888 0.255 8.08 6.87 8.36
8/31/2021 11:30:00 AM 22.15 71.87 0.312 8.08 7.09 8.32
8/31/2021 11:45:00 AM 22.13 71.834 0.284 8.09 6.72 8.34
8/31/2021 12:00:00 PM 22.13 71.834 0.298 8.08 7.76 8.32
8/31/2021 12:15:00 PM 22.12 71.816 0.481 8.09 7.66 8.3
8/31/2021 12:30:00 PM 22.14 71.852 0.264 8.08 7.46 8.31
8/31/2021 12:45:00 PM 22.16 71.888 0.304 8.06 7.67 8.33
8/31/2021 1:00:00 PM 22.16 71.888 0.296 8.09 8.46 8.34
8/31/2021 1:15:00 PM 22.18 71.924 0.275 8.1 8.07 8.34
8/31/2021 1:30:00 PM 22.2 71.96 0.296 8.03 7.43 8.35
8/31/2021 1:45:00 PM 22.19 71.942 0.312 8.07 7.76 8.34
8/31/2021 2:00:00 PM 22.21 71.978 0.272 8.08 7.38 8.38
8/31/2021 2:15:00 PM 22.21 71.978 0.296 8.11 7.66 8.37
8/31/2021 2:30:00 PM 22.22 71.996 0.274 8.05 7.78 8.38
8/31/2021 2:45:00 PM 22.22 71.996 0.27 8.08 7.72 8.36
8/31/2021 3:00:00 PM 22.23 72.014 0.297 8.07 7.95 8.36
8/31/2021 3:15:00 PM 22.25 72.05 0.487 8.09 7.72 8.38
8/31/2021 3:30:00 PM 22.25 72.05 0.275 8.06 7.81 8.34
8/31/2021 3:45:00 PM 22.26 72.068 0.488 8.1 8.74 8.33
8/31/2021 4:00:00 PM 22.27 72.086 0.489 8.08 8.24 8.33
8/31/2021 4:15:00 PM 22.29 72.122 0.322 8.08 8.2 8.34
8/31/2021 4:30:00 PM 22.3 72.14 0.302 8.07 8.3 8.33
8/31/2021 4:45:00 PM 22.33 72.194 0.316 8.09 8.7 8.34
8/31/2021 5:00:00 PM 22.33 72.194 0.492 8.09 10.27 8.32
8/31/2021 5:15:00 PM 22.33 72.194 0.277 8.09 8.48 8.31
8/31/2021 5:30:00 PM 22.33 72.194 0.319 8.08 9.05 8.28
8/31/2021 5:45:00 PM 22.33 72.194 0.317 8.11 11.13 8.27
8/31/2021 6:00:00 PM 22.34 72.212 0.312 8.1 13.12 8.26
8/31/2021 6:15:00 PM 22.35 72.23 0.494 8.11 8.5 8.28
8/31/2021 6:30:00 PM 22.35 72.23 0.311 8.04 9.76 8.27
8/31/2021 6:45:00 PM 22.35 72.23 0.276 8.11 8.91 8.25
8/31/2021 7:00:00 PM 22.35 72.23 0.289 8.04 10.02 8.25
8/31/2021 7:15:00 PM 22.35 72.23 0.309 8.07 9.96 8.23
8/31/2021 7:30:00 PM 22.35 72.23 0.312 8.09 10.73 8.24
8/31/2021 7:45:00 PM 22.35 72.23 0.291 8.07 10.58 8.24
8/31/2021 8:00:00 PM 22.35 72.23 0.286 8.05 11.07 8.24
8/31/2021 8:15:00 PM 22.35 72.23 0.27 8.1 10.78 8.24
8/31/2021 8:30:00 PM 22.35 72.23 0.502 8.11 11.91 8.22
8/31/2021 8:45:00 PM 22.35 72.23 0.28 8.09 10.69 8.26
8/31/2021 9:00:00 PM 22.35 72.23 0.29 8.1 10.77 8.26
8/31/2021 9:15:00 PM 22.35 72.23 0.264 8.11 10.46 8.27
8/31/2021 9:30:00 PM 22.35 72.23 0.264 8.11 10.9 8.26
8/31/2021 9:45:00 PM 22.35 72.23 0.506 8.1 10.65 8.27
8/31/2021 10:00:00 PM 22.35 72.23 0.297 8.12 9.92 8.26
8/31/2021 10:15:00 PM 22.35 72.23 0.282 8.12 10.18 8.26
8/31/2021 10:30:00 PM 22.35 72.23 0.257 8.11 10.26 8.27
8/31/2021 10:45:00 PM 22.35 72.23 0.297 8.1 10.43 8.26
8/31/2021 11:00:00 PM 22.35 72.23 0.275 8.12 10.18 8.25
8/31/2021 11:15:00 PM 22.34 72.212 0.287 8.1 10.14 8.24
8/31/2021 11:30:00 PM 22.34 72.212 0.32 8.11 9.54 8.26
8/31/2021 11:45:00 PM 22.34 72.212 0.508 8.12 9.22 8.25
9/1/2021 12:00:00 AM 22.34 72.212 0.294 8.07 9.41 8.25
9/1/2021 12:15:00 AM 22.34 72.212 0.506 8.14 9.09 8.25
9/1/2021 12:30:00 AM 22.34 72.212 0.289 8.09 8.85 8.25
9/1/2021 12:45:00 AM 22.34 72.212 0.276 8.12 8.51 8.25
9/1/2021 1:00:00 AM 22.33 72.194 0.276 8.13 8.29 8.25
9/1/2021 1:15:00 AM 22.32 72.176 0.264 8.13 8.05 8.26
9/1/2021 1:30:00 AM 22.31 72.158 0.296 8.09 8.06 8.26
9/1/2021 1:45:00 AM 22.3 72.14 0.281 8.12 7.74 8.26
9/1/2021 2:00:00 AM 22.28 72.104 0.286 8.07 7.93 8.25
9/1/2021 2:15:00 AM 22.27 72.086 0.28 8.12 7.84 8.24
9/1/2021 2:30:00 AM 22.25 72.05 0.507 8.12 7.51 8.24
9/1/2021 2:45:00 AM 22.24 72.032 0.289 8.13 8 8.24
9/1/2021 3:00:00 AM 22.22 71.996 0.282 8.15 7.55 8.24
9/1/2021 3:15:00 AM 22.2 71.96 0.281 8.13 7.8 8.24
9/1/2021 3:30:00 AM 22.17 71.906 0.274 8.12 7.33 8.24
9/1/2021 3:45:00 AM 22.15 71.87 0.504 8.13 7.28 8.23
9/1/2021 4:00:00 AM 22.13 71.834 0.275 8.12 7.37 8.24
9/1/2021 4:15:00 AM 22.1 71.78 0.261 8.12 7.56 8.24
9/1/2021 4:30:00 AM 22.07 71.726 0.274 8.12 7.23 8.23
9/1/2021 4:45:00 AM 22.05 71.69 0.503 8.12 7.2 8.23
9/1/2021 5:00:00 AM 22.02 71.636 0.273 8.11 6.91 8.23
9/1/2021 5:15:00 AM 21.99 71.582 0.286 8.12 7.34 8.24
9/1/2021 5:30:00 AM 21.96 71.528 0.283 8.05 7.46 8.23
9/1/2021 5:45:00 AM 21.94 71.492 0.314 8.12 7.08 8.23
9/1/2021 6:00:00 AM 21.91 71.438 0.281 8.07 7.04 8.24
9/1/2021 6:15:00 AM 21.88 71.384 0.266 8.12 7.45 8.24
9/1/2021 6:30:00 AM 21.85 71.33 0.274 8.09 11.31 8.24
9/1/2021 6:45:00 AM 21.81 71.258 0.311 8.09 7.51 8.26
9/1/2021 7:00:00 AM 21.76 71.168 0.297 8.09 9.47 8.29
9/1/2021 7:15:00 AM 21.73 71.114 0.267 8.1 10.36 8.27
9/1/2021 7:30:00 AM 21.7 71.06 0.26 8.09 8.74 8.28
9/1/2021 7:45:00 AM 21.66 70.988 0.264 8.08 9.07 8.29
9/1/2021 8:00:00 AM 21.62 70.916 0.277 8.07 8.54 8.3
9/1/2021 8:15:00 AM 21.59 70.862 0.303 8.08 9.94 8.32
9/1/2021 8:30:00 AM 21.54 70.772 0.325 8.07 9.55 8.34
9/1/2021 8:45:00 AM 21.5 70.7 0.318 8.1 9.96 8.36
9/1/2021 9:00:00 AM 21.46 70.628 0.302 8.05 9.92 8.35
9/1/2021 9:15:00 AM 21.42 70.556 0.317 8.08 9.7 8.35
9/1/2021 9:30:00 AM 21.39 70.502 0.265 8.02 9.27 8.34
9/1/2021 9:45:00 AM 21.36 70.448 0.313 8.09 9.33 8.35
9/1/2021 10:00:00 AM 21.33 70.394 0.297 8.02 9.36 8.36
9/1/2021 10:15:00 AM 21.3 70.34 0.322 8.08 8.85 8.37
9/1/2021 10:30:00 AM 21.27 70.286 0.299 8.07 9.27 8.39
9/1/2021 10:45:00 AM 21.24 70.232 0.489 8.09 9.95 8.41
9/1/2021 11:00:00 AM 21.2 70.16 0.293 8.08 9.89 8.42
9/1/2021 11:15:00 AM 21.16 70.088 0.272 8.01 11.75 8.44
9/1/2021 11:30:00 AM 21.13 70.034 0.288 8.07 13.54 8.46
9/1/2021 11:45:00 AM 21.05 69.89 0.323 8.04 15.42 8.51
9/1/2021 12:00:00 PM 20.97 69.746 0.311 8.05 17.31 8.54
9/1/2021 12:15:00 PM 20.96 69.728 0.323 8.01 19.22 8.53
9/1/2021 12:30:00 PM 20.99 69.782 0.295 8.02 19.49 8.55
9/1/2021 12:45:00 PM 21.03 69.854 0.284 8.02 19.18 8.56
9/1/2021 1:00:00 PM 21.04 69.872 0.322 8 18.26 8.57
9/1/2021 1:15:00 PM 21.06 69.908 0.289 8.04 19.54 8.58
9/1/2021 1:30:00 PM 21.08 69.944 0.303 8.03 22.07 8.59
9/1/2021 1:45:00 PM 21.09 69.962 0.299 8.04 23.83 8.6
9/1/2021 2:00:00 PM 21.09 69.962 0.328 8.06 26.7 8.6
9/1/2021 2:15:00 PM 21.08 69.944 0.308 8.03 31.34 8.62
9/1/2021 2:30:00 PM 21.07 69.926 0.262 8.03 34.71 8.64
9/1/2021 2:45:00 PM 21.03 69.854 0.298 7.95 40.85 8.66
9/1/2021 3:00:00 PM 21 69.8 0.314 7.97 52.72 8.66
9/1/2021 3:15:00 PM 20.99 69.782 0.29 7.94 65.41 8.63
9/1/2021 3:30:00 PM 20.95 69.71 0.292 7.89 90.71 8.58
9/1/2021 3:45:00 PM 20.92 69.656 0.239 7.84 137.52 8.57
9/1/2021 4:00:00 PM 20.92 69.656 0.255 7.83 190.59 8.6
9/1/2021 4:15:00 PM 20.91 69.638 0.21 7.49 228.63 8.62
9/1/2021 4:30:00 PM 20.92 69.656 0.186 7.75 286.19 8.59
9/1/2021 4:45:00 PM 20.93 69.674 0.173 7.68 360.12 8.54
9/1/2021 5:00:00 PM 20.92 69.656 0.191 7.68 430.58 8.45
9/1/2021 5:15:00 PM 20.88 69.584 0.188 7.45 426.53 8.36
9/1/2021 5:30:00 PM 20.85 69.53 0.187 7.71 475.72 8.3
9/1/2021 5:45:00 PM 20.83 69.494 0.167 7.59 455.02 8.26
9/1/2021 6:00:00 PM 20.82 69.476 0.154 7.66 446.73 8.22
9/1/2021 6:15:00 PM 20.79 69.422 0.151 7.56 413.98 8.2
9/1/2021 6:30:00 PM 20.73 69.314 0.158 7.61 367.31 8.22
9/1/2021 6:45:00 PM 20.68 69.224 0.144 7.56 332.7 8.21
9/1/2021 7:00:00 PM 20.63 69.134 0.138 7.38 334.82 8.2
9/1/2021 7:15:00 PM 20.56 69.008 0.141 7.52 397.61 8.19
9/1/2021 7:30:00 PM 20.52 68.936 0.112 7.44 350.15 8.2
9/1/2021 7:45:00 PM 20.48 68.864 0.156 7.5 305 8.21
9/1/2021 8:00:00 PM 20.44 68.792 0.119 7.52 259.17 8.2
9/1/2021 8:15:00 PM 20.4 68.72 0.138 7.52 227.68 8.2
9/1/2021 8:30:00 PM 20.36 68.648 0.124 7.46 254.75 8.19
9/1/2021 8:45:00 PM 20.32 68.576 0.128 7.37 266.66 8.01
9/1/2021 9:00:00 PM 20.28 68.504 0.126 7.3 258.56 7.95
9/1/2021 9:15:00 PM 20.24 68.432 0.137 7.47 242.34 7.95
9/1/2021 9:30:00 PM 20.23 68.414 0.131 7.46 300.35 7.88
9/1/2021 9:45:00 PM 20.22 68.396 0.138 7.47 244.3 7.87
9/1/2021 10:00:00 PM 20.22 68.396 0.132 7.45 224.04 7.88
9/1/2021 10:15:00 PM 20.22 68.396 0.134 7.45 211.99 7.85
9/1/2021 10:30:00 PM 20.22 68.396 0.134 7.45 208.55 7.81
9/1/2021 10:45:00 PM 20.22 68.396 0.13 7.44 214.21 7.79
9/1/2021 11:00:00 PM 20.22 68.396 0.126 7.24 202.86 7.71
9/1/2021 11:15:00 PM 20.21 68.378 0.151 7.38 214.72 7.66
9/1/2021 11:30:00 PM 20.2 68.36 0.127 7.38 190.42 7.63
9/1/2021 11:45:00 PM 20.19 68.342 0.131 7.4 224.29 7.58
9/2/2021 12:00:00 AM 20.18 68.324 0.149 7.34 268.19 7.39
9/2/2021 12:15:00 AM 20.18 68.324 0.133 7.38 218.96 7.43
9/2/2021 12:30:00 AM 20.17 68.306 0.123 7.33 225.64 7.3
9/2/2021 12:45:00 AM 20.16 68.288 0.15 7.34 238.27 7.21
9/2/2021 1:00:00 AM 20.14 68.252 0.123 7.11 233.49 7.12
9/2/2021 1:15:00 AM 20.13 68.234 0.132 7.41 191.76 7.08
9/2/2021 1:30:00 AM 20.11 68.198 0.125 7.39 202 7.06
9/2/2021 1:45:00 AM 20.1 68.18 0.124 7.41 212.93 6.99
9/2/2021 2:00:00 AM 20.08 68.144 0.135 7.37 181.12 6.99
9/2/2021 2:15:00 AM 20.06 68.108 0.129 7.38 183.73 7
9/2/2021 2:30:00 AM 20.04 68.07201 0.123 7.34 174.15 6.99
9/2/2021 2:45:00 AM 20.02 68.036 0.129 7.41 189.22 7
9/2/2021 3:00:00 AM 20 68 0.125 7.36 181.03 6.97
9/2/2021 3:15:00 AM 19.98 67.964 0.13 7.4 173.5 6.97
9/2/2021 3:30:00 AM 19.96 67.92799 0.126 7.31 175.1 6.96
9/2/2021 3:45:00 AM 19.93 67.874 0.153 7.38 162.75 7.02
9/2/2021 4:00:00 AM 19.9 67.82 0.132 7.39 175.92 7.01
9/2/2021 4:15:00 AM 19.87 67.766 0.116 7.39 146.71 7.04
9/2/2021 4:30:00 AM 19.84 67.712 0.133 7.4 139.59 7.06
9/2/2021 4:45:00 AM 19.81 67.658 0.132 7.4 171.24 7.1
9/2/2021 5:00:00 AM 19.77 67.586 0.119 7.31 524.67 7.14
9/2/2021 5:15:00 AM 19.74 67.532 0.139 7.41 198.31 7.17
9/2/2021 5:30:00 AM 19.7 67.46 0.135 7.32 96.53 7.18
9/2/2021 5:45:00 AM 19.66 67.388 0.138 7.4 111.73 7.2
9/2/2021 6:00:00 AM 19.62 67.316 0.133 7.38 88.12 7.21
9/2/2021 6:15:00 AM 19.58 67.244 0.135 7.38 88.44 7.23
9/2/2021 6:30:00 AM 19.54 67.172 0.134 7.37 86.33 7.24
9/2/2021 6:45:00 AM 19.5 67.1 0.139 7.24 86.7 7.26
9/2/2021 7:00:00 AM 19.46 67.028 0.121 7.25 80.28 7.3
9/2/2021 7:15:00 AM 19.42 66.956 0.138 7.39 84.38 7.31
9/2/2021 7:30:00 AM 19.38 66.884 0.133 7.35 73.9 7.32
9/2/2021 7:45:00 AM 19.34 66.812 0.143 7.38 72.59 7.35
9/2/2021 8:00:00 AM 19.3 66.74 0.162 7.34 66.94 7.39
9/2/2021 8:15:00 AM 19.26 66.668 0.139 7.38 68.51 7.41
9/2/2021 8:30:00 AM 19.22 66.596 0.139 7.37 62.12 7.46
9/2/2021 8:45:00 AM 19.19 66.542 0.134 7.18 56.31 7.49
9/2/2021 9:00:00 AM 19.16 66.488 0.165 7.35 64.49 7.54
9/2/2021 9:15:00 AM 19.13 66.434 0.144 7.37 54.22 7.57
9/2/2021 9:30:00 AM 19.11 66.398 0.145 7.4 63.81 7.64
9/2/2021 9:45:00 AM 19.09 66.362 0.123 7.28 58.43 7.77
9/2/2021 10:00:00 AM 19.07 66.326 0.152 7.41 54.52 7.79